<?xml version='1.0' encoding='UTF-8'?><gpx version="1.1" creator="JPX - https://github.com/jenetics/jpx" xmlns="http://www.topografix.com/GPX/1/1"><trk><trkseg><trkpt lat="39.8166917" lon="-0.2458617"><ele>176.0</ele><time>2026-04-11T08:34:41.954Z</time></trkpt><trkpt lat="39.8166133" lon="-0.2458667"><ele>176.0</ele><time>2026-04-11T08:34:44.955Z</time></trkpt><trkpt lat="39.8165383" lon="-0.2459133"><ele>176.0</ele><time>2026-04-11T08:34:47.954Z</time></trkpt><trkpt lat="39.816475" lon="-0.2460133"><ele>176.0</ele><time>2026-04-11T08:34:50.954Z</time></trkpt><trkpt lat="39.8164283" lon="-0.24612"><ele>176.0</ele><time>2026-04-11T08:34:52.954Z</time></trkpt><trkpt lat="39.8163917" lon="-0.2461883"><ele>176.0</ele><time>2026-04-11T08:34:53.954Z</time></trkpt><trkpt lat="39.8163517" lon="-0.24626"><ele>176.0</ele><time>2026-04-11T08:34:54.954Z</time></trkpt><trkpt lat="39.81631" lon="-0.24634"><ele>176.0</ele><time>2026-04-11T08:34:55.954Z</time></trkpt><trkpt lat="39.8162733" lon="-0.2464267"><ele>176.0</ele><time>2026-04-11T08:34:56.954Z</time></trkpt><trkpt lat="39.8162383" lon="-0.2465083"><ele>176.0</ele><time>2026-04-11T08:34:57.954Z</time></trkpt><trkpt lat="39.8162" lon="-0.2466117"><ele>176.0</ele><time>2026-04-11T08:34:58.955Z</time></trkpt><trkpt lat="39.81616" lon="-0.2467033"><ele>176.0</ele><time>2026-04-11T08:34:59.954Z</time></trkpt><trkpt lat="39.8161233" lon="-0.2467917"><ele>176.16666666666666</ele><time>2026-04-11T08:35:00.954Z</time></trkpt><trkpt lat="39.816095" lon="-0.2468783"><ele>176.33333333333331</ele><time>2026-04-11T08:35:01.954Z</time></trkpt><trkpt lat="39.8160617" lon="-0.246965"><ele>176.5</ele><time>2026-04-11T08:35:02.954Z</time></trkpt><trkpt lat="39.8160283" lon="-0.247055"><ele>176.66666666666666</ele><time>2026-04-11T08:35:03.955Z</time></trkpt><trkpt lat="39.8159967" lon="-0.24715"><ele>176.83333333333334</ele><time>2026-04-11T08:35:04.954Z</time></trkpt><trkpt lat="39.8159633" lon="-0.2472533"><ele>177.0</ele><time>2026-04-11T08:35:05.954Z</time></trkpt><trkpt lat="39.8159233" lon="-0.24735"><ele>175.33333333333334</ele><time>2026-04-11T08:35:06.954Z</time></trkpt><trkpt lat="39.8158783" lon="-0.2474433"><ele>173.66666666666666</ele><time>2026-04-11T08:35:07.954Z</time></trkpt><trkpt lat="39.8158367" lon="-0.2475367"><ele>172.0</ele><time>2026-04-11T08:35:08.954Z</time></trkpt><trkpt lat="39.8157917" lon="-0.247635"><ele>170.33333333333331</ele><time>2026-04-11T08:35:09.954Z</time></trkpt><trkpt lat="39.8157483" lon="-0.2477267"><ele>168.66666666666666</ele><time>2026-04-11T08:35:10.954Z</time></trkpt><trkpt lat="39.815695" lon="-0.2478133"><ele>167.0</ele><time>2026-04-11T08:35:11.954Z</time></trkpt><trkpt lat="39.8156467" lon="-0.247905"><ele>167.0</ele><time>2026-04-11T08:35:12.954Z</time></trkpt><trkpt lat="39.815595" lon="-0.247985"><ele>167.0</ele><time>2026-04-11T08:35:13.954Z</time></trkpt><trkpt lat="39.8155367" lon="-0.2480617"><ele>167.0</ele><time>2026-04-11T08:35:14.954Z</time></trkpt><trkpt lat="39.8154867" lon="-0.24813"><ele>167.0</ele><time>2026-04-11T08:35:15.954Z</time></trkpt><trkpt lat="39.81544" lon="-0.248195"><ele>167.0</ele><time>2026-04-11T08:35:16.954Z</time></trkpt><trkpt lat="39.8153633" lon="-0.248295"><ele>167.0</ele><time>2026-04-11T08:35:18.954Z</time></trkpt><trkpt lat="39.8153183" lon="-0.2483783"><ele>167.83333333333331</ele><time>2026-04-11T08:35:21.954Z</time></trkpt><trkpt lat="39.8152317" lon="-0.248395"><ele>168.66666666666666</ele><time>2026-04-11T08:35:24.955Z</time></trkpt><trkpt lat="39.81512" lon="-0.2483783"><ele>169.5</ele><time>2026-04-11T08:35:26.954Z</time></trkpt><trkpt lat="39.815055" lon="-0.2483533"><ele>170.33333333333334</ele><time>2026-04-11T08:35:27.954Z</time></trkpt><trkpt lat="39.8149833" lon="-0.2483267"><ele>171.16666666666669</ele><time>2026-04-11T08:35:28.954Z</time></trkpt><trkpt lat="39.8149067" lon="-0.2482967"><ele>172.0</ele><time>2026-04-11T08:35:29.954Z</time></trkpt><trkpt lat="39.814825" lon="-0.24827"><ele>170.16666666666669</ele><time>2026-04-11T08:35:30.954Z</time></trkpt><trkpt lat="39.814745" lon="-0.2482417"><ele>168.33333333333334</ele><time>2026-04-11T08:35:31.954Z</time></trkpt><trkpt lat="39.8146617" lon="-0.2482167"><ele>166.5</ele><time>2026-04-11T08:35:32.954Z</time></trkpt><trkpt lat="39.8145767" lon="-0.2481967"><ele>164.66666666666666</ele><time>2026-04-11T08:35:33.954Z</time></trkpt><trkpt lat="39.8144983" lon="-0.2481733"><ele>162.83333333333331</ele><time>2026-04-11T08:35:34.954Z</time></trkpt><trkpt lat="39.8144133" lon="-0.248155"><ele>161.0</ele><time>2026-04-11T08:35:35.954Z</time></trkpt><trkpt lat="39.8143317" lon="-0.248135"><ele>159.5</ele><time>2026-04-11T08:35:36.954Z</time></trkpt><trkpt lat="39.8142617" lon="-0.24812"><ele>158.0</ele><time>2026-04-11T08:35:37.954Z</time></trkpt><trkpt lat="39.8142" lon="-0.2480983"><ele>156.5</ele><time>2026-04-11T08:35:38.954Z</time></trkpt><trkpt lat="39.8141017" lon="-0.248045"><ele>155.0</ele><time>2026-04-11T08:35:40.954Z</time></trkpt><trkpt lat="39.8140533" lon="-0.24795"><ele>153.5</ele><time>2026-04-11T08:35:42.954Z</time></trkpt><trkpt lat="39.81405" lon="-0.2478133"><ele>152.0</ele><time>2026-04-11T08:35:44.954Z</time></trkpt><trkpt lat="39.8140483" lon="-0.2476733"><ele>152.0</ele><time>2026-04-11T08:35:46.955Z</time></trkpt><trkpt lat="39.8140467" lon="-0.2475467"><ele>152.0</ele><time>2026-04-11T08:35:48.954Z</time></trkpt><trkpt lat="39.8140383" lon="-0.247455"><ele>152.0</ele><time>2026-04-11T08:35:50.954Z</time></trkpt><trkpt lat="39.8140267" lon="-0.2473333"><ele>152.0</ele><time>2026-04-11T08:35:53.954Z</time></trkpt><trkpt lat="39.8140183" lon="-0.2472083"><ele>152.0</ele><time>2026-04-11T08:35:56.954Z</time></trkpt><trkpt lat="39.814005" lon="-0.2471083"><ele>152.0</ele><time>2026-04-11T08:35:58.954Z</time></trkpt><trkpt lat="39.8139433" lon="-0.2470333"><ele>152.83333333333331</ele><time>2026-04-11T08:36:00.955Z</time></trkpt><trkpt lat="39.8138517" lon="-0.24698"><ele>153.66666666666666</ele><time>2026-04-11T08:36:02.954Z</time></trkpt><trkpt lat="39.8137483" lon="-0.2469133"><ele>154.5</ele><time>2026-04-11T08:36:04.955Z</time></trkpt><trkpt lat="39.8137" lon="-0.2468583"><ele>155.33333333333334</ele><time>2026-04-11T08:36:05.955Z</time></trkpt><trkpt lat="39.8136533" lon="-0.246795"><ele>156.16666666666669</ele><time>2026-04-11T08:36:06.954Z</time></trkpt><trkpt lat="39.8136217" lon="-0.246715"><ele>157.0</ele><time>2026-04-11T08:36:07.954Z</time></trkpt><trkpt lat="39.8136083" lon="-0.2466233"><ele>157.0</ele><time>2026-04-11T08:36:08.955Z</time></trkpt><trkpt lat="39.81361" lon="-0.2465233"><ele>157.0</ele><time>2026-04-11T08:36:09.954Z</time></trkpt><trkpt lat="39.8136117" lon="-0.246425"><ele>157.0</ele><time>2026-04-11T08:36:10.954Z</time></trkpt><trkpt lat="39.8136033" lon="-0.246325"><ele>157.0</ele><time>2026-04-11T08:36:11.954Z</time></trkpt><trkpt lat="39.8136017" lon="-0.246235"><ele>157.0</ele><time>2026-04-11T08:36:12.954Z</time></trkpt><trkpt lat="39.8135783" lon="-0.2460867"><ele>157.0</ele><time>2026-04-11T08:36:14.954Z</time></trkpt><trkpt lat="39.81355" lon="-0.24595"><ele>157.0</ele><time>2026-04-11T08:36:16.954Z</time></trkpt><trkpt lat="39.813525" lon="-0.245815"><ele>157.0</ele><time>2026-04-11T08:36:18.954Z</time></trkpt><trkpt lat="39.8135017" lon="-0.2456817"><ele>157.0</ele><time>2026-04-11T08:36:20.954Z</time></trkpt><trkpt lat="39.813485" lon="-0.2455917"><ele>157.0</ele><time>2026-04-11T08:36:22.954Z</time></trkpt><trkpt lat="39.8134533" lon="-0.2454667"><ele>157.0</ele><time>2026-04-11T08:36:24.955Z</time></trkpt><trkpt lat="39.8134117" lon="-0.245335"><ele>154.79999999999998</ele><time>2026-04-11T08:36:26.954Z</time></trkpt><trkpt lat="39.8133567" lon="-0.245225"><ele>152.6</ele><time>2026-04-11T08:36:28.954Z</time></trkpt><trkpt lat="39.813275" lon="-0.2451267"><ele>150.39999999999998</ele><time>2026-04-11T08:36:30.955Z</time></trkpt><trkpt lat="39.8131367" lon="-0.2451233"><ele>148.2</ele><time>2026-04-11T08:36:32.954Z</time></trkpt><trkpt lat="39.8130517" lon="-0.2451433"><ele>146.0</ele><time>2026-04-11T08:36:33.954Z</time></trkpt><trkpt lat="39.812975" lon="-0.245175"><ele>146.0</ele><time>2026-04-11T08:36:34.955Z</time></trkpt><trkpt lat="39.8128867" lon="-0.2452017"><ele>146.0</ele><time>2026-04-11T08:36:35.955Z</time></trkpt><trkpt lat="39.8128133" lon="-0.245235"><ele>146.0</ele><time>2026-04-11T08:36:36.954Z</time></trkpt><trkpt lat="39.8127317" lon="-0.2452667"><ele>146.0</ele><time>2026-04-11T08:36:37.954Z</time></trkpt><trkpt lat="39.8126483" lon="-0.245295"><ele>146.0</ele><time>2026-04-11T08:36:38.954Z</time></trkpt><trkpt lat="39.81256" lon="-0.24533"><ele>146.0</ele><time>2026-04-11T08:36:39.954Z</time></trkpt><trkpt lat="39.812475" lon="-0.2453567"><ele>145.0</ele><time>2026-04-11T08:36:40.954Z</time></trkpt><trkpt lat="39.81239" lon="-0.2453883"><ele>144.0</ele><time>2026-04-11T08:36:41.954Z</time></trkpt><trkpt lat="39.812305" lon="-0.245415"><ele>143.0</ele><time>2026-04-11T08:36:42.954Z</time></trkpt><trkpt lat="39.812225" lon="-0.245445"><ele>142.0</ele><time>2026-04-11T08:36:43.954Z</time></trkpt><trkpt lat="39.8121517" lon="-0.2454767"><ele>141.0</ele><time>2026-04-11T08:36:44.954Z</time></trkpt><trkpt lat="39.8120783" lon="-0.245515"><ele>140.0</ele><time>2026-04-11T08:36:45.954Z</time></trkpt><trkpt lat="39.8120117" lon="-0.245545"><ele>140.0</ele><time>2026-04-11T08:36:46.954Z</time></trkpt><trkpt lat="39.8119467" lon="-0.245575"><ele>140.0</ele><time>2026-04-11T08:36:47.955Z</time></trkpt><trkpt lat="39.8118867" lon="-0.24561"><ele>140.0</ele><time>2026-04-11T08:36:48.954Z</time></trkpt><trkpt lat="39.8118" lon="-0.245705"><ele>140.0</ele><time>2026-04-11T08:36:50.955Z</time></trkpt><trkpt lat="39.8117717" lon="-0.2458233"><ele>140.0</ele><time>2026-04-11T08:36:52.954Z</time></trkpt><trkpt lat="39.8117833" lon="-0.2459633"><ele>139.6</ele><time>2026-04-11T08:36:54.954Z</time></trkpt><trkpt lat="39.81181" lon="-0.2460983"><ele>139.2</ele><time>2026-04-11T08:36:56.954Z</time></trkpt><trkpt lat="39.8118317" lon="-0.2462367"><ele>138.8</ele><time>2026-04-11T08:36:58.954Z</time></trkpt><trkpt lat="39.8118567" lon="-0.246355"><ele>138.4</ele><time>2026-04-11T08:37:00.955Z</time></trkpt><trkpt lat="39.811875" lon="-0.2464717"><ele>138.0</ele><time>2026-04-11T08:37:02.955Z</time></trkpt><trkpt lat="39.8119033" lon="-0.2465917"><ele>137.66666666666666</ele><time>2026-04-11T08:37:04.954Z</time></trkpt><trkpt lat="39.8119233" lon="-0.2467133"><ele>137.33333333333334</ele><time>2026-04-11T08:37:06.954Z</time></trkpt><trkpt lat="39.8119467" lon="-0.2468183"><ele>137.0</ele><time>2026-04-11T08:37:08.955Z</time></trkpt><trkpt lat="39.81197" lon="-0.2469167"><ele>136.66666666666669</ele><time>2026-04-11T08:37:10.954Z</time></trkpt><trkpt lat="39.8119783" lon="-0.24702"><ele>136.33333333333334</ele><time>2026-04-11T08:37:12.954Z</time></trkpt><trkpt lat="39.81199" lon="-0.2471217"><ele>136.0</ele><time>2026-04-11T08:37:14.954Z</time></trkpt><trkpt lat="39.8119983" lon="-0.2472367"><ele>136.0</ele><time>2026-04-11T08:37:16.954Z</time></trkpt><trkpt lat="39.8120167" lon="-0.2473483"><ele>136.0</ele><time>2026-04-11T08:37:18.954Z</time></trkpt><trkpt lat="39.8120483" lon="-0.2474817"><ele>136.0</ele><time>2026-04-11T08:37:20.955Z</time></trkpt><trkpt lat="39.8120867" lon="-0.2475483"><ele>136.0</ele><time>2026-04-11T08:37:21.954Z</time></trkpt><trkpt lat="39.8121433" lon="-0.2476267"><ele>136.0</ele><time>2026-04-11T08:37:22.954Z</time></trkpt><trkpt lat="39.8121967" lon="-0.2477033"><ele>136.0</ele><time>2026-04-11T08:37:23.955Z</time></trkpt><trkpt lat="39.8122433" lon="-0.2477817"><ele>136.0</ele><time>2026-04-11T08:37:24.955Z</time></trkpt><trkpt lat="39.8122733" lon="-0.2478683"><ele>136.0</ele><time>2026-04-11T08:37:25.954Z</time></trkpt><trkpt lat="39.8122933" lon="-0.2479567"><ele>136.0</ele><time>2026-04-11T08:37:26.955Z</time></trkpt><trkpt lat="39.8123067" lon="-0.24804"><ele>136.0</ele><time>2026-04-11T08:37:27.953Z</time></trkpt><trkpt lat="39.8123367" lon="-0.24818"><ele>136.0</ele><time>2026-04-11T08:37:29.953Z</time></trkpt><trkpt lat="39.8123583" lon="-0.2482817"><ele>136.0</ele><time>2026-04-11T08:37:31.953Z</time></trkpt><trkpt lat="39.81237" lon="-0.248385"><ele>136.33333333333334</ele><time>2026-04-11T08:37:34.953Z</time></trkpt><trkpt lat="39.8123617" lon="-0.2485"><ele>136.66666666666669</ele><time>2026-04-11T08:37:37.953Z</time></trkpt><trkpt lat="39.8123533" lon="-0.248595"><ele>137.0</ele><time>2026-04-11T08:37:40.953Z</time></trkpt><trkpt lat="39.8123433" lon="-0.248695"><ele>137.33333333333334</ele><time>2026-04-11T08:37:44.954Z</time></trkpt><trkpt lat="39.8123233" lon="-0.2487967"><ele>137.66666666666666</ele><time>2026-04-11T08:37:48.953Z</time></trkpt><trkpt lat="39.81231" lon="-0.2489083"><ele>138.0</ele><time>2026-04-11T08:37:52.953Z</time></trkpt><trkpt lat="39.8122867" lon="-0.24901"><ele>138.83333333333334</ele><time>2026-04-11T08:37:55.954Z</time></trkpt><trkpt lat="39.8122733" lon="-0.2491067"><ele>139.66666666666666</ele><time>2026-04-11T08:37:58.953Z</time></trkpt><trkpt lat="39.812265" lon="-0.2492033"><ele>140.5</ele><time>2026-04-11T08:38:01.954Z</time></trkpt><trkpt lat="39.8122233" lon="-0.2492933"><ele>141.33333333333331</ele><time>2026-04-11T08:38:04.953Z</time></trkpt><trkpt lat="39.8121667" lon="-0.24934"><ele>142.16666666666666</ele><time>2026-04-11T08:38:06.953Z</time></trkpt><trkpt lat="39.81209" lon="-0.2494083"><ele>143.0</ele><time>2026-04-11T08:38:09.953Z</time></trkpt><trkpt lat="39.81204" lon="-0.2494733"><ele>142.99999999999997</ele><time>2026-04-11T08:38:11.953Z</time></trkpt><trkpt lat="39.8120317" lon="-0.2495617"><ele>143.0</ele><time>2026-04-11T08:38:13.954Z</time></trkpt><trkpt lat="39.812045" lon="-0.2496567"><ele>143.0</ele><time>2026-04-11T08:38:15.953Z</time></trkpt><trkpt lat="39.8120667" lon="-0.2497467"><ele>143.0</ele><time>2026-04-11T08:38:17.953Z</time></trkpt><trkpt lat="39.8120833" lon="-0.2498467"><ele>143.0</ele><time>2026-04-11T08:38:19.953Z</time></trkpt><trkpt lat="39.8121033" lon="-0.2499417"><ele>142.99999999999997</ele><time>2026-04-11T08:38:21.953Z</time></trkpt><trkpt lat="39.8121183" lon="-0.2500317"><ele>143.0</ele><time>2026-04-11T08:38:23.954Z</time></trkpt><trkpt lat="39.8121267" lon="-0.2501267"><ele>143.33333333333331</ele><time>2026-04-11T08:38:25.954Z</time></trkpt><trkpt lat="39.8121467" lon="-0.25023"><ele>143.66666666666666</ele><time>2026-04-11T08:38:27.953Z</time></trkpt><trkpt lat="39.812155" lon="-0.2503367"><ele>144.0</ele><time>2026-04-11T08:38:29.953Z</time></trkpt><trkpt lat="39.812145" lon="-0.25045"><ele>144.33333333333334</ele><time>2026-04-11T08:38:31.953Z</time></trkpt><trkpt lat="39.8121317" lon="-0.2505417"><ele>144.66666666666669</ele><time>2026-04-11T08:38:33.953Z</time></trkpt><trkpt lat="39.8121233" lon="-0.2506233"><ele>145.0</ele><time>2026-04-11T08:38:35.953Z</time></trkpt><trkpt lat="39.8121033" lon="-0.2507417"><ele>145.66666666666669</ele><time>2026-04-11T08:38:38.953Z</time></trkpt><trkpt lat="39.8120867" lon="-0.2508467"><ele>146.33333333333334</ele><time>2026-04-11T08:38:41.953Z</time></trkpt><trkpt lat="39.812065" lon="-0.2509583"><ele>147.0</ele><time>2026-04-11T08:38:44.953Z</time></trkpt><trkpt lat="39.8120433" lon="-0.2510717"><ele>147.66666666666666</ele><time>2026-04-11T08:38:47.954Z</time></trkpt><trkpt lat="39.8120283" lon="-0.2511817"><ele>148.33333333333331</ele><time>2026-04-11T08:38:50.953Z</time></trkpt><trkpt lat="39.81202" lon="-0.2512783"><ele>149.0</ele><time>2026-04-11T08:38:53.953Z</time></trkpt><trkpt lat="39.8120317" lon="-0.25137"><ele>149.83333333333331</ele><time>2026-04-11T08:38:56.953Z</time></trkpt><trkpt lat="39.812085" lon="-0.251465"><ele>150.66666666666666</ele><time>2026-04-11T08:38:59.953Z</time></trkpt><trkpt lat="39.81215" lon="-0.251535"><ele>151.5</ele><time>2026-04-11T08:39:02.953Z</time></trkpt><trkpt lat="39.8122233" lon="-0.25162"><ele>152.33333333333334</ele><time>2026-04-11T08:39:05.953Z</time></trkpt><trkpt lat="39.8122733" lon="-0.25168"><ele>153.16666666666669</ele><time>2026-04-11T08:39:07.953Z</time></trkpt><trkpt lat="39.81234" lon="-0.251765"><ele>154.0</ele><time>2026-04-11T08:39:10.953Z</time></trkpt><trkpt lat="39.8123867" lon="-0.251825"><ele>154.0</ele><time>2026-04-11T08:39:12.953Z</time></trkpt><trkpt lat="39.8124317" lon="-0.25191"><ele>154.0</ele><time>2026-04-11T08:39:14.953Z</time></trkpt><trkpt lat="39.8124533" lon="-0.2520067"><ele>154.0</ele><time>2026-04-11T08:39:16.954Z</time></trkpt><trkpt lat="39.8124533" lon="-0.2521033"><ele>154.0</ele><time>2026-04-11T08:39:18.954Z</time></trkpt><trkpt lat="39.8124283" lon="-0.2522067"><ele>154.0</ele><time>2026-04-11T08:39:21.954Z</time></trkpt><trkpt lat="39.8123967" lon="-0.2522967"><ele>154.0</ele><time>2026-04-11T08:39:24.953Z</time></trkpt><trkpt lat="39.8123683" lon="-0.2523833"><ele>155.0</ele><time>2026-04-11T08:39:27.954Z</time></trkpt><trkpt lat="39.8123333" lon="-0.2524733"><ele>156.0</ele><time>2026-04-11T08:39:30.953Z</time></trkpt><trkpt lat="39.8122933" lon="-0.2525683"><ele>157.0</ele><time>2026-04-11T08:39:34.954Z</time></trkpt><trkpt lat="39.8122617" lon="-0.25264"><ele>158.0</ele><time>2026-04-11T08:39:37.954Z</time></trkpt><trkpt lat="39.8122267" lon="-0.2527333"><ele>159.0</ele><time>2026-04-11T08:39:41.953Z</time></trkpt><trkpt lat="39.8122083" lon="-0.2528167"><ele>160.0</ele><time>2026-04-11T08:39:44.953Z</time></trkpt><trkpt lat="39.812205" lon="-0.2529017"><ele>161.0</ele><time>2026-04-11T08:39:47.954Z</time></trkpt><trkpt lat="39.8122183" lon="-0.2530083"><ele>161.0</ele><time>2026-04-11T08:39:50.954Z</time></trkpt><trkpt lat="39.81221" lon="-0.25311"><ele>161.0</ele><time>2026-04-11T08:39:53.953Z</time></trkpt><trkpt lat="39.81221" lon="-0.2532"><ele>161.0</ele><time>2026-04-11T08:39:57.953Z</time></trkpt><trkpt lat="39.812215" lon="-0.2533"><ele>161.0</ele><time>2026-04-11T08:40:01.953Z</time></trkpt><trkpt lat="39.8122083" lon="-0.2534017"><ele>161.0</ele><time>2026-04-11T08:40:04.953Z</time></trkpt><trkpt lat="39.8122017" lon="-0.2535167"><ele>161.0</ele><time>2026-04-11T08:40:07.954Z</time></trkpt><trkpt lat="39.8122167" lon="-0.253625"><ele>161.66666666666666</ele><time>2026-04-11T08:40:10.954Z</time></trkpt><trkpt lat="39.8122333" lon="-0.253705"><ele>162.33333333333331</ele><time>2026-04-11T08:40:12.953Z</time></trkpt><trkpt lat="39.8122567" lon="-0.25381"><ele>163.0</ele><time>2026-04-11T08:40:15.953Z</time></trkpt><trkpt lat="39.8122783" lon="-0.2538917"><ele>163.66666666666666</ele><time>2026-04-11T08:40:17.953Z</time></trkpt><trkpt lat="39.812315" lon="-0.2539717"><ele>164.33333333333334</ele><time>2026-04-11T08:40:19.954Z</time></trkpt><trkpt lat="39.8123667" lon="-0.254065"><ele>165.0</ele><time>2026-04-11T08:40:21.954Z</time></trkpt><trkpt lat="39.8124167" lon="-0.2541517"><ele>166.0</ele><time>2026-04-11T08:40:23.954Z</time></trkpt><trkpt lat="39.8124667" lon="-0.254245"><ele>167.0</ele><time>2026-04-11T08:40:25.953Z</time></trkpt><trkpt lat="39.81251" lon="-0.2543517"><ele>168.0</ele><time>2026-04-11T08:40:27.953Z</time></trkpt><trkpt lat="39.8125583" lon="-0.254455"><ele>169.0</ele><time>2026-04-11T08:40:29.954Z</time></trkpt><trkpt lat="39.8125983" lon="-0.25456"><ele>170.0</ele><time>2026-04-11T08:40:31.954Z</time></trkpt><trkpt lat="39.8126283" lon="-0.254655"><ele>171.0</ele><time>2026-04-11T08:40:33.953Z</time></trkpt><trkpt lat="39.8126417" lon="-0.2547517"><ele>170.5</ele><time>2026-04-11T08:40:35.954Z</time></trkpt><trkpt lat="39.812655" lon="-0.2548333"><ele>170.0</ele><time>2026-04-11T08:40:37.953Z</time></trkpt><trkpt lat="39.8126583" lon="-0.2549383"><ele>169.5</ele><time>2026-04-11T08:40:40.953Z</time></trkpt><trkpt lat="39.8126467" lon="-0.2550417"><ele>169.0</ele><time>2026-04-11T08:40:43.953Z</time></trkpt><trkpt lat="39.812625" lon="-0.2551267"><ele>168.5</ele><time>2026-04-11T08:40:46.953Z</time></trkpt><trkpt lat="39.8126183" lon="-0.2552333"><ele>168.0</ele><time>2026-04-11T08:40:49.954Z</time></trkpt><trkpt lat="39.812625" lon="-0.2553467"><ele>169.66666666666666</ele><time>2026-04-11T08:40:52.953Z</time></trkpt><trkpt lat="39.8126283" lon="-0.2554517"><ele>171.33333333333334</ele><time>2026-04-11T08:40:55.954Z</time></trkpt><trkpt lat="39.81262" lon="-0.25556"><ele>173.0</ele><time>2026-04-11T08:40:58.953Z</time></trkpt><trkpt lat="39.8126117" lon="-0.255665"><ele>174.66666666666669</ele><time>2026-04-11T08:41:01.953Z</time></trkpt><trkpt lat="39.8126267" lon="-0.2557517"><ele>176.33333333333334</ele><time>2026-04-11T08:41:04.953Z</time></trkpt><trkpt lat="39.8126267" lon="-0.2558367"><ele>178.0</ele><time>2026-04-11T08:41:07.953Z</time></trkpt><trkpt lat="39.8126283" lon="-0.2559317"><ele>177.83333333333334</ele><time>2026-04-11T08:41:10.954Z</time></trkpt><trkpt lat="39.8126383" lon="-0.2560383"><ele>177.66666666666669</ele><time>2026-04-11T08:41:14.953Z</time></trkpt><trkpt lat="39.8126617" lon="-0.2561467"><ele>177.5</ele><time>2026-04-11T08:41:18.953Z</time></trkpt><trkpt lat="39.81268" lon="-0.2562367"><ele>177.33333333333334</ele><time>2026-04-11T08:41:21.953Z</time></trkpt><trkpt lat="39.8127" lon="-0.2563483"><ele>177.16666666666666</ele><time>2026-04-11T08:41:25.953Z</time></trkpt><trkpt lat="39.8127267" lon="-0.25643"><ele>177.0</ele><time>2026-04-11T08:41:28.953Z</time></trkpt><trkpt lat="39.8127383" lon="-0.2565267"><ele>177.0</ele><time>2026-04-11T08:41:31.953Z</time></trkpt><trkpt lat="39.8127567" lon="-0.2566283"><ele>177.0</ele><time>2026-04-11T08:41:34.953Z</time></trkpt><trkpt lat="39.81277" lon="-0.2567367"><ele>177.0</ele><time>2026-04-11T08:41:37.953Z</time></trkpt><trkpt lat="39.812785" lon="-0.2568183"><ele>177.0</ele><time>2026-04-11T08:41:39.954Z</time></trkpt><trkpt lat="39.8128" lon="-0.2569017"><ele>177.0</ele><time>2026-04-11T08:41:41.953Z</time></trkpt><trkpt lat="39.8128217" lon="-0.2569833"><ele>177.0</ele><time>2026-04-11T08:41:43.953Z</time></trkpt><trkpt lat="39.812845" lon="-0.2570667"><ele>177.0</ele><time>2026-04-11T08:41:45.953Z</time></trkpt><trkpt lat="39.8128683" lon="-0.25715"><ele>177.0</ele><time>2026-04-11T08:41:47.954Z</time></trkpt><trkpt lat="39.8129" lon="-0.25725"><ele>177.0</ele><time>2026-04-11T08:41:49.953Z</time></trkpt><trkpt lat="39.812915" lon="-0.2573367"><ele>177.0</ele><time>2026-04-11T08:41:51.954Z</time></trkpt><trkpt lat="39.8129133" lon="-0.2574367"><ele>177.0</ele><time>2026-04-11T08:41:53.953Z</time></trkpt><trkpt lat="39.81291" lon="-0.25753"><ele>177.0</ele><time>2026-04-11T08:41:55.953Z</time></trkpt><trkpt lat="39.812895" lon="-0.2576467"><ele>177.0</ele><time>2026-04-11T08:41:58.954Z</time></trkpt><trkpt lat="39.812885" lon="-0.257755"><ele>177.33333333333334</ele><time>2026-04-11T08:42:01.953Z</time></trkpt><trkpt lat="39.8128733" lon="-0.257865"><ele>177.66666666666666</ele><time>2026-04-11T08:42:04.954Z</time></trkpt><trkpt lat="39.8128433" lon="-0.257965"><ele>178.0</ele><time>2026-04-11T08:42:07.953Z</time></trkpt><trkpt lat="39.81281" lon="-0.258065"><ele>178.33333333333331</ele><time>2026-04-11T08:42:10.953Z</time></trkpt><trkpt lat="39.8127833" lon="-0.2581617"><ele>178.66666666666666</ele><time>2026-04-11T08:42:13.953Z</time></trkpt><trkpt lat="39.8127533" lon="-0.2582467"><ele>179.0</ele><time>2026-04-11T08:42:16.953Z</time></trkpt><trkpt lat="39.81272" lon="-0.2583167"><ele>179.66666666666666</ele><time>2026-04-11T08:42:19.953Z</time></trkpt><trkpt lat="39.8126733" lon="-0.2583883"><ele>180.33333333333331</ele><time>2026-04-11T08:42:23.953Z</time></trkpt><trkpt lat="39.8126333" lon="-0.2584833"><ele>181.0</ele><time>2026-04-11T08:42:27.953Z</time></trkpt><trkpt lat="39.81259" lon="-0.2585733"><ele>181.66666666666666</ele><time>2026-04-11T08:42:30.954Z</time></trkpt><trkpt lat="39.8125417" lon="-0.25865"><ele>182.33333333333334</ele><time>2026-04-11T08:42:32.953Z</time></trkpt><trkpt lat="39.8124867" lon="-0.2587367"><ele>183.0</ele><time>2026-04-11T08:42:34.953Z</time></trkpt><trkpt lat="39.812405" lon="-0.2588233"><ele>184.33333333333334</ele><time>2026-04-11T08:42:36.953Z</time></trkpt><trkpt lat="39.8123167" lon="-0.258885"><ele>185.66666666666666</ele><time>2026-04-11T08:42:38.953Z</time></trkpt><trkpt lat="39.8122433" lon="-0.2589417"><ele>187.0</ele><time>2026-04-11T08:42:40.953Z</time></trkpt><trkpt lat="39.8121833" lon="-0.258995"><ele>188.33333333333331</ele><time>2026-04-11T08:42:42.953Z</time></trkpt><trkpt lat="39.8121283" lon="-0.2590417"><ele>189.66666666666666</ele><time>2026-04-11T08:42:44.953Z</time></trkpt><trkpt lat="39.812075" lon="-0.2590917"><ele>191.0</ele><time>2026-04-11T08:42:46.954Z</time></trkpt><trkpt lat="39.8120133" lon="-0.2591333"><ele>191.0</ele><time>2026-04-11T08:42:48.954Z</time></trkpt><trkpt lat="39.811955" lon="-0.2591717"><ele>191.0</ele><time>2026-04-11T08:42:50.953Z</time></trkpt><trkpt lat="39.8118983" lon="-0.2592133"><ele>191.0</ele><time>2026-04-11T08:42:52.953Z</time></trkpt><trkpt lat="39.8118417" lon="-0.259255"><ele>191.0</ele><time>2026-04-11T08:42:54.953Z</time></trkpt><trkpt lat="39.8117583" lon="-0.2593067"><ele>191.0</ele><time>2026-04-11T08:42:57.953Z</time></trkpt><trkpt lat="39.8116833" lon="-0.259365"><ele>191.0</ele><time>2026-04-11T08:43:00.953Z</time></trkpt><trkpt lat="39.8116317" lon="-0.2594133"><ele>191.0</ele><time>2026-04-11T08:43:02.953Z</time></trkpt><trkpt lat="39.8115767" lon="-0.259455"><ele>192.42857142857144</ele><time>2026-04-11T08:43:04.954Z</time></trkpt><trkpt lat="39.81152" lon="-0.2594933"><ele>193.85714285714283</ele><time>2026-04-11T08:43:06.953Z</time></trkpt><trkpt lat="39.8114633" lon="-0.2595367"><ele>195.28571428571428</ele><time>2026-04-11T08:43:08.953Z</time></trkpt><trkpt lat="39.8114" lon="-0.2595767"><ele>196.71428571428572</ele><time>2026-04-11T08:43:10.953Z</time></trkpt><trkpt lat="39.8113333" lon="-0.25962"><ele>198.14285714285717</ele><time>2026-04-11T08:43:12.954Z</time></trkpt><trkpt lat="39.8112617" lon="-0.259665"><ele>199.57142857142856</ele><time>2026-04-11T08:43:14.953Z</time></trkpt><trkpt lat="39.81118" lon="-0.25971"><ele>201.0</ele><time>2026-04-11T08:43:16.953Z</time></trkpt><trkpt lat="39.8111" lon="-0.259735"><ele>201.0</ele><time>2026-04-11T08:43:18.954Z</time></trkpt><trkpt lat="39.811025" lon="-0.2597617"><ele>201.0</ele><time>2026-04-11T08:43:20.953Z</time></trkpt><trkpt lat="39.810945" lon="-0.25978"><ele>201.0</ele><time>2026-04-11T08:43:22.953Z</time></trkpt><trkpt lat="39.810865" lon="-0.2598"><ele>201.0</ele><time>2026-04-11T08:43:24.953Z</time></trkpt><trkpt lat="39.8107967" lon="-0.2598383"><ele>201.0</ele><time>2026-04-11T08:43:26.953Z</time></trkpt><trkpt lat="39.810735" lon="-0.25988"><ele>201.0</ele><time>2026-04-11T08:43:28.953Z</time></trkpt><trkpt lat="39.8106683" lon="-0.25996"><ele>201.5</ele><time>2026-04-11T08:43:31.953Z</time></trkpt><trkpt lat="39.8106" lon="-0.2600267"><ele>202.0</ele><time>2026-04-11T08:43:34.953Z</time></trkpt><trkpt lat="39.810545" lon="-0.2600817"><ele>202.5</ele><time>2026-04-11T08:43:37.953Z</time></trkpt><trkpt lat="39.810495" lon="-0.2601467"><ele>203.0</ele><time>2026-04-11T08:43:40.953Z</time></trkpt><trkpt lat="39.8104283" lon="-0.2602283"><ele>203.5</ele><time>2026-04-11T08:43:43.953Z</time></trkpt><trkpt lat="39.81038" lon="-0.2603"><ele>204.0</ele><time>2026-04-11T08:43:45.953Z</time></trkpt><trkpt lat="39.81035" lon="-0.2603867"><ele>204.0</ele><time>2026-04-11T08:43:47.953Z</time></trkpt><trkpt lat="39.8103533" lon="-0.26048"><ele>204.0</ele><time>2026-04-11T08:43:49.953Z</time></trkpt><trkpt lat="39.8103767" lon="-0.260585"><ele>204.0</ele><time>2026-04-11T08:43:51.954Z</time></trkpt><trkpt lat="39.8104083" lon="-0.2606683"><ele>204.0</ele><time>2026-04-11T08:43:53.953Z</time></trkpt><trkpt lat="39.810425" lon="-0.2607617"><ele>204.0</ele><time>2026-04-11T08:43:56.954Z</time></trkpt><trkpt lat="39.81044" lon="-0.2608583"><ele>204.0</ele><time>2026-04-11T08:43:59.953Z</time></trkpt><trkpt lat="39.8104383" lon="-0.2609433"><ele>204.0</ele><time>2026-04-11T08:44:01.954Z</time></trkpt><trkpt lat="39.8104217" lon="-0.2610317"><ele>204.28571428571428</ele><time>2026-04-11T08:44:03.953Z</time></trkpt><trkpt lat="39.8104017" lon="-0.2611217"><ele>204.57142857142858</ele><time>2026-04-11T08:44:05.953Z</time></trkpt><trkpt lat="39.8103817" lon="-0.2612083"><ele>204.85714285714283</ele><time>2026-04-11T08:44:07.954Z</time></trkpt><trkpt lat="39.8103617" lon="-0.26129"><ele>205.14285714285714</ele><time>2026-04-11T08:44:09.953Z</time></trkpt><trkpt lat="39.81034" lon="-0.2614017"><ele>205.42857142857142</ele><time>2026-04-11T08:44:12.954Z</time></trkpt><trkpt lat="39.8103283" lon="-0.2615017"><ele>205.7142857142857</ele><time>2026-04-11T08:44:15.954Z</time></trkpt><trkpt lat="39.8103117" lon="-0.261585"><ele>206.0</ele><time>2026-04-11T08:44:18.953Z</time></trkpt><trkpt lat="39.8103033" lon="-0.2616667"><ele>206.14285714285714</ele><time>2026-04-11T08:44:21.954Z</time></trkpt><trkpt lat="39.8103033" lon="-0.26175"><ele>206.28571428571428</ele><time>2026-04-11T08:44:24.953Z</time></trkpt><trkpt lat="39.8102983" lon="-0.2618467"><ele>206.42857142857144</ele><time>2026-04-11T08:44:28.954Z</time></trkpt><trkpt lat="39.81028" lon="-0.261945"><ele>206.57142857142856</ele><time>2026-04-11T08:44:32.953Z</time></trkpt><trkpt lat="39.8103067" lon="-0.26203"><ele>206.71428571428572</ele><time>2026-04-11T08:44:35.953Z</time></trkpt><trkpt lat="39.8103517" lon="-0.2621"><ele>206.85714285714286</ele><time>2026-04-11T08:44:37.953Z</time></trkpt><trkpt lat="39.81042" lon="-0.2621783"><ele>207.0</ele><time>2026-04-11T08:44:39.953Z</time></trkpt><trkpt lat="39.81045" lon="-0.2622933"><ele>208.0</ele><time>2026-04-11T08:44:41.953Z</time></trkpt><trkpt lat="39.8104533" lon="-0.2623983"><ele>209.0</ele><time>2026-04-11T08:44:43.953Z</time></trkpt><trkpt lat="39.8104383" lon="-0.26249"><ele>210.0</ele><time>2026-04-11T08:44:45.954Z</time></trkpt><trkpt lat="39.8104033" lon="-0.2625883"><ele>211.0</ele><time>2026-04-11T08:44:48.954Z</time></trkpt><trkpt lat="39.8103533" lon="-0.2626733"><ele>212.0</ele><time>2026-04-11T08:44:51.953Z</time></trkpt><trkpt lat="39.810295" lon="-0.2627383"><ele>213.0</ele><time>2026-04-11T08:44:54.953Z</time></trkpt><trkpt lat="39.8102367" lon="-0.2628233"><ele>212.99999999999997</ele><time>2026-04-11T08:44:57.954Z</time></trkpt><trkpt lat="39.81019" lon="-0.2629017"><ele>213.0</ele><time>2026-04-11T08:45:00.953Z</time></trkpt><trkpt lat="39.8101417" lon="-0.262965"><ele>213.0</ele><time>2026-04-11T08:45:03.953Z</time></trkpt><trkpt lat="39.8101083" lon="-0.263055"><ele>213.0</ele><time>2026-04-11T08:45:07.953Z</time></trkpt><trkpt lat="39.810075" lon="-0.263135"><ele>213.0</ele><time>2026-04-11T08:45:10.953Z</time></trkpt><trkpt lat="39.810045" lon="-0.26321"><ele>212.99999999999997</ele><time>2026-04-11T08:45:13.953Z</time></trkpt><trkpt lat="39.8100333" lon="-0.2632917"><ele>213.0</ele><time>2026-04-11T08:45:16.953Z</time></trkpt><trkpt lat="39.810015" lon="-0.263375"><ele>214.0</ele><time>2026-04-11T08:45:19.953Z</time></trkpt><trkpt lat="39.81001" lon="-0.2634567"><ele>215.0</ele><time>2026-04-11T08:45:22.953Z</time></trkpt><trkpt lat="39.8100217" lon="-0.2635633"><ele>216.0</ele><time>2026-04-11T08:45:26.954Z</time></trkpt><trkpt lat="39.8100217" lon="-0.26366"><ele>217.0</ele><time>2026-04-11T08:45:29.953Z</time></trkpt><trkpt lat="39.8100536" lon="-0.2637609"><ele>218.0</ele><time>2026-04-11T08:45:32.989Z</time></trkpt><trkpt lat="39.8100967" lon="-0.2638567"><ele>219.0</ele><time>2026-04-11T08:45:35.954Z</time></trkpt><trkpt lat="39.8101683" lon="-0.2639283"><ele>221.83333333333334</ele><time>2026-04-11T08:45:38.953Z</time></trkpt><trkpt lat="39.8102383" lon="-0.2639917"><ele>224.66666666666669</ele><time>2026-04-11T08:45:41.953Z</time></trkpt><trkpt lat="39.81032" lon="-0.2640583"><ele>227.5</ele><time>2026-04-11T08:45:44.953Z</time></trkpt><trkpt lat="39.8103733" lon="-0.2641133"><ele>230.33333333333334</ele><time>2026-04-11T08:45:46.953Z</time></trkpt><trkpt lat="39.8104233" lon="-0.2641767"><ele>233.16666666666669</ele><time>2026-04-11T08:45:48.953Z</time></trkpt><trkpt lat="39.8104667" lon="-0.264245"><ele>236.0</ele><time>2026-04-11T08:45:50.953Z</time></trkpt><trkpt lat="39.8105067" lon="-0.26433"><ele>236.00000000000003</ele><time>2026-04-11T08:45:53.953Z</time></trkpt><trkpt lat="39.8105383" lon="-0.2644317"><ele>236.0</ele><time>2026-04-11T08:45:56.953Z</time></trkpt><trkpt lat="39.8105517" lon="-0.2645267"><ele>236.0</ele><time>2026-04-11T08:45:59.953Z</time></trkpt><trkpt lat="39.8105517" lon="-0.264615"><ele>236.0</ele><time>2026-04-11T08:46:03.953Z</time></trkpt><trkpt lat="39.8105467" lon="-0.264705"><ele>236.00000000000003</ele><time>2026-04-11T08:46:07.954Z</time></trkpt><trkpt lat="39.8105583" lon="-0.26482"><ele>236.0</ele><time>2026-04-11T08:46:10.954Z</time></trkpt><trkpt lat="39.8105667" lon="-0.2649067"><ele>239.0</ele><time>2026-04-11T08:46:12.953Z</time></trkpt><trkpt lat="39.8105583" lon="-0.2649933"><ele>242.0</ele><time>2026-04-11T08:46:14.954Z</time></trkpt><trkpt lat="39.8105483" lon="-0.2650833"><ele>245.0</ele><time>2026-04-11T08:46:16.953Z</time></trkpt><trkpt lat="39.8105617" lon="-0.2651667"><ele>248.0</ele><time>2026-04-11T08:46:19.954Z</time></trkpt><trkpt lat="39.810575" lon="-0.26525"><ele>251.0</ele><time>2026-04-11T08:46:22.953Z</time></trkpt><trkpt lat="39.8105617" lon="-0.26534"><ele>254.0</ele><time>2026-04-11T08:46:26.953Z</time></trkpt><trkpt lat="39.81057" lon="-0.265435"><ele>257.0</ele><time>2026-04-11T08:46:32.953Z</time></trkpt><trkpt lat="39.8105583" lon="-0.2655167"><ele>275.0</ele><time>2026-04-11T08:46:37.953Z</time></trkpt><trkpt lat="39.8101817" lon="-0.2660133"><ele>275.0</ele><time>2026-04-11T08:56:11.148Z</time></trkpt><trkpt lat="39.8102367" lon="-0.2659367"><ele>275.0</ele><time>2026-04-11T08:56:14.149Z</time></trkpt><trkpt lat="39.81029" lon="-0.265985"><ele>275.0</ele><time>2026-04-11T08:56:22.96Z</time></trkpt><trkpt lat="39.810325" lon="-0.2660833"><ele>275.0</ele><time>2026-04-11T08:56:25.96Z</time></trkpt><trkpt lat="39.8103233" lon="-0.26618"><ele>275.0</ele><time>2026-04-11T08:56:27.952Z</time></trkpt><trkpt lat="39.8103183" lon="-0.2662833"><ele>275.0</ele><time>2026-04-11T08:56:29.952Z</time></trkpt><trkpt lat="39.8103083" lon="-0.2663917"><ele>275.6</ele><time>2026-04-11T08:56:31.952Z</time></trkpt><trkpt lat="39.81028" lon="-0.2665167"><ele>276.2</ele><time>2026-04-11T08:56:33.952Z</time></trkpt><trkpt lat="39.81025" lon="-0.26666"><ele>276.8</ele><time>2026-04-11T08:56:35.952Z</time></trkpt><trkpt lat="39.81021" lon="-0.2668167"><ele>277.4</ele><time>2026-04-11T08:56:37.952Z</time></trkpt><trkpt lat="39.8101767" lon="-0.2669033"><ele>278.0</ele><time>2026-04-11T08:56:38.953Z</time></trkpt><trkpt lat="39.81014" lon="-0.2669917"><ele>275.6666666666667</ele><time>2026-04-11T08:56:39.952Z</time></trkpt><trkpt lat="39.8100817" lon="-0.2670867"><ele>273.33333333333337</ele><time>2026-04-11T08:56:40.953Z</time></trkpt><trkpt lat="39.81003" lon="-0.2671717"><ele>271.0</ele><time>2026-04-11T08:56:41.952Z</time></trkpt><trkpt lat="39.8099817" lon="-0.2672383"><ele>268.6666666666667</ele><time>2026-04-11T08:56:42.952Z</time></trkpt><trkpt lat="39.8098983" lon="-0.2673267"><ele>266.3333333333333</ele><time>2026-04-11T08:56:44.952Z</time></trkpt><trkpt lat="39.809835" lon="-0.267355"><ele>264.0</ele><time>2026-04-11T08:56:46.952Z</time></trkpt><trkpt lat="39.8097133" lon="-0.2674117"><ele>264.0</ele><time>2026-04-11T08:57:03.952Z</time></trkpt><trkpt lat="39.8096767" lon="-0.2674817"><ele>264.0</ele><time>2026-04-11T08:57:08.952Z</time></trkpt><trkpt lat="39.8096283" lon="-0.267535"><ele>264.0</ele><time>2026-04-11T08:57:15.952Z</time></trkpt><trkpt lat="39.8095683" lon="-0.26756"><ele>264.0</ele><time>2026-04-11T08:57:23.952Z</time></trkpt><trkpt lat="39.80951" lon="-0.267605"><ele>264.0</ele><time>2026-04-11T08:57:29.952Z</time></trkpt><trkpt lat="39.8094583" lon="-0.26766"><ele>264.0</ele><time>2026-04-11T08:57:33.952Z</time></trkpt><trkpt lat="39.80941" lon="-0.2677217"><ele>264.0</ele><time>2026-04-11T08:57:35.952Z</time></trkpt><trkpt lat="39.8093533" lon="-0.2677983"><ele>263.0</ele><time>2026-04-11T08:57:37.953Z</time></trkpt><trkpt lat="39.8092967" lon="-0.26789"><ele>262.0</ele><time>2026-04-11T08:57:39.952Z</time></trkpt><trkpt lat="39.809245" lon="-0.2679683"><ele>261.0</ele><time>2026-04-11T08:57:41.952Z</time></trkpt><trkpt lat="39.809205" lon="-0.268045"><ele>260.0</ele><time>2026-04-11T08:57:43.952Z</time></trkpt><trkpt lat="39.8091683" lon="-0.2681217"><ele>259.0</ele><time>2026-04-11T08:57:45.953Z</time></trkpt><trkpt lat="39.8091383" lon="-0.2682067"><ele>258.0</ele><time>2026-04-11T08:57:47.952Z</time></trkpt><trkpt lat="39.8091183" lon="-0.2682983"><ele>257.99999999999994</ele><time>2026-04-11T08:57:49.952Z</time></trkpt><trkpt lat="39.8090983" lon="-0.2683833"><ele>258.0</ele><time>2026-04-11T08:57:51.952Z</time></trkpt><trkpt lat="39.80909" lon="-0.2684667"><ele>258.0</ele><time>2026-04-11T08:57:53.952Z</time></trkpt><trkpt lat="39.8090833" lon="-0.2685517"><ele>258.0</ele><time>2026-04-11T08:57:55.953Z</time></trkpt><trkpt lat="39.809085" lon="-0.2686533"><ele>258.0</ele><time>2026-04-11T08:57:57.952Z</time></trkpt><trkpt lat="39.8090817" lon="-0.2687567"><ele>257.99999999999994</ele><time>2026-04-11T08:57:59.952Z</time></trkpt><trkpt lat="39.8090767" lon="-0.2688533"><ele>258.0</ele><time>2026-04-11T08:58:01.952Z</time></trkpt><trkpt lat="39.80903" lon="-0.268985"><ele>258.8</ele><time>2026-04-11T08:58:03.957Z</time></trkpt><trkpt lat="39.8091783" lon="-0.268965"><ele>259.6</ele><time>2026-04-11T08:58:04.956Z</time></trkpt><trkpt lat="39.8091467" lon="-0.2690883"><ele>260.4</ele><time>2026-04-11T08:58:07.456Z</time></trkpt><trkpt lat="39.809145" lon="-0.2692217"><ele>261.2</ele><time>2026-04-11T08:58:09.954Z</time></trkpt><trkpt lat="39.80914" lon="-0.2693483"><ele>262.0</ele><time>2026-04-11T08:58:11.955Z</time></trkpt><trkpt lat="39.8091317" lon="-0.269485"><ele>262.0</ele><time>2026-04-11T08:58:15.956Z</time></trkpt><trkpt lat="39.8091417" lon="-0.2695667"><ele>262.0</ele><time>2026-04-11T08:58:17.457Z</time></trkpt><trkpt lat="39.8091467" lon="-0.2696717"><ele>262.0</ele><time>2026-04-11T08:58:19.954Z</time></trkpt><trkpt lat="39.8091383" lon="-0.2697783"><ele>262.0</ele><time>2026-04-11T08:58:21.954Z</time></trkpt><trkpt lat="39.809125" lon="-0.2698683"><ele>262.0</ele><time>2026-04-11T08:58:23.955Z</time></trkpt><trkpt lat="39.8091333" lon="-0.2699767"><ele>262.0</ele><time>2026-04-11T08:58:26.954Z</time></trkpt><trkpt lat="39.8091533" lon="-0.270075"><ele>262.0</ele><time>2026-04-11T08:58:29.954Z</time></trkpt><trkpt lat="39.8091717" lon="-0.27017"><ele>262.0</ele><time>2026-04-11T08:58:32.954Z</time></trkpt><trkpt lat="39.8091783" lon="-0.270275"><ele>262.0</ele><time>2026-04-11T08:58:35.954Z</time></trkpt><trkpt lat="39.809185" lon="-0.2703817"><ele>262.0</ele><time>2026-04-11T08:58:38.954Z</time></trkpt><trkpt lat="39.809175" lon="-0.2704833"><ele>262.0</ele><time>2026-04-11T08:58:41.954Z</time></trkpt><trkpt lat="39.80916" lon="-0.2705817"><ele>262.0</ele><time>2026-04-11T08:58:44.954Z</time></trkpt><trkpt lat="39.80914" lon="-0.2706667"><ele>261.3333333333333</ele><time>2026-04-11T08:58:47.954Z</time></trkpt><trkpt lat="39.8091433" lon="-0.27076"><ele>260.66666666666663</ele><time>2026-04-11T08:58:50.954Z</time></trkpt><trkpt lat="39.8091417" lon="-0.2708633"><ele>260.0</ele><time>2026-04-11T08:58:53.954Z</time></trkpt><trkpt lat="39.8091283" lon="-0.2709533"><ele>259.3333333333333</ele><time>2026-04-11T08:58:55.955Z</time></trkpt><trkpt lat="39.8091117" lon="-0.2710667"><ele>258.6666666666667</ele><time>2026-04-11T08:58:58.955Z</time></trkpt><trkpt lat="39.8091" lon="-0.2711767"><ele>258.0</ele><time>2026-04-11T08:59:01.954Z</time></trkpt><trkpt lat="39.8091" lon="-0.2712633"><ele>257.99999999999994</ele><time>2026-04-11T08:59:04.954Z</time></trkpt><trkpt lat="39.8091367" lon="-0.271365"><ele>258.0</ele><time>2026-04-11T08:59:08.955Z</time></trkpt><trkpt lat="39.8091833" lon="-0.27143"><ele>258.0</ele><time>2026-04-11T08:59:11.954Z</time></trkpt><trkpt lat="39.8092233" lon="-0.2714933"><ele>258.0</ele><time>2026-04-11T08:59:14.954Z</time></trkpt><trkpt lat="39.8092817" lon="-0.2715533"><ele>258.0</ele><time>2026-04-11T08:59:17.954Z</time></trkpt><trkpt lat="39.80935" lon="-0.271615"><ele>257.99999999999994</ele><time>2026-04-11T08:59:21.954Z</time></trkpt><trkpt lat="39.8093883" lon="-0.2716917"><ele>258.0</ele><time>2026-04-11T08:59:24.954Z</time></trkpt><trkpt lat="39.80943" lon="-0.2717583"><ele>263.71428571428567</ele><time>2026-04-11T08:59:27.955Z</time></trkpt><trkpt lat="39.8094933" lon="-0.271825"><ele>269.42857142857144</ele><time>2026-04-11T08:59:30.955Z</time></trkpt><trkpt lat="39.8095383" lon="-0.27189"><ele>275.1428571428571</ele><time>2026-04-11T08:59:32.954Z</time></trkpt><trkpt lat="39.8095733" lon="-0.2719667"><ele>280.85714285714283</ele><time>2026-04-11T08:59:34.954Z</time></trkpt><trkpt lat="39.8095867" lon="-0.2720517"><ele>286.57142857142856</ele><time>2026-04-11T08:59:36.955Z</time></trkpt><trkpt lat="39.8095683" lon="-0.2721333"><ele>292.2857142857143</ele><time>2026-04-11T08:59:38.954Z</time></trkpt><trkpt lat="39.8094933" lon="-0.2722067"><ele>298.0</ele><time>2026-04-11T08:59:41.954Z</time></trkpt><trkpt lat="39.80942" lon="-0.2722367"><ele>297.0</ele><time>2026-04-11T08:59:45.955Z</time></trkpt><trkpt lat="39.8093467" lon="-0.272275"><ele>296.0</ele><time>2026-04-11T08:59:49.954Z</time></trkpt><trkpt lat="39.8092717" lon="-0.2722883"><ele>295.0</ele><time>2026-04-11T08:59:53.954Z</time></trkpt><trkpt lat="39.8091917" lon="-0.2722967"><ele>294.0</ele><time>2026-04-11T08:59:57.955Z</time></trkpt><trkpt lat="39.809115" lon="-0.2723317"><ele>293.0</ele><time>2026-04-11T09:00:01.954Z</time></trkpt><trkpt lat="39.8090533" lon="-0.2723767"><ele>292.0</ele><time>2026-04-11T09:00:05.955Z</time></trkpt><trkpt lat="39.80901" lon="-0.27244"><ele>289.0</ele><time>2026-04-11T09:00:09.954Z</time></trkpt><trkpt lat="39.8089783" lon="-0.2725433"><ele>286.0</ele><time>2026-04-11T09:00:13.954Z</time></trkpt><trkpt lat="39.80896" lon="-0.2726767"><ele>283.0</ele><time>2026-04-11T09:00:15.954Z</time></trkpt><trkpt lat="39.8089383" lon="-0.2727617"><ele>280.0</ele><time>2026-04-11T09:00:17.954Z</time></trkpt><trkpt lat="39.8088983" lon="-0.2728333"><ele>277.0</ele><time>2026-04-11T09:00:19.954Z</time></trkpt><trkpt lat="39.8088567" lon="-0.2729017"><ele>274.0</ele><time>2026-04-11T09:00:21.954Z</time></trkpt><trkpt lat="39.8088217" lon="-0.2729733"><ele>274.00000000000006</ele><time>2026-04-11T09:00:23.954Z</time></trkpt><trkpt lat="39.8087867" lon="-0.2730467"><ele>274.0</ele><time>2026-04-11T09:00:25.954Z</time></trkpt><trkpt lat="39.8087467" lon="-0.273115"><ele>274.0</ele><time>2026-04-11T09:00:27.954Z</time></trkpt><trkpt lat="39.8086983" lon="-0.27317"><ele>274.0</ele><time>2026-04-11T09:00:29.954Z</time></trkpt><trkpt lat="39.8086117" lon="-0.2732183"><ele>274.0</ele><time>2026-04-11T09:00:32.954Z</time></trkpt><trkpt lat="39.8085483" lon="-0.2732467"><ele>274.00000000000006</ele><time>2026-04-11T09:00:34.954Z</time></trkpt><trkpt lat="39.8084817" lon="-0.2732517"><ele>274.0</ele><time>2026-04-11T09:00:36.954Z</time></trkpt><trkpt lat="39.8084017" lon="-0.2732733"><ele>274.7142857142857</ele><time>2026-04-11T09:00:39.954Z</time></trkpt><trkpt lat="39.808325" lon="-0.2732983"><ele>275.42857142857144</ele><time>2026-04-11T09:00:42.954Z</time></trkpt><trkpt lat="39.8082433" lon="-0.2733433"><ele>276.1428571428571</ele><time>2026-04-11T09:00:45.954Z</time></trkpt><trkpt lat="39.8081817" lon="-0.2733733"><ele>276.8571428571429</ele><time>2026-04-11T09:00:47.954Z</time></trkpt><trkpt lat="39.8081217" lon="-0.273405"><ele>277.57142857142856</ele><time>2026-04-11T09:00:49.955Z</time></trkpt><trkpt lat="39.8080617" lon="-0.2734417"><ele>278.2857142857143</ele><time>2026-04-11T09:00:51.954Z</time></trkpt><trkpt lat="39.8080017" lon="-0.273475"><ele>279.0</ele><time>2026-04-11T09:00:53.954Z</time></trkpt><trkpt lat="39.8079383" lon="-0.2735083"><ele>279.0</ele><time>2026-04-11T09:00:55.954Z</time></trkpt><trkpt lat="39.807875" lon="-0.2735517"><ele>279.0</ele><time>2026-04-11T09:00:57.954Z</time></trkpt><trkpt lat="39.8078133" lon="-0.2736183"><ele>279.0</ele><time>2026-04-11T09:00:59.954Z</time></trkpt><trkpt lat="39.80776" lon="-0.2737033"><ele>279.0</ele><time>2026-04-11T09:01:01.954Z</time></trkpt><trkpt lat="39.8077167" lon="-0.2738083"><ele>279.0</ele><time>2026-04-11T09:01:03.954Z</time></trkpt><trkpt lat="39.8076867" lon="-0.273925"><ele>279.0</ele><time>2026-04-11T09:01:05.955Z</time></trkpt><trkpt lat="39.807665" lon="-0.2740433"><ele>278.5</ele><time>2026-04-11T09:01:07.954Z</time></trkpt><trkpt lat="39.8076333" lon="-0.2741533"><ele>278.0</ele><time>2026-04-11T09:01:09.954Z</time></trkpt><trkpt lat="39.8075983" lon="-0.2742417"><ele>277.5</ele><time>2026-04-11T09:01:11.955Z</time></trkpt><trkpt lat="39.80756" lon="-0.2743283"><ele>277.0</ele><time>2026-04-11T09:01:13.955Z</time></trkpt><trkpt lat="39.8075333" lon="-0.27441"><ele>276.5</ele><time>2026-04-11T09:01:15.954Z</time></trkpt><trkpt lat="39.807505" lon="-0.2744933"><ele>276.0</ele><time>2026-04-11T09:01:17.954Z</time></trkpt><trkpt lat="39.80747" lon="-0.2746067"><ele>276.0</ele><time>2026-04-11T09:01:20.955Z</time></trkpt><trkpt lat="39.8074483" lon="-0.27469"><ele>276.0</ele><time>2026-04-11T09:01:22.955Z</time></trkpt><trkpt lat="39.8074217" lon="-0.274775"><ele>276.0</ele><time>2026-04-11T09:01:24.954Z</time></trkpt><trkpt lat="39.8073983" lon="-0.2748717"><ele>276.0</ele><time>2026-04-11T09:01:26.954Z</time></trkpt><trkpt lat="39.8073733" lon="-0.2749683"><ele>276.0</ele><time>2026-04-11T09:01:28.954Z</time></trkpt><trkpt lat="39.807345" lon="-0.2750583"><ele>276.0</ele><time>2026-04-11T09:01:30.954Z</time></trkpt><trkpt lat="39.807315" lon="-0.2751333"><ele>276.0</ele><time>2026-04-11T09:01:32.955Z</time></trkpt><trkpt lat="39.8072817" lon="-0.275245"><ele>277.7142857142857</ele><time>2026-04-11T09:01:35.955Z</time></trkpt><trkpt lat="39.8072467" lon="-0.27534"><ele>279.42857142857144</ele><time>2026-04-11T09:01:38.955Z</time></trkpt><trkpt lat="39.8072033" lon="-0.2754283"><ele>281.14285714285717</ele><time>2026-04-11T09:01:41.955Z</time></trkpt><trkpt lat="39.8071467" lon="-0.2754983"><ele>282.8571428571429</ele><time>2026-04-11T09:01:44.954Z</time></trkpt><trkpt lat="39.8070917" lon="-0.2755383"><ele>284.57142857142856</ele><time>2026-04-11T09:01:47.954Z</time></trkpt><trkpt lat="39.8070317" lon="-0.2755683"><ele>286.28571428571433</ele><time>2026-04-11T09:01:50.954Z</time></trkpt><trkpt lat="39.8069733" lon="-0.2756033"><ele>288.0</ele><time>2026-04-11T09:01:53.954Z</time></trkpt><trkpt lat="39.8069167" lon="-0.27564"><ele>287.42857142857144</ele><time>2026-04-11T09:01:56.954Z</time></trkpt><trkpt lat="39.8068483" lon="-0.2757"><ele>286.8571428571429</ele><time>2026-04-11T09:01:59.954Z</time></trkpt><trkpt lat="39.8067983" lon="-0.275755"><ele>286.2857142857143</ele><time>2026-04-11T09:02:01.954Z</time></trkpt><trkpt lat="39.8067467" lon="-0.27581"><ele>285.7142857142857</ele><time>2026-04-11T09:02:03.954Z</time></trkpt><trkpt lat="39.8066933" lon="-0.2758717"><ele>285.1428571428571</ele><time>2026-04-11T09:02:05.954Z</time></trkpt><trkpt lat="39.80665" lon="-0.2759467"><ele>284.57142857142856</ele><time>2026-04-11T09:02:07.955Z</time></trkpt><trkpt lat="39.806615" lon="-0.2760283"><ele>284.0</ele><time>2026-04-11T09:02:09.954Z</time></trkpt><trkpt lat="39.8065817" lon="-0.2761417"><ele>284.0</ele><time>2026-04-11T09:02:12.954Z</time></trkpt><trkpt lat="39.8065683" lon="-0.27623"><ele>284.0</ele><time>2026-04-11T09:02:14.955Z</time></trkpt><trkpt lat="39.8065683" lon="-0.276325"><ele>284.0</ele><time>2026-04-11T09:02:16.954Z</time></trkpt><trkpt lat="39.8065517" lon="-0.2764317"><ele>284.0</ele><time>2026-04-11T09:02:18.955Z</time></trkpt><trkpt lat="39.8065033" lon="-0.276515"><ele>284.0</ele><time>2026-04-11T09:02:20.954Z</time></trkpt><trkpt lat="39.8064433" lon="-0.2765617"><ele>284.0</ele><time>2026-04-11T09:02:22.954Z</time></trkpt><trkpt lat="39.806375" lon="-0.2765567"><ele>284.0</ele><time>2026-04-11T09:02:24.955Z</time></trkpt><trkpt lat="39.806305" lon="-0.276535"><ele>283.5</ele><time>2026-04-11T09:02:26.954Z</time></trkpt><trkpt lat="39.80622" lon="-0.276535"><ele>283.0</ele><time>2026-04-11T09:02:28.954Z</time></trkpt><trkpt lat="39.8061433" lon="-0.2765467"><ele>282.5</ele><time>2026-04-11T09:02:30.954Z</time></trkpt><trkpt lat="39.8060817" lon="-0.2765983"><ele>282.0</ele><time>2026-04-11T09:02:32.954Z</time></trkpt><trkpt lat="39.8060083" lon="-0.2766717"><ele>281.5</ele><time>2026-04-11T09:02:34.955Z</time></trkpt><trkpt lat="39.805915" lon="-0.27674"><ele>281.0</ele><time>2026-04-11T09:02:36.954Z</time></trkpt><trkpt lat="39.80582" lon="-0.2768017"><ele>281.0</ele><time>2026-04-11T09:02:38.955Z</time></trkpt><trkpt lat="39.805735" lon="-0.2768767"><ele>281.0</ele><time>2026-04-11T09:02:40.954Z</time></trkpt><trkpt lat="39.805665" lon="-0.2769583"><ele>281.0</ele><time>2026-04-11T09:02:42.954Z</time></trkpt><trkpt lat="39.8056083" lon="-0.2770483"><ele>281.0</ele><time>2026-04-11T09:02:44.954Z</time></trkpt><trkpt lat="39.8055683" lon="-0.2771717"><ele>281.0</ele><time>2026-04-11T09:02:46.954Z</time></trkpt><trkpt lat="39.8055683" lon="-0.27729"><ele>282.40000000000003</ele><time>2026-04-11T09:02:48.955Z</time></trkpt><trkpt lat="39.8056" lon="-0.2774183"><ele>283.8</ele><time>2026-04-11T09:02:50.954Z</time></trkpt><trkpt lat="39.80563" lon="-0.2775583"><ele>285.20000000000005</ele><time>2026-04-11T09:02:52.954Z</time></trkpt><trkpt lat="39.8055967" lon="-0.2776967"><ele>286.6</ele><time>2026-04-11T09:02:54.954Z</time></trkpt><trkpt lat="39.8055167" lon="-0.2777717"><ele>288.0</ele><time>2026-04-11T09:02:56.954Z</time></trkpt><trkpt lat="39.8054183" lon="-0.27777"><ele>288.0</ele><time>2026-04-11T09:02:58.954Z</time></trkpt><trkpt lat="39.80534" lon="-0.27773"><ele>288.0</ele><time>2026-04-11T09:03:00.954Z</time></trkpt><trkpt lat="39.805275" lon="-0.2777"><ele>288.0</ele><time>2026-04-11T09:03:02.954Z</time></trkpt><trkpt lat="39.8052117" lon="-0.2776583"><ele>288.0</ele><time>2026-04-11T09:03:04.954Z</time></trkpt><trkpt lat="39.8051183" lon="-0.27765"><ele>288.0</ele><time>2026-04-11T09:03:07.954Z</time></trkpt><trkpt lat="39.8050633" lon="-0.277695"><ele>288.0</ele><time>2026-04-11T09:03:09.954Z</time></trkpt><trkpt lat="39.8049983" lon="-0.27776"><ele>285.8571428571429</ele><time>2026-04-11T09:03:11.954Z</time></trkpt><trkpt lat="39.8049417" lon="-0.27783"><ele>283.7142857142857</ele><time>2026-04-11T09:03:13.955Z</time></trkpt><trkpt lat="39.8049133" lon="-0.2779083"><ele>281.57142857142856</ele><time>2026-04-11T09:03:15.954Z</time></trkpt><trkpt lat="39.804895" lon="-0.2779933"><ele>279.42857142857144</ele><time>2026-04-11T09:03:17.955Z</time></trkpt><trkpt lat="39.8048833" lon="-0.2780883"><ele>277.2857142857143</ele><time>2026-04-11T09:03:19.955Z</time></trkpt><trkpt lat="39.8048717" lon="-0.2781933"><ele>275.14285714285717</ele><time>2026-04-11T09:03:21.954Z</time></trkpt><trkpt lat="39.8048533" lon="-0.2782783"><ele>273.0</ele><time>2026-04-11T09:03:24.955Z</time></trkpt><trkpt lat="39.8048617" lon="-0.278365"><ele>273.0</ele><time>2026-04-11T09:03:27.954Z</time></trkpt><trkpt lat="39.804875" lon="-0.2784767"><ele>273.0</ele><time>2026-04-11T09:03:30.954Z</time></trkpt><trkpt lat="39.8048233" lon="-0.2785633"><ele>273.0</ele><time>2026-04-11T09:03:33.954Z</time></trkpt><trkpt lat="39.804745" lon="-0.2785883"><ele>273.0</ele><time>2026-04-11T09:03:35.954Z</time></trkpt><trkpt lat="39.804635" lon="-0.2785917"><ele>273.0</ele><time>2026-04-11T09:03:37.955Z</time></trkpt><trkpt lat="39.80456" lon="-0.2785867"><ele>273.0</ele><time>2026-04-11T09:03:38.954Z</time></trkpt><trkpt lat="39.8044783" lon="-0.2785767"><ele>273.0</ele><time>2026-04-11T09:03:39.954Z</time></trkpt><trkpt lat="39.804405" lon="-0.2785667"><ele>273.0</ele><time>2026-04-11T09:03:40.954Z</time></trkpt><trkpt lat="39.8043367" lon="-0.278565"><ele>273.0</ele><time>2026-04-11T09:03:41.954Z</time></trkpt><trkpt lat="39.80426" lon="-0.2785617"><ele>273.0</ele><time>2026-04-11T09:03:42.954Z</time></trkpt><trkpt lat="39.80418" lon="-0.2785667"><ele>273.0</ele><time>2026-04-11T09:03:43.954Z</time></trkpt><trkpt lat="39.8041133" lon="-0.2785733"><ele>273.0</ele><time>2026-04-11T09:03:44.955Z</time></trkpt><trkpt lat="39.8040483" lon="-0.2785833"><ele>273.0</ele><time>2026-04-11T09:03:45.954Z</time></trkpt><trkpt lat="39.8039833" lon="-0.2785817"><ele>268.25</ele><time>2026-04-11T09:03:46.954Z</time></trkpt><trkpt lat="39.8038833" lon="-0.2785417"><ele>263.5</ele><time>2026-04-11T09:03:48.954Z</time></trkpt><trkpt lat="39.803815" lon="-0.2784083"><ele>258.75</ele><time>2026-04-11T09:03:50.954Z</time></trkpt><trkpt lat="39.80377" lon="-0.27827"><ele>254.0</ele><time>2026-04-11T09:03:52.954Z</time></trkpt><trkpt lat="39.803715" lon="-0.2781483"><ele>254.0</ele><time>2026-04-11T09:03:54.954Z</time></trkpt><trkpt lat="39.8036367" lon="-0.2780733"><ele>253.99999999999997</ele><time>2026-04-11T09:03:56.954Z</time></trkpt><trkpt lat="39.8035483" lon="-0.2780767"><ele>253.99999999999997</ele><time>2026-04-11T09:03:58.954Z</time></trkpt><trkpt lat="39.8034983" lon="-0.2781633"><ele>254.0</ele><time>2026-04-11T09:04:00.955Z</time></trkpt><trkpt lat="39.8034833" lon="-0.2782767"><ele>254.0</ele><time>2026-04-11T09:04:02.954Z</time></trkpt><trkpt lat="39.8034817" lon="-0.2784133"><ele>251.6</ele><time>2026-04-11T09:04:04.954Z</time></trkpt><trkpt lat="39.8034833" lon="-0.278555"><ele>249.2</ele><time>2026-04-11T09:04:06.953Z</time></trkpt><trkpt lat="39.8034833" lon="-0.278675"><ele>246.79999999999998</ele><time>2026-04-11T09:04:08.953Z</time></trkpt><trkpt lat="39.8034817" lon="-0.2787883"><ele>244.39999999999998</ele><time>2026-04-11T09:04:10.953Z</time></trkpt><trkpt lat="39.80348" lon="-0.2789017"><ele>242.0</ele><time>2026-04-11T09:04:12.953Z</time></trkpt><trkpt lat="39.8034417" lon="-0.2789917"><ele>242.0</ele><time>2026-04-11T09:04:14.953Z</time></trkpt><trkpt lat="39.8033633" lon="-0.2790267"><ele>242.0</ele><time>2026-04-11T09:04:16.953Z</time></trkpt><trkpt lat="39.8032533" lon="-0.27902"><ele>242.0</ele><time>2026-04-11T09:04:18.953Z</time></trkpt><trkpt lat="39.8031467" lon="-0.278985"><ele>242.0</ele><time>2026-04-11T09:04:20.953Z</time></trkpt><trkpt lat="39.8030333" lon="-0.2789583"><ele>242.0</ele><time>2026-04-11T09:04:22.953Z</time></trkpt><trkpt lat="39.8029167" lon="-0.278925"><ele>241.66666666666669</ele><time>2026-04-11T09:04:24.953Z</time></trkpt><trkpt lat="39.8028583" lon="-0.27889"><ele>241.33333333333334</ele><time>2026-04-11T09:04:25.953Z</time></trkpt><trkpt lat="39.8027983" lon="-0.278855"><ele>241.0</ele><time>2026-04-11T09:04:26.954Z</time></trkpt><trkpt lat="39.80274" lon="-0.278815"><ele>240.66666666666669</ele><time>2026-04-11T09:04:27.953Z</time></trkpt><trkpt lat="39.802625" lon="-0.278765"><ele>240.33333333333334</ele><time>2026-04-11T09:04:29.953Z</time></trkpt><trkpt lat="39.8025217" lon="-0.278715"><ele>240.0</ele><time>2026-04-11T09:04:31.953Z</time></trkpt><trkpt lat="39.8024283" lon="-0.2786717"><ele>236.0</ele><time>2026-04-11T09:04:33.953Z</time></trkpt><trkpt lat="39.8023367" lon="-0.2786067"><ele>232.0</ele><time>2026-04-11T09:04:35.953Z</time></trkpt><trkpt lat="39.8022467" lon="-0.27851"><ele>228.0</ele><time>2026-04-11T09:04:37.954Z</time></trkpt><trkpt lat="39.8021533" lon="-0.2784133"><ele>224.0</ele><time>2026-04-11T09:04:39.953Z</time></trkpt><trkpt lat="39.8020467" lon="-0.2783533"><ele>224.0</ele><time>2026-04-11T09:04:41.953Z</time></trkpt><trkpt lat="39.8019433" lon="-0.2783567"><ele>224.0</ele><time>2026-04-11T09:04:43.953Z</time></trkpt><trkpt lat="39.8018483" lon="-0.278435"><ele>224.0</ele><time>2026-04-11T09:04:45.954Z</time></trkpt><trkpt lat="39.8017567" lon="-0.2785367"><ele>224.0</ele><time>2026-04-11T09:04:47.953Z</time></trkpt><trkpt lat="39.801675" lon="-0.278645"><ele>223.2</ele><time>2026-04-11T09:04:49.953Z</time></trkpt><trkpt lat="39.8015867" lon="-0.2786967"><ele>222.39999999999998</ele><time>2026-04-11T09:04:51.953Z</time></trkpt><trkpt lat="39.8014567" lon="-0.2786583"><ele>221.6</ele><time>2026-04-11T09:04:53.953Z</time></trkpt><trkpt lat="39.8013917" lon="-0.2786217"><ele>220.8</ele><time>2026-04-11T09:04:54.953Z</time></trkpt><trkpt lat="39.8013167" lon="-0.2785833"><ele>220.0</ele><time>2026-04-11T09:04:55.953Z</time></trkpt><trkpt lat="39.8012383" lon="-0.2785483"><ele>220.0</ele><time>2026-04-11T09:04:56.953Z</time></trkpt><trkpt lat="39.8011567" lon="-0.278505"><ele>220.0</ele><time>2026-04-11T09:04:57.954Z</time></trkpt><trkpt lat="39.8010683" lon="-0.278455"><ele>220.0</ele><time>2026-04-11T09:04:58.953Z</time></trkpt><trkpt lat="39.8009717" lon="-0.2784033"><ele>220.0</ele><time>2026-04-11T09:04:59.953Z</time></trkpt><trkpt lat="39.8008717" lon="-0.2783483"><ele>220.0</ele><time>2026-04-11T09:05:00.954Z</time></trkpt><trkpt lat="39.8007717" lon="-0.2782967"><ele>218.99999999999997</ele><time>2026-04-11T09:05:01.954Z</time></trkpt><trkpt lat="39.8006817" lon="-0.2782433"><ele>218.0</ele><time>2026-04-11T09:05:02.953Z</time></trkpt><trkpt lat="39.8006017" lon="-0.2781933"><ele>217.0</ele><time>2026-04-11T09:05:03.953Z</time></trkpt><trkpt lat="39.8005233" lon="-0.2781517"><ele>216.0</ele><time>2026-04-11T09:05:04.954Z</time></trkpt><trkpt lat="39.8004567" lon="-0.278105"><ele>214.99999999999997</ele><time>2026-04-11T09:05:05.953Z</time></trkpt><trkpt lat="39.8004033" lon="-0.2780567"><ele>214.0</ele><time>2026-04-11T09:05:06.953Z</time></trkpt><trkpt lat="39.8003617" lon="-0.2779883"><ele>212.49999999999997</ele><time>2026-04-11T09:05:07.954Z</time></trkpt><trkpt lat="39.800335" lon="-0.2778967"><ele>211.0</ele><time>2026-04-11T09:05:08.954Z</time></trkpt><trkpt lat="39.8003133" lon="-0.2778017"><ele>209.5</ele><time>2026-04-11T09:05:09.954Z</time></trkpt><trkpt lat="39.8002967" lon="-0.2777033"><ele>208.0</ele><time>2026-04-11T09:05:10.953Z</time></trkpt><trkpt lat="39.80028" lon="-0.2776017"><ele>206.49999999999997</ele><time>2026-04-11T09:05:11.954Z</time></trkpt><trkpt lat="39.8002483" lon="-0.277495"><ele>205.0</ele><time>2026-04-11T09:05:12.953Z</time></trkpt><trkpt lat="39.800205" lon="-0.2773917"><ele>203.66666666666666</ele><time>2026-04-11T09:05:13.953Z</time></trkpt><trkpt lat="39.800165" lon="-0.2772933"><ele>202.33333333333331</ele><time>2026-04-11T09:05:14.953Z</time></trkpt><trkpt lat="39.800125" lon="-0.2772017"><ele>201.0</ele><time>2026-04-11T09:05:15.954Z</time></trkpt><trkpt lat="39.8000883" lon="-0.27711"><ele>199.66666666666669</ele><time>2026-04-11T09:05:16.953Z</time></trkpt><trkpt lat="39.8000517" lon="-0.2770267"><ele>198.33333333333334</ele><time>2026-04-11T09:05:17.953Z</time></trkpt><trkpt lat="39.80001" lon="-0.2769617"><ele>197.0</ele><time>2026-04-11T09:05:18.953Z</time></trkpt><trkpt lat="39.799965" lon="-0.2768967"><ele>196.42857142857144</ele><time>2026-04-11T09:05:19.953Z</time></trkpt><trkpt lat="39.7999133" lon="-0.27684"><ele>195.85714285714286</ele><time>2026-04-11T09:05:20.953Z</time></trkpt><trkpt lat="39.79985" lon="-0.2767933"><ele>195.28571428571428</ele><time>2026-04-11T09:05:21.953Z</time></trkpt><trkpt lat="39.7997867" lon="-0.2767467"><ele>194.71428571428572</ele><time>2026-04-11T09:05:22.953Z</time></trkpt><trkpt lat="39.79973" lon="-0.2766983"><ele>194.14285714285714</ele><time>2026-04-11T09:05:23.953Z</time></trkpt><trkpt lat="39.7996767" lon="-0.2766417"><ele>193.57142857142858</ele><time>2026-04-11T09:05:24.953Z</time></trkpt><trkpt lat="39.7996233" lon="-0.27659"><ele>193.0</ele><time>2026-04-11T09:05:25.953Z</time></trkpt><trkpt lat="39.79957" lon="-0.2765433"><ele>193.0</ele><time>2026-04-11T09:05:26.953Z</time></trkpt><trkpt lat="39.7995117" lon="-0.276495"><ele>193.0</ele><time>2026-04-11T09:05:27.954Z</time></trkpt><trkpt lat="39.7994217" lon="-0.276405"><ele>193.0</ele><time>2026-04-11T09:05:29.954Z</time></trkpt><trkpt lat="39.79933" lon="-0.2763167"><ele>193.0</ele><time>2026-04-11T09:05:31.954Z</time></trkpt><trkpt lat="39.79925" lon="-0.2762367"><ele>193.0</ele><time>2026-04-11T09:05:33.954Z</time></trkpt><trkpt lat="39.799185" lon="-0.2761983"><ele>192.16666666666666</ele><time>2026-04-11T09:05:35.953Z</time></trkpt><trkpt lat="39.7991033" lon="-0.276235"><ele>191.33333333333331</ele><time>2026-04-11T09:05:37.953Z</time></trkpt><trkpt lat="39.7990317" lon="-0.2763017"><ele>190.5</ele><time>2026-04-11T09:05:39.953Z</time></trkpt><trkpt lat="39.798965" lon="-0.2763483"><ele>189.66666666666666</ele><time>2026-04-11T09:05:41.953Z</time></trkpt><trkpt lat="39.7988983" lon="-0.2764033"><ele>188.83333333333331</ele><time>2026-04-11T09:05:43.953Z</time></trkpt><trkpt lat="39.798845" lon="-0.2764617"><ele>188.0</ele><time>2026-04-11T09:05:45.954Z</time></trkpt><trkpt lat="39.7987883" lon="-0.2765117"><ele>187.85714285714286</ele><time>2026-04-11T09:05:47.953Z</time></trkpt><trkpt lat="39.79873" lon="-0.2765433"><ele>187.71428571428572</ele><time>2026-04-11T09:05:49.954Z</time></trkpt><trkpt lat="39.7986667" lon="-0.2765733"><ele>187.57142857142856</ele><time>2026-04-11T09:05:51.953Z</time></trkpt><trkpt lat="39.7985983" lon="-0.276615"><ele>187.42857142857144</ele><time>2026-04-11T09:05:53.953Z</time></trkpt><trkpt lat="39.79854" lon="-0.2766617"><ele>187.2857142857143</ele><time>2026-04-11T09:05:55.953Z</time></trkpt><trkpt lat="39.798485" lon="-0.2767083"><ele>187.14285714285714</ele><time>2026-04-11T09:05:57.953Z</time></trkpt><trkpt lat="39.7984033" lon="-0.2767617"><ele>187.0</ele><time>2026-04-11T09:06:00.953Z</time></trkpt><trkpt lat="39.7983283" lon="-0.2768067"><ele>188.5</ele><time>2026-04-11T09:06:03.954Z</time></trkpt><trkpt lat="39.7982467" lon="-0.27685"><ele>190.0</ele><time>2026-04-11T09:06:06.953Z</time></trkpt><trkpt lat="39.7981717" lon="-0.2768917"><ele>191.5</ele><time>2026-04-11T09:06:09.953Z</time></trkpt><trkpt lat="39.7980967" lon="-0.2769367"><ele>193.0</ele><time>2026-04-11T09:06:12.953Z</time></trkpt><trkpt lat="39.7980217" lon="-0.2769533"><ele>194.49999999999997</ele><time>2026-04-11T09:06:15.954Z</time></trkpt><trkpt lat="39.7979433" lon="-0.27696"><ele>196.0</ele><time>2026-04-11T09:06:18.954Z</time></trkpt><trkpt lat="39.79788" lon="-0.27695"><ele>195.99999999999997</ele><time>2026-04-11T09:06:21.953Z</time></trkpt><trkpt lat="39.7978283" lon="-0.2769"><ele>196.0</ele><time>2026-04-11T09:06:24.953Z</time></trkpt><trkpt lat="39.7977583" lon="-0.27682"><ele>196.0</ele><time>2026-04-11T09:06:27.953Z</time></trkpt><trkpt lat="39.7977083" lon="-0.2767433"><ele>196.0</ele><time>2026-04-11T09:06:29.953Z</time></trkpt><trkpt lat="39.79766" lon="-0.276675"><ele>195.99999999999997</ele><time>2026-04-11T09:06:31.953Z</time></trkpt><trkpt lat="39.7976067" lon="-0.2766067"><ele>196.0</ele><time>2026-04-11T09:06:33.954Z</time></trkpt><trkpt lat="39.797545" lon="-0.2765517"><ele>197.99999999999997</ele><time>2026-04-11T09:06:35.954Z</time></trkpt><trkpt lat="39.7974767" lon="-0.2764933"><ele>200.0</ele><time>2026-04-11T09:06:38.954Z</time></trkpt><trkpt lat="39.79741" lon="-0.27642"><ele>202.0</ele><time>2026-04-11T09:06:41.953Z</time></trkpt><trkpt lat="39.7973583" lon="-0.27633"><ele>204.0</ele><time>2026-04-11T09:06:44.953Z</time></trkpt><trkpt lat="39.7973333" lon="-0.2762433"><ele>205.99999999999997</ele><time>2026-04-11T09:06:47.954Z</time></trkpt><trkpt lat="39.7973583" lon="-0.2761633"><ele>208.0</ele><time>2026-04-11T09:06:49.953Z</time></trkpt><trkpt lat="39.7974033" lon="-0.2761"><ele>207.16666666666666</ele><time>2026-04-11T09:06:51.953Z</time></trkpt><trkpt lat="39.7974567" lon="-0.2760483"><ele>206.33333333333331</ele><time>2026-04-11T09:06:53.953Z</time></trkpt><trkpt lat="39.7975283" lon="-0.2759783"><ele>205.5</ele><time>2026-04-11T09:06:56.953Z</time></trkpt><trkpt lat="39.7975983" lon="-0.2758983"><ele>204.66666666666669</ele><time>2026-04-11T09:06:59.953Z</time></trkpt><trkpt lat="39.7976417" lon="-0.2758383"><ele>203.83333333333334</ele><time>2026-04-11T09:07:01.953Z</time></trkpt><trkpt lat="39.7976833" lon="-0.2757717"><ele>203.0</ele><time>2026-04-11T09:07:03.953Z</time></trkpt><trkpt lat="39.7977283" lon="-0.2757"><ele>203.00000000000003</ele><time>2026-04-11T09:07:05.954Z</time></trkpt><trkpt lat="39.7977767" lon="-0.27563"><ele>203.0</ele><time>2026-04-11T09:07:07.953Z</time></trkpt><trkpt lat="39.7978467" lon="-0.2755467"><ele>203.0</ele><time>2026-04-11T09:07:10.954Z</time></trkpt><trkpt lat="39.7978917" lon="-0.2754867"><ele>203.0</ele><time>2026-04-11T09:07:12.953Z</time></trkpt><trkpt lat="39.7979517" lon="-0.2754"><ele>203.00000000000003</ele><time>2026-04-11T09:07:15.953Z</time></trkpt><trkpt lat="39.797985" lon="-0.27532"><ele>203.0</ele><time>2026-04-11T09:07:17.954Z</time></trkpt><trkpt lat="39.79801" lon="-0.2752133"><ele>203.16666666666669</ele><time>2026-04-11T09:07:19.953Z</time></trkpt><trkpt lat="39.79803" lon="-0.2751"><ele>203.33333333333334</ele><time>2026-04-11T09:07:21.953Z</time></trkpt><trkpt lat="39.7980467" lon="-0.2749883"><ele>203.5</ele><time>2026-04-11T09:07:23.953Z</time></trkpt><trkpt lat="39.79806" lon="-0.2748783"><ele>203.66666666666669</ele><time>2026-04-11T09:07:25.953Z</time></trkpt><trkpt lat="39.7980783" lon="-0.2747683"><ele>203.83333333333334</ele><time>2026-04-11T09:07:27.953Z</time></trkpt><trkpt lat="39.798095" lon="-0.2746633"><ele>204.0</ele><time>2026-04-11T09:07:29.954Z</time></trkpt><trkpt lat="39.7981033" lon="-0.274565"><ele>204.0</ele><time>2026-04-11T09:07:31.953Z</time></trkpt><trkpt lat="39.7981217" lon="-0.2744783"><ele>204.0</ele><time>2026-04-11T09:07:33.953Z</time></trkpt><trkpt lat="39.7981317" lon="-0.2743883"><ele>204.0</ele><time>2026-04-11T09:07:35.953Z</time></trkpt><trkpt lat="39.7981233" lon="-0.2742967"><ele>204.0</ele><time>2026-04-11T09:07:37.953Z</time></trkpt><trkpt lat="39.798125" lon="-0.2742033"><ele>204.0</ele><time>2026-04-11T09:07:39.953Z</time></trkpt><trkpt lat="39.7981233" lon="-0.27411"><ele>204.0</ele><time>2026-04-11T09:07:41.953Z</time></trkpt><trkpt lat="39.7981133" lon="-0.2740233"><ele>204.0</ele><time>2026-04-11T09:07:43.953Z</time></trkpt><trkpt lat="39.7981083" lon="-0.2739333"><ele>203.66666666666666</ele><time>2026-04-11T09:07:45.954Z</time></trkpt><trkpt lat="39.798105" lon="-0.273825"><ele>203.33333333333331</ele><time>2026-04-11T09:07:48.954Z</time></trkpt><trkpt lat="39.7981033" lon="-0.273725"><ele>203.0</ele><time>2026-04-11T09:07:51.954Z</time></trkpt><trkpt lat="39.7981117" lon="-0.2736083"><ele>202.66666666666666</ele><time>2026-04-11T09:07:54.953Z</time></trkpt><trkpt lat="39.7981133" lon="-0.2735033"><ele>202.33333333333331</ele><time>2026-04-11T09:07:56.953Z</time></trkpt><trkpt lat="39.7981183" lon="-0.2733883"><ele>202.0</ele><time>2026-04-11T09:07:58.953Z</time></trkpt><trkpt lat="39.7981167" lon="-0.2732883"><ele>202.0</ele><time>2026-04-11T09:08:00.953Z</time></trkpt><trkpt lat="39.7980983" lon="-0.2731833"><ele>202.0</ele><time>2026-04-11T09:08:02.953Z</time></trkpt><trkpt lat="39.7980717" lon="-0.2730517"><ele>202.0</ele><time>2026-04-11T09:08:04.953Z</time></trkpt><trkpt lat="39.7980433" lon="-0.2729417"><ele>202.0</ele><time>2026-04-11T09:08:06.953Z</time></trkpt><trkpt lat="39.7980017" lon="-0.2728267"><ele>202.0</ele><time>2026-04-11T09:08:08.953Z</time></trkpt><trkpt lat="39.7979383" lon="-0.2727033"><ele>200.6</ele><time>2026-04-11T09:08:10.954Z</time></trkpt><trkpt lat="39.7978533" lon="-0.272605"><ele>199.2</ele><time>2026-04-11T09:08:12.953Z</time></trkpt><trkpt lat="39.797775" lon="-0.2725067"><ele>197.8</ele><time>2026-04-11T09:08:14.953Z</time></trkpt><trkpt lat="39.7976917" lon="-0.2724183"><ele>196.4</ele><time>2026-04-11T09:08:16.953Z</time></trkpt><trkpt lat="39.7975983" lon="-0.2723483"><ele>195.0</ele><time>2026-04-11T09:08:18.954Z</time></trkpt><trkpt lat="39.7975133" lon="-0.272295"><ele>194.83333333333334</ele><time>2026-04-11T09:08:20.953Z</time></trkpt><trkpt lat="39.797445" lon="-0.2722517"><ele>194.66666666666669</ele><time>2026-04-11T09:08:22.954Z</time></trkpt><trkpt lat="39.7973767" lon="-0.272205"><ele>194.5</ele><time>2026-04-11T09:08:24.953Z</time></trkpt><trkpt lat="39.79731" lon="-0.2721683"><ele>194.33333333333334</ele><time>2026-04-11T09:08:26.953Z</time></trkpt><trkpt lat="39.7972467" lon="-0.2721183"><ele>194.16666666666669</ele><time>2026-04-11T09:08:28.954Z</time></trkpt><trkpt lat="39.7971767" lon="-0.2720817"><ele>194.0</ele><time>2026-04-11T09:08:30.954Z</time></trkpt><trkpt lat="39.7971067" lon="-0.2720433"><ele>194.00000000000003</ele><time>2026-04-11T09:08:32.953Z</time></trkpt><trkpt lat="39.7970317" lon="-0.2719917"><ele>194.0</ele><time>2026-04-11T09:08:34.954Z</time></trkpt><trkpt lat="39.7969667" lon="-0.2719183"><ele>194.0</ele><time>2026-04-11T09:08:36.954Z</time></trkpt><trkpt lat="39.7969267" lon="-0.2718133"><ele>194.0</ele><time>2026-04-11T09:08:38.953Z</time></trkpt><trkpt lat="39.796925" lon="-0.2717"><ele>194.00000000000003</ele><time>2026-04-11T09:08:40.953Z</time></trkpt><trkpt lat="39.7969667" lon="-0.2715967"><ele>194.0</ele><time>2026-04-11T09:08:42.953Z</time></trkpt><trkpt lat="39.7970233" lon="-0.2715017"><ele>193.33333333333334</ele><time>2026-04-11T09:08:44.953Z</time></trkpt><trkpt lat="39.79707" lon="-0.2714133"><ele>192.66666666666669</ele><time>2026-04-11T09:08:46.954Z</time></trkpt><trkpt lat="39.7971117" lon="-0.27133"><ele>192.0</ele><time>2026-04-11T09:08:48.953Z</time></trkpt><trkpt lat="39.797145" lon="-0.27125"><ele>191.33333333333334</ele><time>2026-04-11T09:08:50.953Z</time></trkpt><trkpt lat="39.7971633" lon="-0.2711683"><ele>190.66666666666669</ele><time>2026-04-11T09:08:52.953Z</time></trkpt><trkpt lat="39.7971167" lon="-0.2710617"><ele>190.0</ele><time>2026-04-11T09:08:55.953Z</time></trkpt><trkpt lat="39.79705" lon="-0.271055"><ele>190.0</ele><time>2026-04-11T09:08:58.953Z</time></trkpt><trkpt lat="39.7969733" lon="-0.27105"><ele>190.0</ele><time>2026-04-11T09:09:02.953Z</time></trkpt><trkpt lat="39.796905" lon="-0.2710267"><ele>190.0</ele><time>2026-04-11T09:09:05.953Z</time></trkpt><trkpt lat="39.7968333" lon="-0.2709967"><ele>190.0</ele><time>2026-04-11T09:09:08.953Z</time></trkpt><trkpt lat="39.7967567" lon="-0.2709417"><ele>190.0</ele><time>2026-04-11T09:09:11.953Z</time></trkpt><trkpt lat="39.796725" lon="-0.270855"><ele>190.0</ele><time>2026-04-11T09:09:14.954Z</time></trkpt><trkpt lat="39.7966767" lon="-0.2707633"><ele>192.16666666666669</ele><time>2026-04-11T09:09:17.954Z</time></trkpt><trkpt lat="39.79663" lon="-0.2706867"><ele>194.33333333333334</ele><time>2026-04-11T09:09:20.953Z</time></trkpt><trkpt lat="39.79659" lon="-0.2705867"><ele>196.5</ele><time>2026-04-11T09:09:24.954Z</time></trkpt><trkpt lat="39.7965617" lon="-0.2705"><ele>198.66666666666669</ele><time>2026-04-11T09:09:27.954Z</time></trkpt><trkpt lat="39.7965467" lon="-0.2704083"><ele>200.83333333333334</ele><time>2026-04-11T09:09:30.953Z</time></trkpt><trkpt lat="39.7965383" lon="-0.270315"><ele>203.0</ele><time>2026-04-11T09:09:33.953Z</time></trkpt><trkpt lat="39.7965183" lon="-0.2702183"><ele>203.85714285714286</ele><time>2026-04-11T09:09:36.953Z</time></trkpt><trkpt lat="39.79651" lon="-0.2701233"><ele>204.71428571428572</ele><time>2026-04-11T09:09:39.953Z</time></trkpt><trkpt lat="39.79651" lon="-0.27002"><ele>205.57142857142856</ele><time>2026-04-11T09:09:41.954Z</time></trkpt><trkpt lat="39.796505" lon="-0.2699383"><ele>206.42857142857144</ele><time>2026-04-11T09:09:43.953Z</time></trkpt><trkpt lat="39.79649" lon="-0.26985"><ele>207.28571428571428</ele><time>2026-04-11T09:09:45.953Z</time></trkpt><trkpt lat="39.7964733" lon="-0.2697583"><ele>208.14285714285714</ele><time>2026-04-11T09:09:47.953Z</time></trkpt><trkpt lat="39.79647" lon="-0.269665"><ele>209.0</ele><time>2026-04-11T09:09:49.953Z</time></trkpt><trkpt lat="39.7964833" lon="-0.2695567"><ele>209.50000000000003</ele><time>2026-04-11T09:09:51.953Z</time></trkpt><trkpt lat="39.7965117" lon="-0.2694633"><ele>210.0</ele><time>2026-04-11T09:09:53.953Z</time></trkpt><trkpt lat="39.796545" lon="-0.2693633"><ele>210.5</ele><time>2026-04-11T09:09:55.954Z</time></trkpt><trkpt lat="39.7965817" lon="-0.269265"><ele>211.0</ele><time>2026-04-11T09:09:57.954Z</time></trkpt><trkpt lat="39.7966283" lon="-0.26919"><ele>211.50000000000003</ele><time>2026-04-11T09:09:59.953Z</time></trkpt><trkpt lat="39.7966783" lon="-0.2690967"><ele>212.0</ele><time>2026-04-11T09:10:01.953Z</time></trkpt><trkpt lat="39.7967217" lon="-0.269"><ele>213.66666666666669</ele><time>2026-04-11T09:10:03.953Z</time></trkpt><trkpt lat="39.7967583" lon="-0.2689017"><ele>215.33333333333334</ele><time>2026-04-11T09:10:05.953Z</time></trkpt><trkpt lat="39.79679" lon="-0.2688067"><ele>217.0</ele><time>2026-04-11T09:10:07.953Z</time></trkpt><trkpt lat="39.7968133" lon="-0.2687233"><ele>218.66666666666669</ele><time>2026-04-11T09:10:09.953Z</time></trkpt><trkpt lat="39.7968217" lon="-0.268625"><ele>220.33333333333334</ele><time>2026-04-11T09:10:11.953Z</time></trkpt><trkpt lat="39.7968233" lon="-0.2685267"><ele>222.0</ele><time>2026-04-11T09:10:13.953Z</time></trkpt><trkpt lat="39.7968167" lon="-0.268425"><ele>222.0</ele><time>2026-04-11T09:10:15.953Z</time></trkpt><trkpt lat="39.7968133" lon="-0.2683183"><ele>222.0</ele><time>2026-04-11T09:10:17.953Z</time></trkpt><trkpt lat="39.796805" lon="-0.268205"><ele>222.0</ele><time>2026-04-11T09:10:19.954Z</time></trkpt><trkpt lat="39.7968033" lon="-0.2680717"><ele>222.0</ele><time>2026-04-11T09:10:21.953Z</time></trkpt><trkpt lat="39.7968117" lon="-0.26795"><ele>222.0</ele><time>2026-04-11T09:10:23.953Z</time></trkpt><trkpt lat="39.7968217" lon="-0.26784"><ele>221.5</ele><time>2026-04-11T09:10:25.953Z</time></trkpt><trkpt lat="39.7968283" lon="-0.2677283"><ele>221.0</ele><time>2026-04-11T09:10:27.953Z</time></trkpt><trkpt lat="39.7968433" lon="-0.2676067"><ele>220.5</ele><time>2026-04-11T09:10:29.953Z</time></trkpt><trkpt lat="39.7968483" lon="-0.2674833"><ele>220.0</ele><time>2026-04-11T09:10:31.954Z</time></trkpt><trkpt lat="39.7968417" lon="-0.26738"><ele>219.5</ele><time>2026-04-11T09:10:33.953Z</time></trkpt><trkpt lat="39.796835" lon="-0.2672767"><ele>219.0</ele><time>2026-04-11T09:10:35.953Z</time></trkpt><trkpt lat="39.7968283" lon="-0.2671683"><ele>215.39999999999998</ele><time>2026-04-11T09:10:37.953Z</time></trkpt><trkpt lat="39.796815" lon="-0.2670667"><ele>211.79999999999998</ele><time>2026-04-11T09:10:39.953Z</time></trkpt><trkpt lat="39.7967867" lon="-0.26696"><ele>208.2</ele><time>2026-04-11T09:10:41.953Z</time></trkpt><trkpt lat="39.796735" lon="-0.26685"><ele>204.60000000000002</ele><time>2026-04-11T09:10:43.953Z</time></trkpt><trkpt lat="39.796685" lon="-0.2667483"><ele>201.0</ele><time>2026-04-11T09:10:45.953Z</time></trkpt><trkpt lat="39.7966033" lon="-0.2666833"><ele>201.0</ele><time>2026-04-11T09:10:47.953Z</time></trkpt><trkpt lat="39.7964933" lon="-0.2666217"><ele>201.0</ele><time>2026-04-11T09:10:49.953Z</time></trkpt><trkpt lat="39.79639" lon="-0.2665717"><ele>201.0</ele><time>2026-04-11T09:10:51.954Z</time></trkpt><trkpt lat="39.7962933" lon="-0.2665333"><ele>201.0</ele><time>2026-04-11T09:10:53.953Z</time></trkpt><trkpt lat="39.7961983" lon="-0.2664883"><ele>201.0</ele><time>2026-04-11T09:10:55.953Z</time></trkpt><trkpt lat="39.7961233" lon="-0.266455"><ele>200.66666666666666</ele><time>2026-04-11T09:10:57.954Z</time></trkpt><trkpt lat="39.7960517" lon="-0.2663917"><ele>200.33333333333331</ele><time>2026-04-11T09:10:59.953Z</time></trkpt><trkpt lat="39.7959933" lon="-0.2663083"><ele>200.0</ele><time>2026-04-11T09:11:01.953Z</time></trkpt><trkpt lat="39.7959483" lon="-0.266215"><ele>199.66666666666666</ele><time>2026-04-11T09:11:03.953Z</time></trkpt><trkpt lat="39.795905" lon="-0.2661383"><ele>199.33333333333331</ele><time>2026-04-11T09:11:05.954Z</time></trkpt><trkpt lat="39.7958433" lon="-0.2660533"><ele>199.0</ele><time>2026-04-11T09:11:08.953Z</time></trkpt><trkpt lat="39.7957817" lon="-0.266005"><ele>198.99999999999997</ele><time>2026-04-11T09:11:10.953Z</time></trkpt><trkpt lat="39.7957217" lon="-0.2659583"><ele>199.0</ele><time>2026-04-11T09:11:12.954Z</time></trkpt><trkpt lat="39.795655" lon="-0.2659033"><ele>199.0</ele><time>2026-04-11T09:11:14.953Z</time></trkpt><trkpt lat="39.795585" lon="-0.2658517"><ele>199.0</ele><time>2026-04-11T09:11:16.953Z</time></trkpt><trkpt lat="39.7955233" lon="-0.26579"><ele>198.99999999999997</ele><time>2026-04-11T09:11:18.954Z</time></trkpt><trkpt lat="39.795465" lon="-0.26572"><ele>199.0</ele><time>2026-04-11T09:11:20.953Z</time></trkpt><trkpt lat="39.79542" lon="-0.2656433"><ele>197.85714285714283</ele><time>2026-04-11T09:11:22.953Z</time></trkpt><trkpt lat="39.79538" lon="-0.2655683"><ele>196.71428571428572</ele><time>2026-04-11T09:11:24.953Z</time></trkpt><trkpt lat="39.7953317" lon="-0.2654983"><ele>195.57142857142856</ele><time>2026-04-11T09:11:26.954Z</time></trkpt><trkpt lat="39.7952767" lon="-0.2654383"><ele>194.42857142857142</ele><time>2026-04-11T09:11:28.954Z</time></trkpt><trkpt lat="39.7952167" lon="-0.265395"><ele>193.28571428571428</ele><time>2026-04-11T09:11:30.953Z</time></trkpt><trkpt lat="39.7951567" lon="-0.2653633"><ele>192.14285714285714</ele><time>2026-04-11T09:11:32.953Z</time></trkpt><trkpt lat="39.7950983" lon="-0.26529"><ele>191.0</ele><time>2026-04-11T09:11:35.953Z</time></trkpt><trkpt lat="39.795075" lon="-0.265165"><ele>189.2857142857143</ele><time>2026-04-11T09:11:38.953Z</time></trkpt><trkpt lat="39.7950883" lon="-0.2650717"><ele>187.57142857142856</ele><time>2026-04-11T09:11:40.953Z</time></trkpt><trkpt lat="39.7951117" lon="-0.2649767"><ele>185.85714285714286</ele><time>2026-04-11T09:11:42.953Z</time></trkpt><trkpt lat="39.79513" lon="-0.264895"><ele>184.14285714285717</ele><time>2026-04-11T09:11:44.954Z</time></trkpt><trkpt lat="39.7951467" lon="-0.2648117"><ele>182.42857142857144</ele><time>2026-04-11T09:11:46.953Z</time></trkpt><trkpt lat="39.7951667" lon="-0.26472"><ele>180.71428571428572</ele><time>2026-04-11T09:11:48.954Z</time></trkpt><trkpt lat="39.7951883" lon="-0.26462"><ele>179.0</ele><time>2026-04-11T09:11:50.953Z</time></trkpt><trkpt lat="39.7952" lon="-0.2645283"><ele>177.66666666666666</ele><time>2026-04-11T09:11:52.953Z</time></trkpt><trkpt lat="39.7952067" lon="-0.26443"><ele>176.33333333333331</ele><time>2026-04-11T09:11:54.954Z</time></trkpt><trkpt lat="39.795205" lon="-0.264325"><ele>175.0</ele><time>2026-04-11T09:11:56.953Z</time></trkpt><trkpt lat="39.795215" lon="-0.2642167"><ele>173.66666666666666</ele><time>2026-04-11T09:11:58.953Z</time></trkpt><trkpt lat="39.7952283" lon="-0.264105"><ele>172.33333333333334</ele><time>2026-04-11T09:12:00.953Z</time></trkpt><trkpt lat="39.7952483" lon="-0.264005"><ele>171.0</ele><time>2026-04-11T09:12:02.954Z</time></trkpt><trkpt lat="39.7952733" lon="-0.2639"><ele>168.57142857142856</ele><time>2026-04-11T09:12:04.953Z</time></trkpt><trkpt lat="39.7952983" lon="-0.2638"><ele>166.14285714285714</ele><time>2026-04-11T09:12:06.953Z</time></trkpt><trkpt lat="39.79532" lon="-0.2637133"><ele>163.71428571428572</ele><time>2026-04-11T09:12:08.953Z</time></trkpt><trkpt lat="39.79534" lon="-0.26362"><ele>161.28571428571428</ele><time>2026-04-11T09:12:10.953Z</time></trkpt><trkpt lat="39.79536" lon="-0.2635333"><ele>158.85714285714286</ele><time>2026-04-11T09:12:12.953Z</time></trkpt><trkpt lat="39.7953533" lon="-0.2634433"><ele>156.42857142857142</ele><time>2026-04-11T09:12:14.953Z</time></trkpt><trkpt lat="39.79534" lon="-0.26336"><ele>154.0</ele><time>2026-04-11T09:12:16.953Z</time></trkpt><trkpt lat="39.795325" lon="-0.2632733"><ele>154.0</ele><time>2026-04-11T09:12:18.953Z</time></trkpt><trkpt lat="39.79531" lon="-0.2631767"><ele>154.0</ele><time>2026-04-11T09:12:20.953Z</time></trkpt><trkpt lat="39.7952867" lon="-0.2630467"><ele>154.0</ele><time>2026-04-11T09:12:22.953Z</time></trkpt><trkpt lat="39.7952683" lon="-0.262895"><ele>154.0</ele><time>2026-04-11T09:12:24.953Z</time></trkpt><trkpt lat="39.795265" lon="-0.2627383"><ele>154.0</ele><time>2026-04-11T09:12:26.954Z</time></trkpt><trkpt lat="39.7952717" lon="-0.262655"><ele>151.6</ele><time>2026-04-11T09:12:27.954Z</time></trkpt><trkpt lat="39.795295" lon="-0.2624967"><ele>149.2</ele><time>2026-04-11T09:12:29.953Z</time></trkpt><trkpt lat="39.7953217" lon="-0.2623383"><ele>146.79999999999998</ele><time>2026-04-11T09:12:31.953Z</time></trkpt><trkpt lat="39.7953483" lon="-0.262205"><ele>144.4</ele><time>2026-04-11T09:12:33.954Z</time></trkpt><trkpt lat="39.7953717" lon="-0.2620917"><ele>142.0</ele><time>2026-04-11T09:12:35.953Z</time></trkpt><trkpt lat="39.79539" lon="-0.2619817"><ele>140.66666666666669</ele><time>2026-04-11T09:12:37.954Z</time></trkpt><trkpt lat="39.795395" lon="-0.2618817"><ele>139.33333333333334</ele><time>2026-04-11T09:12:39.953Z</time></trkpt><trkpt lat="39.795345" lon="-0.2617867"><ele>138.0</ele><time>2026-04-11T09:12:42.953Z</time></trkpt><trkpt lat="39.79528" lon="-0.2617617"><ele>136.66666666666666</ele><time>2026-04-11T09:12:44.954Z</time></trkpt><trkpt lat="39.7952133" lon="-0.2617483"><ele>135.33333333333331</ele><time>2026-04-11T09:12:46.953Z</time></trkpt><trkpt lat="39.79514" lon="-0.2617317"><ele>134.0</ele><time>2026-04-11T09:12:48.953Z</time></trkpt><trkpt lat="39.7950633" lon="-0.261725"><ele>134.0</ele><time>2026-04-11T09:12:50.953Z</time></trkpt><trkpt lat="39.7949833" lon="-0.2616967"><ele>134.0</ele><time>2026-04-11T09:12:52.953Z</time></trkpt><trkpt lat="39.7949283" lon="-0.2616267"><ele>134.0</ele><time>2026-04-11T09:12:54.953Z</time></trkpt><trkpt lat="39.794905" lon="-0.2615283"><ele>134.0</ele><time>2026-04-11T09:12:56.954Z</time></trkpt><trkpt lat="39.7948967" lon="-0.2614067"><ele>134.0</ele><time>2026-04-11T09:12:58.953Z</time></trkpt><trkpt lat="39.794915" lon="-0.2612567"><ele>134.0</ele><time>2026-04-11T09:13:00.953Z</time></trkpt><trkpt lat="39.7949267" lon="-0.2610983"><ele>133.16666666666666</ele><time>2026-04-11T09:13:02.953Z</time></trkpt><trkpt lat="39.7949333" lon="-0.2610167"><ele>132.33333333333331</ele><time>2026-04-11T09:13:03.953Z</time></trkpt><trkpt lat="39.7949417" lon="-0.26087"><ele>131.5</ele><time>2026-04-11T09:13:05.953Z</time></trkpt><trkpt lat="39.7949467" lon="-0.2607867"><ele>130.66666666666666</ele><time>2026-04-11T09:13:06.953Z</time></trkpt><trkpt lat="39.7949517" lon="-0.260645"><ele>129.83333333333334</ele><time>2026-04-11T09:13:08.954Z</time></trkpt><trkpt lat="39.79496" lon="-0.2605167"><ele>129.0</ele><time>2026-04-11T09:13:10.953Z</time></trkpt><trkpt lat="39.79497" lon="-0.2604067"><ele>128.6</ele><time>2026-04-11T09:13:12.954Z</time></trkpt><trkpt lat="39.7949567" lon="-0.2603"><ele>128.2</ele><time>2026-04-11T09:13:14.953Z</time></trkpt><trkpt lat="39.79493" lon="-0.2601567"><ele>127.79999999999998</ele><time>2026-04-11T09:13:16.953Z</time></trkpt><trkpt lat="39.794885" lon="-0.26002"><ele>127.39999999999999</ele><time>2026-04-11T09:13:18.953Z</time></trkpt><trkpt lat="39.7948683" lon="-0.259905"><ele>127.0</ele><time>2026-04-11T09:13:20.953Z</time></trkpt><trkpt lat="39.7948817" lon="-0.25982"><ele>127.16666666666667</ele><time>2026-04-11T09:13:22.953Z</time></trkpt><trkpt lat="39.79493" lon="-0.2597417"><ele>127.33333333333334</ele><time>2026-04-11T09:13:25.954Z</time></trkpt><trkpt lat="39.79497" lon="-0.259665"><ele>127.5</ele><time>2026-04-11T09:13:28.953Z</time></trkpt><trkpt lat="39.79502" lon="-0.2595767"><ele>127.66666666666666</ele><time>2026-04-11T09:13:31.954Z</time></trkpt><trkpt lat="39.795075" lon="-0.259495"><ele>127.83333333333333</ele><time>2026-04-11T09:13:34.954Z</time></trkpt><trkpt lat="39.7951217" lon="-0.2594033"><ele>128.0</ele><time>2026-04-11T09:13:37.954Z</time></trkpt><trkpt lat="39.7951617" lon="-0.2592917"><ele>127.71428571428571</ele><time>2026-04-11T09:13:40.953Z</time></trkpt><trkpt lat="39.7951733" lon="-0.2592083"><ele>127.42857142857142</ele><time>2026-04-11T09:13:42.953Z</time></trkpt><trkpt lat="39.795185" lon="-0.25912"><ele>127.14285714285714</ele><time>2026-04-11T09:13:44.953Z</time></trkpt><trkpt lat="39.7951733" lon="-0.2590183"><ele>126.85714285714286</ele><time>2026-04-11T09:13:46.954Z</time></trkpt><trkpt lat="39.795155" lon="-0.2589383"><ele>126.57142857142857</ele><time>2026-04-11T09:13:47.953Z</time></trkpt><trkpt lat="39.7951433" lon="-0.2588517"><ele>126.28571428571428</ele><time>2026-04-11T09:13:48.954Z</time></trkpt><trkpt lat="39.79514" lon="-0.2587617"><ele>126.0</ele><time>2026-04-11T09:13:49.953Z</time></trkpt><trkpt lat="39.7951417" lon="-0.2586567"><ele>126.0</ele><time>2026-04-11T09:13:50.954Z</time></trkpt><trkpt lat="39.795155" lon="-0.2585417"><ele>126.0</ele><time>2026-04-11T09:13:51.953Z</time></trkpt><trkpt lat="39.7951733" lon="-0.2584267"><ele>126.0</ele><time>2026-04-11T09:13:52.953Z</time></trkpt><trkpt lat="39.79518" lon="-0.258315"><ele>126.0</ele><time>2026-04-11T09:13:53.953Z</time></trkpt><trkpt lat="39.7951667" lon="-0.25822"><ele>126.0</ele><time>2026-04-11T09:13:54.953Z</time></trkpt><trkpt lat="39.79514" lon="-0.2581367"><ele>126.0</ele><time>2026-04-11T09:13:55.953Z</time></trkpt><trkpt lat="39.795105" lon="-0.2580683"><ele>126.0</ele><time>2026-04-11T09:13:56.953Z</time></trkpt><trkpt lat="39.7950417" lon="-0.2579333"><ele>126.0</ele><time>2026-04-11T09:13:58.954Z</time></trkpt><trkpt lat="39.7950083" lon="-0.2578117"><ele>126.0</ele><time>2026-04-11T09:14:00.953Z</time></trkpt><trkpt lat="39.7949917" lon="-0.257695"><ele>126.0</ele><time>2026-04-11T09:14:02.953Z</time></trkpt><trkpt lat="39.79499" lon="-0.2575783"><ele>126.0</ele><time>2026-04-11T09:14:05.953Z</time></trkpt><trkpt lat="39.794985" lon="-0.25748"><ele>126.0</ele><time>2026-04-11T09:14:08.954Z</time></trkpt><trkpt lat="39.7950167" lon="-0.2573717"><ele>126.0</ele><time>2026-04-11T09:14:11.953Z</time></trkpt><trkpt lat="39.795045" lon="-0.2572967"><ele>126.0</ele><time>2026-04-11T09:14:13.953Z</time></trkpt><trkpt lat="39.7950833" lon="-0.2572267"><ele>126.0</ele><time>2026-04-11T09:14:15.953Z</time></trkpt><trkpt lat="39.7951183" lon="-0.2571517"><ele>126.0</ele><time>2026-04-11T09:14:17.953Z</time></trkpt><trkpt lat="39.7951567" lon="-0.25708"><ele>126.0</ele><time>2026-04-11T09:14:19.953Z</time></trkpt><trkpt lat="39.7951967" lon="-0.25701"><ele>126.0</ele><time>2026-04-11T09:14:21.953Z</time></trkpt><trkpt lat="39.7952317" lon="-0.2569333"><ele>126.5</ele><time>2026-04-11T09:14:23.953Z</time></trkpt><trkpt lat="39.79528" lon="-0.25687"><ele>127.0</ele><time>2026-04-11T09:14:25.953Z</time></trkpt><trkpt lat="39.79537" lon="-0.2567983"><ele>127.5</ele><time>2026-04-11T09:14:28.953Z</time></trkpt><trkpt lat="39.7954417" lon="-0.256755"><ele>128.0</ele><time>2026-04-11T09:14:30.953Z</time></trkpt><trkpt lat="39.7955183" lon="-0.256725"><ele>128.5</ele><time>2026-04-11T09:14:32.953Z</time></trkpt><trkpt lat="39.7955717" lon="-0.2566583"><ele>129.0</ele><time>2026-04-11T09:14:34.954Z</time></trkpt><trkpt lat="39.795635" lon="-0.2565833"><ele>128.99999999999997</ele><time>2026-04-11T09:14:36.953Z</time></trkpt><trkpt lat="39.7956933" lon="-0.2565467"><ele>129.0</ele><time>2026-04-11T09:14:38.953Z</time></trkpt><trkpt lat="39.7957583" lon="-0.2564933"><ele>129.0</ele><time>2026-04-11T09:14:40.953Z</time></trkpt><trkpt lat="39.7958167" lon="-0.2564417"><ele>129.0</ele><time>2026-04-11T09:14:42.953Z</time></trkpt><trkpt lat="39.795875" lon="-0.256395"><ele>129.0</ele><time>2026-04-11T09:14:44.953Z</time></trkpt><trkpt lat="39.7959467" lon="-0.2563583"><ele>128.99999999999997</ele><time>2026-04-11T09:14:46.954Z</time></trkpt><trkpt lat="39.7960117" lon="-0.2563233"><ele>129.0</ele><time>2026-04-11T09:14:48.954Z</time></trkpt><trkpt lat="39.7960867" lon="-0.256285"><ele>127.5</ele><time>2026-04-11T09:14:50.953Z</time></trkpt><trkpt lat="39.7961633" lon="-0.2562383"><ele>126.0</ele><time>2026-04-11T09:14:52.953Z</time></trkpt><trkpt lat="39.7962367" lon="-0.2562033"><ele>124.5</ele><time>2026-04-11T09:14:54.953Z</time></trkpt><trkpt lat="39.7963083" lon="-0.256165"><ele>123.0</ele><time>2026-04-11T09:14:56.953Z</time></trkpt><trkpt lat="39.7964033" lon="-0.25614"><ele>121.5</ele><time>2026-04-11T09:14:58.954Z</time></trkpt><trkpt lat="39.7965067" lon="-0.2561333"><ele>120.0</ele><time>2026-04-11T09:15:00.954Z</time></trkpt><trkpt lat="39.7965983" lon="-0.2561117"><ele>120.0</ele><time>2026-04-11T09:15:02.953Z</time></trkpt><trkpt lat="39.7966717" lon="-0.25607"><ele>120.0</ele><time>2026-04-11T09:15:04.953Z</time></trkpt><trkpt lat="39.7967467" lon="-0.2560267"><ele>120.0</ele><time>2026-04-11T09:15:06.954Z</time></trkpt><trkpt lat="39.79682" lon="-0.255985"><ele>120.0</ele><time>2026-04-11T09:15:08.953Z</time></trkpt><trkpt lat="39.7968933" lon="-0.2559333"><ele>120.0</ele><time>2026-04-11T09:15:10.953Z</time></trkpt><trkpt lat="39.7969633" lon="-0.255865"><ele>120.0</ele><time>2026-04-11T09:15:12.953Z</time></trkpt><trkpt lat="39.7970317" lon="-0.2557733"><ele>121.0</ele><time>2026-04-11T09:15:14.953Z</time></trkpt><trkpt lat="39.7971033" lon="-0.2556533"><ele>122.0</ele><time>2026-04-11T09:15:16.953Z</time></trkpt><trkpt lat="39.7971367" lon="-0.2555817"><ele>123.0</ele><time>2026-04-11T09:15:17.953Z</time></trkpt><trkpt lat="39.7971667" lon="-0.2555067"><ele>124.0</ele><time>2026-04-11T09:15:18.953Z</time></trkpt><trkpt lat="39.797225" lon="-0.2553683"><ele>125.0</ele><time>2026-04-11T09:15:20.953Z</time></trkpt><trkpt lat="39.7972867" lon="-0.255225"><ele>124.99999999999999</ele><time>2026-04-11T09:15:22.953Z</time></trkpt><trkpt lat="39.7973367" lon="-0.2551067"><ele>125.0</ele><time>2026-04-11T09:15:24.954Z</time></trkpt><trkpt lat="39.79738" lon="-0.2550017"><ele>125.0</ele><time>2026-04-11T09:15:26.953Z</time></trkpt><trkpt lat="39.7974183" lon="-0.2549033"><ele>125.0</ele><time>2026-04-11T09:15:28.953Z</time></trkpt><trkpt lat="39.7974483" lon="-0.2548083"><ele>124.99999999999999</ele><time>2026-04-11T09:15:30.953Z</time></trkpt><trkpt lat="39.79747" lon="-0.2547183"><ele>125.0</ele><time>2026-04-11T09:15:32.954Z</time></trkpt><trkpt lat="39.7974833" lon="-0.2546267"><ele>124.4</ele><time>2026-04-11T09:15:34.953Z</time></trkpt><trkpt lat="39.7974717" lon="-0.2545283"><ele>123.8</ele><time>2026-04-11T09:15:36.953Z</time></trkpt><trkpt lat="39.7974483" lon="-0.2544083"><ele>123.19999999999999</ele><time>2026-04-11T09:15:38.954Z</time></trkpt><trkpt lat="39.797415" lon="-0.2542667"><ele>122.6</ele><time>2026-04-11T09:15:40.953Z</time></trkpt><trkpt lat="39.797385" lon="-0.2541233"><ele>122.0</ele><time>2026-04-11T09:15:42.953Z</time></trkpt><trkpt lat="39.79738" lon="-0.2539817"><ele>121.6</ele><time>2026-04-11T09:15:44.953Z</time></trkpt><trkpt lat="39.7974067" lon="-0.2538367"><ele>121.19999999999999</ele><time>2026-04-11T09:15:46.953Z</time></trkpt><trkpt lat="39.79745" lon="-0.2536883"><ele>120.8</ele><time>2026-04-11T09:15:48.953Z</time></trkpt><trkpt lat="39.79748" lon="-0.253615"><ele>120.4</ele><time>2026-04-11T09:15:49.954Z</time></trkpt><trkpt lat="39.79754" lon="-0.2534733"><ele>120.0</ele><time>2026-04-11T09:15:51.953Z</time></trkpt><trkpt lat="39.7975983" lon="-0.2533367"><ele>120.0</ele><time>2026-04-11T09:15:53.953Z</time></trkpt><trkpt lat="39.79765" lon="-0.2532133"><ele>120.0</ele><time>2026-04-11T09:15:55.953Z</time></trkpt><trkpt lat="39.7977" lon="-0.25309"><ele>120.0</ele><time>2026-04-11T09:15:57.953Z</time></trkpt><trkpt lat="39.7977417" lon="-0.2529717"><ele>120.0</ele><time>2026-04-11T09:15:59.953Z</time></trkpt><trkpt lat="39.7977783" lon="-0.25286"><ele>120.0</ele><time>2026-04-11T09:16:01.953Z</time></trkpt><trkpt lat="39.79781" lon="-0.2527517"><ele>120.0</ele><time>2026-04-11T09:16:03.953Z</time></trkpt><trkpt lat="39.7978483" lon="-0.2526383"><ele>120.0</ele><time>2026-04-11T09:16:05.953Z</time></trkpt><trkpt lat="39.7978783" lon="-0.25253"><ele>120.0</ele><time>2026-04-11T09:16:07.953Z</time></trkpt><trkpt lat="39.797895" lon="-0.2524267"><ele>120.0</ele><time>2026-04-11T09:16:09.953Z</time></trkpt><trkpt lat="39.7979083" lon="-0.2523233"><ele>120.0</ele><time>2026-04-11T09:16:11.954Z</time></trkpt><trkpt lat="39.7979267" lon="-0.252225"><ele>120.0</ele><time>2026-04-11T09:16:13.953Z</time></trkpt><trkpt lat="39.7979583" lon="-0.2521133"><ele>120.0</ele><time>2026-04-11T09:16:15.954Z</time></trkpt><trkpt lat="39.7979933" lon="-0.2520067"><ele>120.0</ele><time>2026-04-11T09:16:17.953Z</time></trkpt><trkpt lat="39.798025" lon="-0.2518967"><ele>120.0</ele><time>2026-04-11T09:16:19.953Z</time></trkpt><trkpt lat="39.7980417" lon="-0.2517883"><ele>120.0</ele><time>2026-04-11T09:16:21.954Z</time></trkpt><trkpt lat="39.7980717" lon="-0.2516717"><ele>120.0</ele><time>2026-04-11T09:16:23.953Z</time></trkpt><trkpt lat="39.7981" lon="-0.2515567"><ele>119.66666666666667</ele><time>2026-04-11T09:16:25.954Z</time></trkpt><trkpt lat="39.7981317" lon="-0.2514483"><ele>119.33333333333334</ele><time>2026-04-11T09:16:27.953Z</time></trkpt><trkpt lat="39.7981717" lon="-0.251355"><ele>119.0</ele><time>2026-04-11T09:16:29.953Z</time></trkpt><trkpt lat="39.7982167" lon="-0.2512683"><ele>118.66666666666667</ele><time>2026-04-11T09:16:31.953Z</time></trkpt><trkpt lat="39.7982617" lon="-0.2511683"><ele>118.33333333333334</ele><time>2026-04-11T09:16:33.953Z</time></trkpt><trkpt lat="39.7982967" lon="-0.2510883"><ele>118.0</ele><time>2026-04-11T09:16:35.953Z</time></trkpt><trkpt lat="39.79833" lon="-0.251015"><ele>118.00000000000001</ele><time>2026-04-11T09:16:37.954Z</time></trkpt><trkpt lat="39.7983733" lon="-0.25094"><ele>118.0</ele><time>2026-04-11T09:16:39.953Z</time></trkpt><trkpt lat="39.7984267" lon="-0.2508417"><ele>118.0</ele><time>2026-04-11T09:16:42.954Z</time></trkpt><trkpt lat="39.7984583" lon="-0.25076"><ele>118.0</ele><time>2026-04-11T09:16:44.953Z</time></trkpt><trkpt lat="39.7984917" lon="-0.25066"><ele>118.00000000000001</ele><time>2026-04-11T09:16:47.953Z</time></trkpt><trkpt lat="39.79853" lon="-0.2505633"><ele>118.0</ele><time>2026-04-11T09:16:50.953Z</time></trkpt><trkpt lat="39.7985867" lon="-0.250485"><ele>118.33333333333334</ele><time>2026-04-11T09:16:53.954Z</time></trkpt><trkpt lat="39.79863" lon="-0.2504133"><ele>118.66666666666667</ele><time>2026-04-11T09:16:56.953Z</time></trkpt><trkpt lat="39.79869" lon="-0.250335"><ele>119.0</ele><time>2026-04-11T09:16:59.954Z</time></trkpt><trkpt lat="39.7987467" lon="-0.2502483"><ele>119.33333333333334</ele><time>2026-04-11T09:17:02.953Z</time></trkpt><trkpt lat="39.7987933" lon="-0.250145"><ele>119.66666666666667</ele><time>2026-04-11T09:17:05.953Z</time></trkpt><trkpt lat="39.798835" lon="-0.250075"><ele>120.0</ele><time>2026-04-11T09:17:07.953Z</time></trkpt><trkpt lat="39.7988767" lon="-0.25"><ele>120.0</ele><time>2026-04-11T09:17:09.953Z</time></trkpt><trkpt lat="39.798925" lon="-0.2498967"><ele>120.0</ele><time>2026-04-11T09:17:12.953Z</time></trkpt><trkpt lat="39.7989733" lon="-0.2497983"><ele>120.0</ele><time>2026-04-11T09:17:15.953Z</time></trkpt><trkpt lat="39.7990217" lon="-0.2496917"><ele>120.0</ele><time>2026-04-11T09:17:18.954Z</time></trkpt><trkpt lat="39.79906" lon="-0.249615"><ele>120.0</ele><time>2026-04-11T09:17:20.954Z</time></trkpt><trkpt lat="39.7991" lon="-0.2495233"><ele>120.0</ele><time>2026-04-11T09:17:22.953Z</time></trkpt><trkpt lat="39.7991433" lon="-0.249425"><ele>120.16666666666667</ele><time>2026-04-11T09:17:24.953Z</time></trkpt><trkpt lat="39.7991967" lon="-0.2493317"><ele>120.33333333333334</ele><time>2026-04-11T09:17:26.952Z</time></trkpt><trkpt lat="39.799245" lon="-0.2492383"><ele>120.5</ele><time>2026-04-11T09:17:28.952Z</time></trkpt><trkpt lat="39.799305" lon="-0.2492717"><ele>120.66666666666667</ele><time>2026-04-11T09:17:30.064Z</time></trkpt><trkpt lat="39.7993067" lon="-0.2491583"><ele>120.83333333333334</ele><time>2026-04-11T09:17:31.459Z</time></trkpt><trkpt lat="39.7993433" lon="-0.249075"><ele>121.0</ele><time>2026-04-11T09:17:32.452Z</time></trkpt><trkpt lat="39.799415" lon="-0.248965"><ele>120.4</ele><time>2026-04-11T09:17:34.452Z</time></trkpt><trkpt lat="39.7994583" lon="-0.2488767"><ele>119.8</ele><time>2026-04-11T09:17:35.952Z</time></trkpt><trkpt lat="39.799515" lon="-0.2487467"><ele>119.20000000000002</ele><time>2026-04-11T09:17:37.952Z</time></trkpt><trkpt lat="39.79957" lon="-0.2486167"><ele>118.60000000000001</ele><time>2026-04-11T09:17:39.952Z</time></trkpt><trkpt lat="39.7996267" lon="-0.2484867"><ele>118.0</ele><time>2026-04-11T09:17:41.952Z</time></trkpt><trkpt lat="39.7996917" lon="-0.2483667"><ele>118.0</ele><time>2026-04-11T09:17:43.952Z</time></trkpt><trkpt lat="39.799755" lon="-0.2482533"><ele>118.00000000000001</ele><time>2026-04-11T09:17:45.952Z</time></trkpt><trkpt lat="39.7998167" lon="-0.248135"><ele>118.00000000000001</ele><time>2026-04-11T09:17:47.952Z</time></trkpt><trkpt lat="39.7998733" lon="-0.24802"><ele>118.0</ele><time>2026-04-11T09:17:49.953Z</time></trkpt><trkpt lat="39.7999383" lon="-0.2479133"><ele>118.0</ele><time>2026-04-11T09:17:51.952Z</time></trkpt><trkpt lat="39.8000117" lon="-0.24783"><ele>118.2</ele><time>2026-04-11T09:17:53.952Z</time></trkpt><trkpt lat="39.8000833" lon="-0.2477667"><ele>118.4</ele><time>2026-04-11T09:17:55.952Z</time></trkpt><trkpt lat="39.800145" lon="-0.2476883"><ele>118.60000000000001</ele><time>2026-04-11T09:17:57.952Z</time></trkpt><trkpt lat="39.80019" lon="-0.2475933"><ele>118.80000000000001</ele><time>2026-04-11T09:17:59.952Z</time></trkpt><trkpt lat="39.8002367" lon="-0.24748"><ele>119.0</ele><time>2026-04-11T09:18:01.952Z</time></trkpt><trkpt lat="39.8002817" lon="-0.247365"><ele>117.80000000000001</ele><time>2026-04-11T09:18:03.952Z</time></trkpt><trkpt lat="39.8003233" lon="-0.2472567"><ele>116.60000000000001</ele><time>2026-04-11T09:18:05.953Z</time></trkpt><trkpt lat="39.80037" lon="-0.2471417"><ele>115.4</ele><time>2026-04-11T09:18:07.952Z</time></trkpt><trkpt lat="39.8004167" lon="-0.24702"><ele>114.2</ele><time>2026-04-11T09:18:09.952Z</time></trkpt><trkpt lat="39.800455" lon="-0.2469083"><ele>113.0</ele><time>2026-04-11T09:18:11.952Z</time></trkpt><trkpt lat="39.8005017" lon="-0.246805"><ele>113.0</ele><time>2026-04-11T09:18:13.952Z</time></trkpt><trkpt lat="39.8005533" lon="-0.2466867"><ele>113.00000000000001</ele><time>2026-04-11T09:18:15.953Z</time></trkpt><trkpt lat="39.8005933" lon="-0.2465517"><ele>113.00000000000001</ele><time>2026-04-11T09:18:17.952Z</time></trkpt><trkpt lat="39.8006217" lon="-0.24642"><ele>113.0</ele><time>2026-04-11T09:18:19.953Z</time></trkpt><trkpt lat="39.80065" lon="-0.2462833"><ele>113.0</ele><time>2026-04-11T09:18:21.952Z</time></trkpt><trkpt lat="39.8006817" lon="-0.24614"><ele>112.49999999999999</ele><time>2026-04-11T09:18:23.952Z</time></trkpt><trkpt lat="39.8007083" lon="-0.2459833"><ele>112.0</ele><time>2026-04-11T09:18:25.952Z</time></trkpt><trkpt lat="39.80072" lon="-0.2459017"><ele>111.5</ele><time>2026-04-11T09:18:26.952Z</time></trkpt><trkpt lat="39.80073" lon="-0.24582"><ele>111.0</ele><time>2026-04-11T09:18:27.953Z</time></trkpt><trkpt lat="39.8007417" lon="-0.2457367"><ele>110.49999999999999</ele><time>2026-04-11T09:18:28.953Z</time></trkpt><trkpt lat="39.80075" lon="-0.24565"><ele>110.0</ele><time>2026-04-11T09:18:29.952Z</time></trkpt><trkpt lat="39.8007617" lon="-0.2455633"><ele>109.42857142857142</ele><time>2026-04-11T09:18:30.952Z</time></trkpt><trkpt lat="39.8007767" lon="-0.2454833"><ele>108.85714285714286</ele><time>2026-04-11T09:18:31.952Z</time></trkpt><trkpt lat="39.8007867" lon="-0.2454017"><ele>108.28571428571428</ele><time>2026-04-11T09:18:32.952Z</time></trkpt><trkpt lat="39.8007917" lon="-0.245315"><ele>107.71428571428571</ele><time>2026-04-11T09:18:33.952Z</time></trkpt><trkpt lat="39.8007967" lon="-0.24523"><ele>107.14285714285714</ele><time>2026-04-11T09:18:34.952Z</time></trkpt><trkpt lat="39.8007983" lon="-0.245145"><ele>106.57142857142857</ele><time>2026-04-11T09:18:35.952Z</time></trkpt><trkpt lat="39.8008067" lon="-0.24506"><ele>106.0</ele><time>2026-04-11T09:18:36.952Z</time></trkpt><trkpt lat="39.8008233" lon="-0.24497"><ele>106.0</ele><time>2026-04-11T09:18:37.952Z</time></trkpt><trkpt lat="39.80085" lon="-0.2448833"><ele>106.0</ele><time>2026-04-11T09:18:38.953Z</time></trkpt><trkpt lat="39.800875" lon="-0.2447917"><ele>106.0</ele><time>2026-04-11T09:18:39.952Z</time></trkpt><trkpt lat="39.8009" lon="-0.2447033"><ele>106.0</ele><time>2026-04-11T09:18:40.952Z</time></trkpt><trkpt lat="39.8009233" lon="-0.2446117"><ele>106.0</ele><time>2026-04-11T09:18:41.952Z</time></trkpt><trkpt lat="39.800945" lon="-0.2445217"><ele>106.0</ele><time>2026-04-11T09:18:42.952Z</time></trkpt><trkpt lat="39.8009683" lon="-0.24443"><ele>106.0</ele><time>2026-04-11T09:18:43.953Z</time></trkpt><trkpt lat="39.8009917" lon="-0.24434"><ele>106.0</ele><time>2026-04-11T09:18:44.952Z</time></trkpt><trkpt lat="39.80102" lon="-0.2442517"><ele>106.0</ele><time>2026-04-11T09:18:45.952Z</time></trkpt><trkpt lat="39.8010433" lon="-0.2441683"><ele>106.0</ele><time>2026-04-11T09:18:46.952Z</time></trkpt><trkpt lat="39.801065" lon="-0.2440817"><ele>106.0</ele><time>2026-04-11T09:18:47.952Z</time></trkpt><trkpt lat="39.8010933" lon="-0.24399"><ele>106.0</ele><time>2026-04-11T09:18:48.952Z</time></trkpt><trkpt lat="39.801125" lon="-0.2439017"><ele>106.0</ele><time>2026-04-11T09:18:49.952Z</time></trkpt><trkpt lat="39.8011567" lon="-0.24381"><ele>106.0</ele><time>2026-04-11T09:18:50.953Z</time></trkpt><trkpt lat="39.8011883" lon="-0.24372"><ele>105.57142857142857</ele><time>2026-04-11T09:18:51.952Z</time></trkpt><trkpt lat="39.801225" lon="-0.2436383"><ele>105.14285714285714</ele><time>2026-04-11T09:18:52.952Z</time></trkpt><trkpt lat="39.8012617" lon="-0.2435517"><ele>104.71428571428571</ele><time>2026-04-11T09:18:53.952Z</time></trkpt><trkpt lat="39.801295" lon="-0.2434683"><ele>104.28571428571428</ele><time>2026-04-11T09:18:54.952Z</time></trkpt><trkpt lat="39.8013267" lon="-0.24339"><ele>103.85714285714286</ele><time>2026-04-11T09:18:55.952Z</time></trkpt><trkpt lat="39.8013633" lon="-0.24331"><ele>103.42857142857142</ele><time>2026-04-11T09:18:56.952Z</time></trkpt><trkpt lat="39.8013933" lon="-0.2432317"><ele>103.0</ele><time>2026-04-11T09:18:57.953Z</time></trkpt><trkpt lat="39.8014483" lon="-0.2430867"><ele>102.4</ele><time>2026-04-11T09:18:59.952Z</time></trkpt><trkpt lat="39.8014733" lon="-0.24301"><ele>101.80000000000001</ele><time>2026-04-11T09:19:00.952Z</time></trkpt><trkpt lat="39.80153" lon="-0.24287"><ele>101.2</ele><time>2026-04-11T09:19:02.953Z</time></trkpt><trkpt lat="39.80158" lon="-0.2427283"><ele>100.6</ele><time>2026-04-11T09:19:04.952Z</time></trkpt><trkpt lat="39.8016367" lon="-0.2425917"><ele>100.0</ele><time>2026-04-11T09:19:06.952Z</time></trkpt><trkpt lat="39.8016917" lon="-0.24247"><ele>100.0</ele><time>2026-04-11T09:19:08.952Z</time></trkpt><trkpt lat="39.8017517" lon="-0.2423483"><ele>100.0</ele><time>2026-04-11T09:19:10.953Z</time></trkpt><trkpt lat="39.80179" lon="-0.242245"><ele>100.0</ele><time>2026-04-11T09:19:12.953Z</time></trkpt><trkpt lat="39.8017733" lon="-0.2421483"><ele>100.0</ele><time>2026-04-11T09:19:14.953Z</time></trkpt><trkpt lat="39.8017133" lon="-0.2420567"><ele>100.0</ele><time>2026-04-11T09:19:16.952Z</time></trkpt><trkpt lat="39.8016333" lon="-0.2419933"><ele>99.66666666666667</ele><time>2026-04-11T09:19:18.953Z</time></trkpt><trkpt lat="39.8015583" lon="-0.2419367"><ele>99.33333333333334</ele><time>2026-04-11T09:19:20.952Z</time></trkpt><trkpt lat="39.8014817" lon="-0.2418783"><ele>99.0</ele><time>2026-04-11T09:19:22.952Z</time></trkpt><trkpt lat="39.8014183" lon="-0.2418367"><ele>98.66666666666666</ele><time>2026-04-11T09:19:24.952Z</time></trkpt><trkpt lat="39.801355" lon="-0.24182"><ele>98.33333333333333</ele><time>2026-04-11T09:19:38.952Z</time></trkpt><trkpt lat="39.8012933" lon="-0.2418667"><ele>98.0</ele><time>2026-04-11T09:19:41.952Z</time></trkpt><trkpt lat="39.8012317" lon="-0.241935"><ele>97.99999999999999</ele><time>2026-04-11T09:19:44.952Z</time></trkpt><trkpt lat="39.80117" lon="-0.2420067"><ele>98.0</ele><time>2026-04-11T09:19:47.952Z</time></trkpt><trkpt lat="39.801125" lon="-0.24207"><ele>98.0</ele><time>2026-04-11T09:19:49.952Z</time></trkpt><trkpt lat="39.8010583" lon="-0.2421583"><ele>98.0</ele><time>2026-04-11T09:19:52.953Z</time></trkpt><trkpt lat="39.8010133" lon="-0.2422183"><ele>97.99999999999999</ele><time>2026-04-11T09:19:54.952Z</time></trkpt><trkpt lat="39.800965" lon="-0.242275"><ele>98.0</ele><time>2026-04-11T09:19:56.952Z</time></trkpt><trkpt lat="39.8009" lon="-0.2423583"><ele>98.42857142857143</ele><time>2026-04-11T09:19:59.953Z</time></trkpt><trkpt lat="39.80085" lon="-0.2424133"><ele>98.85714285714286</ele><time>2026-04-11T09:20:01.952Z</time></trkpt><trkpt lat="39.8007983" lon="-0.242465"><ele>99.28571428571428</ele><time>2026-04-11T09:20:03.952Z</time></trkpt><trkpt lat="39.8007317" lon="-0.2425367"><ele>99.71428571428572</ele><time>2026-04-11T09:20:06.952Z</time></trkpt><trkpt lat="39.8006767" lon="-0.2426083"><ele>100.14285714285714</ele><time>2026-04-11T09:20:09.952Z</time></trkpt><trkpt lat="39.8006217" lon="-0.2426617"><ele>100.57142857142857</ele><time>2026-04-11T09:20:12.952Z</time></trkpt><trkpt lat="39.8005583" lon="-0.2426767"><ele>101.0</ele><time>2026-04-11T09:20:15.953Z</time></trkpt><trkpt lat="39.8005117" lon="-0.2425783"><ele>100.99999999999999</ele><time>2026-04-11T09:20:18.953Z</time></trkpt><trkpt lat="39.8004867" lon="-0.2424933"><ele>101.0</ele><time>2026-04-11T09:20:20.952Z</time></trkpt><trkpt lat="39.80046" lon="-0.2423883"><ele>101.0</ele><time>2026-04-11T09:20:22.952Z</time></trkpt><trkpt lat="39.8004333" lon="-0.2422783"><ele>101.0</ele><time>2026-04-11T09:20:24.952Z</time></trkpt><trkpt lat="39.8003983" lon="-0.24217"><ele>100.99999999999999</ele><time>2026-04-11T09:20:26.953Z</time></trkpt><trkpt lat="39.8003667" lon="-0.2420567"><ele>101.0</ele><time>2026-04-11T09:20:28.952Z</time></trkpt><trkpt lat="39.800335" lon="-0.241955"><ele>100.66666666666666</ele><time>2026-04-11T09:20:30.952Z</time></trkpt><trkpt lat="39.80031" lon="-0.2418567"><ele>100.33333333333333</ele><time>2026-04-11T09:20:32.952Z</time></trkpt><trkpt lat="39.80028" lon="-0.241755"><ele>100.0</ele><time>2026-04-11T09:20:34.952Z</time></trkpt><trkpt lat="39.800245" lon="-0.2416567"><ele>99.66666666666666</ele><time>2026-04-11T09:20:36.953Z</time></trkpt><trkpt lat="39.8002167" lon="-0.2415517"><ele>99.33333333333333</ele><time>2026-04-11T09:20:38.952Z</time></trkpt><trkpt lat="39.8001717" lon="-0.241445"><ele>99.0</ele><time>2026-04-11T09:20:40.953Z</time></trkpt><trkpt lat="39.8001017" lon="-0.2413567"><ele>98.80000000000001</ele><time>2026-04-11T09:20:42.952Z</time></trkpt><trkpt lat="39.8000117" lon="-0.2412883"><ele>98.60000000000001</ele><time>2026-04-11T09:20:44.952Z</time></trkpt><trkpt lat="39.7999267" lon="-0.2412267"><ele>98.4</ele><time>2026-04-11T09:20:46.952Z</time></trkpt><trkpt lat="39.7998383" lon="-0.2411567"><ele>98.2</ele><time>2026-04-11T09:20:48.952Z</time></trkpt><trkpt lat="39.7997683" lon="-0.2410683"><ele>98.0</ele><time>2026-04-11T09:20:50.952Z</time></trkpt><trkpt lat="39.7997183" lon="-0.2409517"><ele>98.0</ele><time>2026-04-11T09:20:52.952Z</time></trkpt><trkpt lat="39.7996917" lon="-0.2408233"><ele>98.0</ele><time>2026-04-11T09:20:54.952Z</time></trkpt><trkpt lat="39.79967" lon="-0.2406933"><ele>98.0</ele><time>2026-04-11T09:20:56.952Z</time></trkpt><trkpt lat="39.7996567" lon="-0.2405633"><ele>98.0</ele><time>2026-04-11T09:20:58.952Z</time></trkpt><trkpt lat="39.7996467" lon="-0.2404283"><ele>98.0</ele><time>2026-04-11T09:21:00.952Z</time></trkpt><trkpt lat="39.79964" lon="-0.24031"><ele>97.83333333333333</ele><time>2026-04-11T09:21:02.952Z</time></trkpt><trkpt lat="39.7996283" lon="-0.2402017"><ele>97.66666666666666</ele><time>2026-04-11T09:21:04.953Z</time></trkpt><trkpt lat="39.7996133" lon="-0.2400967"><ele>97.5</ele><time>2026-04-11T09:21:06.952Z</time></trkpt><trkpt lat="39.7995917" lon="-0.24"><ele>97.33333333333334</ele><time>2026-04-11T09:21:08.953Z</time></trkpt><trkpt lat="39.7995717" lon="-0.2399133"><ele>97.16666666666667</ele><time>2026-04-11T09:21:10.952Z</time></trkpt><trkpt lat="39.7995533" lon="-0.2398233"><ele>97.0</ele><time>2026-04-11T09:21:12.952Z</time></trkpt><trkpt lat="39.7995367" lon="-0.2397267"><ele>97.00000000000001</ele><time>2026-04-11T09:21:14.953Z</time></trkpt><trkpt lat="39.79953" lon="-0.23963"><ele>97.0</ele><time>2026-04-11T09:21:16.952Z</time></trkpt><trkpt lat="39.7995217" lon="-0.2395217"><ele>97.0</ele><time>2026-04-11T09:21:18.952Z</time></trkpt><trkpt lat="39.7995083" lon="-0.2394083"><ele>97.0</ele><time>2026-04-11T09:21:20.952Z</time></trkpt><trkpt lat="39.7994917" lon="-0.239295"><ele>97.00000000000001</ele><time>2026-04-11T09:21:22.952Z</time></trkpt><trkpt lat="39.7994733" lon="-0.2391817"><ele>97.0</ele><time>2026-04-11T09:21:24.952Z</time></trkpt><trkpt lat="39.799455" lon="-0.2390733"><ele>97.50000000000001</ele><time>2026-04-11T09:21:26.952Z</time></trkpt><trkpt lat="39.799445" lon="-0.2389633"><ele>98.0</ele><time>2026-04-11T09:21:28.953Z</time></trkpt><trkpt lat="39.7994283" lon="-0.2388533"><ele>98.5</ele><time>2026-04-11T09:21:30.952Z</time></trkpt><trkpt lat="39.7994183" lon="-0.2387417"><ele>99.0</ele><time>2026-04-11T09:21:32.952Z</time></trkpt><trkpt lat="39.7993917" lon="-0.238635"><ele>99.50000000000001</ele><time>2026-04-11T09:21:34.952Z</time></trkpt><trkpt lat="39.7993733" lon="-0.2385283"><ele>100.0</ele><time>2026-04-11T09:21:36.952Z</time></trkpt><trkpt lat="39.79936" lon="-0.238405"><ele>100.0</ele><time>2026-04-11T09:21:38.952Z</time></trkpt><trkpt lat="39.7993533" lon="-0.2382883"><ele>100.0</ele><time>2026-04-11T09:21:40.952Z</time></trkpt><trkpt lat="39.7993483" lon="-0.2381717"><ele>100.0</ele><time>2026-04-11T09:21:42.953Z</time></trkpt><trkpt lat="39.7993383" lon="-0.238055"><ele>100.0</ele><time>2026-04-11T09:21:44.952Z</time></trkpt><trkpt lat="39.7993233" lon="-0.23793"><ele>100.0</ele><time>2026-04-11T09:21:46.952Z</time></trkpt><trkpt lat="39.7993067" lon="-0.2378083"><ele>100.2</ele><time>2026-04-11T09:21:48.952Z</time></trkpt><trkpt lat="39.799275" lon="-0.2376817"><ele>100.4</ele><time>2026-04-11T09:21:50.953Z</time></trkpt><trkpt lat="39.7992133" lon="-0.2375817"><ele>100.6</ele><time>2026-04-11T09:21:52.952Z</time></trkpt><trkpt lat="39.7991167" lon="-0.23753"><ele>100.8</ele><time>2026-04-11T09:21:54.952Z</time></trkpt><trkpt lat="39.7989917" lon="-0.2375167"><ele>101.0</ele><time>2026-04-11T09:21:56.952Z</time></trkpt><trkpt lat="39.7989233" lon="-0.2375217"><ele>100.99999999999999</ele><time>2026-04-11T09:21:57.952Z</time></trkpt><trkpt lat="39.7988583" lon="-0.2375283"><ele>101.0</ele><time>2026-04-11T09:21:58.952Z</time></trkpt><trkpt lat="39.7987417" lon="-0.23755"><ele>101.0</ele><time>2026-04-11T09:22:00.952Z</time></trkpt><trkpt lat="39.7986417" lon="-0.2375733"><ele>101.0</ele><time>2026-04-11T09:22:02.952Z</time></trkpt><trkpt lat="39.7985733" lon="-0.2375883"><ele>100.99999999999999</ele><time>2026-04-11T09:22:04.952Z</time></trkpt><trkpt lat="39.798515" lon="-0.2376383"><ele>101.0</ele><time>2026-04-11T09:22:06.952Z</time></trkpt><trkpt lat="39.7984567" lon="-0.2377067"><ele>101.16666666666666</ele><time>2026-04-11T09:22:08.952Z</time></trkpt><trkpt lat="39.798395" lon="-0.237765"><ele>101.33333333333333</ele><time>2026-04-11T09:22:10.952Z</time></trkpt><trkpt lat="39.798335" lon="-0.2378183"><ele>101.5</ele><time>2026-04-11T09:22:12.952Z</time></trkpt><trkpt lat="39.79828" lon="-0.2378717"><ele>101.66666666666666</ele><time>2026-04-11T09:22:14.952Z</time></trkpt><trkpt lat="39.7982167" lon="-0.237925"><ele>101.83333333333333</ele><time>2026-04-11T09:22:16.952Z</time></trkpt><trkpt lat="39.798135" lon="-0.23797"><ele>102.0</ele><time>2026-04-11T09:22:19.953Z</time></trkpt><trkpt lat="39.798055" lon="-0.23801"><ele>102.0</ele><time>2026-04-11T09:22:22.952Z</time></trkpt><trkpt lat="39.7979717" lon="-0.2380383"><ele>102.0</ele><time>2026-04-11T09:22:25.952Z</time></trkpt><trkpt lat="39.7978783" lon="-0.2380467"><ele>102.0</ele><time>2026-04-11T09:22:28.952Z</time></trkpt><trkpt lat="39.7978067" lon="-0.238055"><ele>102.0</ele><time>2026-04-11T09:22:30.952Z</time></trkpt><trkpt lat="39.797735" lon="-0.23806"><ele>102.0</ele><time>2026-04-11T09:22:32.952Z</time></trkpt><trkpt lat="39.797665" lon="-0.2380533"><ele>102.0</ele><time>2026-04-11T09:22:34.952Z</time></trkpt><trkpt lat="39.7975967" lon="-0.2380267"><ele>102.0</ele><time>2026-04-11T09:22:36.952Z</time></trkpt><trkpt lat="39.7975317" lon="-0.2379983"><ele>102.0</ele><time>2026-04-11T09:22:38.952Z</time></trkpt><trkpt lat="39.7974667" lon="-0.2379667"><ele>102.0</ele><time>2026-04-11T09:22:40.952Z</time></trkpt><trkpt lat="39.79738" lon="-0.2379167"><ele>102.0</ele><time>2026-04-11T09:22:43.953Z</time></trkpt><trkpt lat="39.7972917" lon="-0.2378717"><ele>102.0</ele><time>2026-04-11T09:22:46.952Z</time></trkpt><trkpt lat="39.7972033" lon="-0.2378333"><ele>102.0</ele><time>2026-04-11T09:22:49.952Z</time></trkpt><trkpt lat="39.79712" lon="-0.2377933"><ele>102.0</ele><time>2026-04-11T09:22:52.952Z</time></trkpt><trkpt lat="39.7970583" lon="-0.23776"><ele>102.0</ele><time>2026-04-11T09:22:54.952Z</time></trkpt><trkpt lat="39.7969867" lon="-0.2377283"><ele>102.0</ele><time>2026-04-11T09:22:56.953Z</time></trkpt><trkpt lat="39.796915" lon="-0.2376933"><ele>102.0</ele><time>2026-04-11T09:22:58.952Z</time></trkpt><trkpt lat="39.7968383" lon="-0.237675"><ele>102.0</ele><time>2026-04-11T09:23:00.952Z</time></trkpt><trkpt lat="39.79676" lon="-0.2376633"><ele>102.0</ele><time>2026-04-11T09:23:02.952Z</time></trkpt><trkpt lat="39.7966883" lon="-0.237665"><ele>102.0</ele><time>2026-04-11T09:23:04.952Z</time></trkpt><trkpt lat="39.7966167" lon="-0.23767"><ele>102.0</ele><time>2026-04-11T09:23:06.952Z</time></trkpt><trkpt lat="39.796545" lon="-0.237675"><ele>102.0</ele><time>2026-04-11T09:23:08.952Z</time></trkpt><trkpt lat="39.7964683" lon="-0.2376883"><ele>102.0</ele><time>2026-04-11T09:23:10.952Z</time></trkpt><trkpt lat="39.7963917" lon="-0.2376917"><ele>102.0</ele><time>2026-04-11T09:23:12.952Z</time></trkpt><trkpt lat="39.7963233" lon="-0.237695"><ele>102.0</ele><time>2026-04-11T09:23:14.953Z</time></trkpt><trkpt lat="39.7962467" lon="-0.237705"><ele>102.0</ele><time>2026-04-11T09:23:16.952Z</time></trkpt><trkpt lat="39.796175" lon="-0.23772"><ele>102.0</ele><time>2026-04-11T09:23:18.953Z</time></trkpt><trkpt lat="39.7961067" lon="-0.2377333"><ele>102.0</ele><time>2026-04-11T09:23:20.953Z</time></trkpt><trkpt lat="39.7960417" lon="-0.237755"><ele>102.0</ele><time>2026-04-11T09:23:22.953Z</time></trkpt><trkpt lat="39.7959867" lon="-0.2377967"><ele>102.0</ele><time>2026-04-11T09:23:24.953Z</time></trkpt><trkpt lat="39.7959183" lon="-0.237855"><ele>102.0</ele><time>2026-04-11T09:23:27.952Z</time></trkpt><trkpt lat="39.795855" lon="-0.2379383"><ele>102.0</ele><time>2026-04-11T09:23:30.952Z</time></trkpt><trkpt lat="39.7957917" lon="-0.23802"><ele>102.0</ele><time>2026-04-11T09:23:33.952Z</time></trkpt><trkpt lat="39.795725" lon="-0.2380933"><ele>102.16666666666667</ele><time>2026-04-11T09:23:36.952Z</time></trkpt><trkpt lat="39.795655" lon="-0.238165"><ele>102.33333333333334</ele><time>2026-04-11T09:23:39.953Z</time></trkpt><trkpt lat="39.7955833" lon="-0.23822"><ele>102.5</ele><time>2026-04-11T09:23:42.952Z</time></trkpt><trkpt lat="39.7955033" lon="-0.2382367"><ele>102.66666666666667</ele><time>2026-04-11T09:23:45.952Z</time></trkpt><trkpt lat="39.7954267" lon="-0.2382283"><ele>102.83333333333334</ele><time>2026-04-11T09:23:48.952Z</time></trkpt><trkpt lat="39.7953617" lon="-0.238215"><ele>103.0</ele><time>2026-04-11T09:23:50.952Z</time></trkpt><trkpt lat="39.7952967" lon="-0.23819"><ele>102.99999999999999</ele><time>2026-04-11T09:23:52.953Z</time></trkpt><trkpt lat="39.7952317" lon="-0.2381683"><ele>103.0</ele><time>2026-04-11T09:23:54.953Z</time></trkpt><trkpt lat="39.795165" lon="-0.23814"><ele>103.0</ele><time>2026-04-11T09:23:56.952Z</time></trkpt><trkpt lat="39.7950933" lon="-0.2381133"><ele>103.0</ele><time>2026-04-11T09:23:58.952Z</time></trkpt><trkpt lat="39.7950167" lon="-0.2380983"><ele>103.0</ele><time>2026-04-11T09:24:00.953Z</time></trkpt><trkpt lat="39.7949383" lon="-0.2380983"><ele>102.99999999999999</ele><time>2026-04-11T09:24:02.952Z</time></trkpt><trkpt lat="39.7948717" lon="-0.2380983"><ele>103.0</ele><time>2026-04-11T09:24:04.953Z</time></trkpt><trkpt lat="39.7948083" lon="-0.238095"><ele>102.66666666666667</ele><time>2026-04-11T09:24:06.952Z</time></trkpt><trkpt lat="39.79474" lon="-0.2380967"><ele>102.33333333333334</ele><time>2026-04-11T09:24:08.952Z</time></trkpt><trkpt lat="39.7946517" lon="-0.2380917"><ele>102.0</ele><time>2026-04-11T09:24:11.952Z</time></trkpt><trkpt lat="39.7945683" lon="-0.238085"><ele>101.66666666666666</ele><time>2026-04-11T09:24:14.952Z</time></trkpt><trkpt lat="39.7945017" lon="-0.2380783"><ele>101.33333333333333</ele><time>2026-04-11T09:24:16.952Z</time></trkpt><trkpt lat="39.79444" lon="-0.2380367"><ele>101.0</ele><time>2026-04-11T09:24:18.952Z</time></trkpt><trkpt lat="39.7943833" lon="-0.2379533"><ele>100.99999999999999</ele><time>2026-04-11T09:24:21.952Z</time></trkpt><trkpt lat="39.7943733" lon="-0.2378333"><ele>101.0</ele><time>2026-04-11T09:24:24.952Z</time></trkpt><trkpt lat="39.79436" lon="-0.237745"><ele>101.0</ele><time>2026-04-11T09:24:26.952Z</time></trkpt><trkpt lat="39.7943417" lon="-0.23765"><ele>101.0</ele><time>2026-04-11T09:24:28.952Z</time></trkpt><trkpt lat="39.79433" lon="-0.2375583"><ele>100.99999999999999</ele><time>2026-04-11T09:24:30.952Z</time></trkpt><trkpt lat="39.7943167" lon="-0.2374683"><ele>101.0</ele><time>2026-04-11T09:24:32.952Z</time></trkpt><trkpt lat="39.7942967" lon="-0.2373683"><ele>101.33333333333333</ele><time>2026-04-11T09:24:34.953Z</time></trkpt><trkpt lat="39.7942917" lon="-0.237265"><ele>101.66666666666666</ele><time>2026-04-11T09:24:36.952Z</time></trkpt><trkpt lat="39.794275" lon="-0.23715"><ele>102.0</ele><time>2026-04-11T09:24:38.952Z</time></trkpt><trkpt lat="39.7942483" lon="-0.23704"><ele>102.33333333333334</ele><time>2026-04-11T09:24:40.952Z</time></trkpt><trkpt lat="39.7942283" lon="-0.2369317"><ele>102.66666666666667</ele><time>2026-04-11T09:24:42.952Z</time></trkpt><trkpt lat="39.7942083" lon="-0.2368217"><ele>103.0</ele><time>2026-04-11T09:24:44.952Z</time></trkpt><trkpt lat="39.794185" lon="-0.2367067"><ele>103.00000000000001</ele><time>2026-04-11T09:24:46.952Z</time></trkpt><trkpt lat="39.7941583" lon="-0.2365983"><ele>103.0</ele><time>2026-04-11T09:24:48.953Z</time></trkpt><trkpt lat="39.794145" lon="-0.2364917"><ele>103.0</ele><time>2026-04-11T09:24:50.952Z</time></trkpt><trkpt lat="39.7941633" lon="-0.2363833"><ele>103.0</ele><time>2026-04-11T09:24:52.953Z</time></trkpt><trkpt lat="39.7941917" lon="-0.2362833"><ele>103.00000000000001</ele><time>2026-04-11T09:24:54.953Z</time></trkpt><trkpt lat="39.79423" lon="-0.2361833"><ele>103.0</ele><time>2026-04-11T09:24:56.953Z</time></trkpt><trkpt lat="39.7942683" lon="-0.2360783"><ele>103.4</ele><time>2026-04-11T09:24:58.953Z</time></trkpt><trkpt lat="39.7943083" lon="-0.2359583"><ele>103.80000000000001</ele><time>2026-04-11T09:25:00.952Z</time></trkpt><trkpt lat="39.7943333" lon="-0.235835"><ele>104.2</ele><time>2026-04-11T09:25:02.952Z</time></trkpt><trkpt lat="39.7943533" lon="-0.2357167"><ele>104.6</ele><time>2026-04-11T09:25:04.952Z</time></trkpt><trkpt lat="39.7943617" lon="-0.2356117"><ele>105.0</ele><time>2026-04-11T09:25:06.952Z</time></trkpt><trkpt lat="39.794365" lon="-0.2355033"><ele>104.33333333333333</ele><time>2026-04-11T09:25:08.952Z</time></trkpt><trkpt lat="39.7943733" lon="-0.235395"><ele>103.66666666666666</ele><time>2026-04-11T09:25:10.952Z</time></trkpt><trkpt lat="39.7943733" lon="-0.2352833"><ele>103.0</ele><time>2026-04-11T09:25:12.952Z</time></trkpt><trkpt lat="39.7943733" lon="-0.2351717"><ele>102.33333333333333</ele><time>2026-04-11T09:25:14.952Z</time></trkpt><trkpt lat="39.7943717" lon="-0.23506"><ele>101.66666666666666</ele><time>2026-04-11T09:25:16.952Z</time></trkpt><trkpt lat="39.7943617" lon="-0.234965"><ele>101.0</ele><time>2026-04-11T09:25:18.952Z</time></trkpt><trkpt lat="39.7943567" lon="-0.2348583"><ele>100.83333333333333</ele><time>2026-04-11T09:25:20.953Z</time></trkpt><trkpt lat="39.7943417" lon="-0.23476"><ele>100.66666666666666</ele><time>2026-04-11T09:25:22.952Z</time></trkpt><trkpt lat="39.7943217" lon="-0.2346667"><ele>100.5</ele><time>2026-04-11T09:25:24.953Z</time></trkpt><trkpt lat="39.7942967" lon="-0.234565"><ele>100.33333333333334</ele><time>2026-04-11T09:25:26.952Z</time></trkpt><trkpt lat="39.7942567" lon="-0.2344733"><ele>100.16666666666667</ele><time>2026-04-11T09:25:28.952Z</time></trkpt><trkpt lat="39.7942183" lon="-0.2343817"><ele>100.0</ele><time>2026-04-11T09:25:30.952Z</time></trkpt><trkpt lat="39.7941767" lon="-0.2342917"><ele>100.2</ele><time>2026-04-11T09:25:32.952Z</time></trkpt><trkpt lat="39.7941117" lon="-0.2342017"><ele>100.4</ele><time>2026-04-11T09:25:34.953Z</time></trkpt><trkpt lat="39.7940633" lon="-0.2341033"><ele>100.6</ele><time>2026-04-11T09:25:36.952Z</time></trkpt><trkpt lat="39.794035" lon="-0.2339933"><ele>100.8</ele><time>2026-04-11T09:25:38.952Z</time></trkpt><trkpt lat="39.7939967" lon="-0.2338767"><ele>101.0</ele><time>2026-04-11T09:25:40.952Z</time></trkpt><trkpt lat="39.7939817" lon="-0.23374"><ele>101.0</ele><time>2026-04-11T09:25:42.952Z</time></trkpt><trkpt lat="39.79395" lon="-0.23359"><ele>101.0</ele><time>2026-04-11T09:25:44.952Z</time></trkpt><trkpt lat="39.7939167" lon="-0.23344"><ele>101.0</ele><time>2026-04-11T09:25:46.952Z</time></trkpt><trkpt lat="39.7938667" lon="-0.2332917"><ele>101.0</ele><time>2026-04-11T09:25:48.952Z</time></trkpt><trkpt lat="39.79381" lon="-0.233155"><ele>100.71428571428571</ele><time>2026-04-11T09:25:50.953Z</time></trkpt><trkpt lat="39.7937533" lon="-0.23302"><ele>100.42857142857142</ele><time>2026-04-11T09:25:52.953Z</time></trkpt><trkpt lat="39.7937233" lon="-0.232945"><ele>100.14285714285714</ele><time>2026-04-11T09:25:53.952Z</time></trkpt><trkpt lat="39.7936983" lon="-0.2328667"><ele>99.85714285714286</ele><time>2026-04-11T09:25:54.952Z</time></trkpt><trkpt lat="39.7936667" lon="-0.2327883"><ele>99.57142857142857</ele><time>2026-04-11T09:25:55.952Z</time></trkpt><trkpt lat="39.7936383" lon="-0.2327117"><ele>99.28571428571429</ele><time>2026-04-11T09:25:56.952Z</time></trkpt><trkpt lat="39.7936117" lon="-0.2326317"><ele>99.0</ele><time>2026-04-11T09:25:57.952Z</time></trkpt><trkpt lat="39.793585" lon="-0.2324733"><ele>99.0</ele><time>2026-04-11T09:25:59.952Z</time></trkpt><trkpt lat="39.7935783" lon="-0.2323833"><ele>99.0</ele><time>2026-04-11T09:26:00.953Z</time></trkpt><trkpt lat="39.7935683" lon="-0.2322933"><ele>99.0</ele><time>2026-04-11T09:26:01.952Z</time></trkpt><trkpt lat="39.79356" lon="-0.2322033"><ele>99.0</ele><time>2026-04-11T09:26:02.952Z</time></trkpt><trkpt lat="39.79355" lon="-0.2321133"><ele>99.0</ele><time>2026-04-11T09:26:03.953Z</time></trkpt><trkpt lat="39.7935417" lon="-0.232025"><ele>99.0</ele><time>2026-04-11T09:26:04.952Z</time></trkpt><trkpt lat="39.7935317" lon="-0.2319367"><ele>99.0</ele><time>2026-04-11T09:26:05.952Z</time></trkpt><trkpt lat="39.793525" lon="-0.2318467"><ele>98.66666666666667</ele><time>2026-04-11T09:26:06.953Z</time></trkpt><trkpt lat="39.793515" lon="-0.231755"><ele>98.33333333333334</ele><time>2026-04-11T09:26:07.953Z</time></trkpt><trkpt lat="39.7935" lon="-0.23167"><ele>98.0</ele><time>2026-04-11T09:26:08.953Z</time></trkpt><trkpt lat="39.7934867" lon="-0.2315833"><ele>97.66666666666667</ele><time>2026-04-11T09:26:09.952Z</time></trkpt><trkpt lat="39.7934717" lon="-0.2314983"><ele>97.33333333333334</ele><time>2026-04-11T09:26:10.952Z</time></trkpt><trkpt lat="39.793455" lon="-0.2314183"><ele>97.0</ele><time>2026-04-11T09:26:11.952Z</time></trkpt><trkpt lat="39.793425" lon="-0.2312717"><ele>95.75</ele><time>2026-04-11T09:26:13.952Z</time></trkpt><trkpt lat="39.7933967" lon="-0.231125"><ele>94.5</ele><time>2026-04-11T09:26:15.953Z</time></trkpt><trkpt lat="39.7933633" lon="-0.2309817"><ele>93.25</ele><time>2026-04-11T09:26:17.952Z</time></trkpt><trkpt lat="39.793335" lon="-0.2308383"><ele>92.0</ele><time>2026-04-11T09:26:19.952Z</time></trkpt><trkpt lat="39.7933183" lon="-0.2307"><ele>92.0</ele><time>2026-04-11T09:26:21.952Z</time></trkpt><trkpt lat="39.7932917" lon="-0.2305517"><ele>92.0</ele><time>2026-04-11T09:26:23.952Z</time></trkpt><trkpt lat="39.7932667" lon="-0.2304033"><ele>92.0</ele><time>2026-04-11T09:26:25.952Z</time></trkpt><trkpt lat="39.7932433" lon="-0.2302517"><ele>92.0</ele><time>2026-04-11T09:26:27.952Z</time></trkpt><trkpt lat="39.7932083" lon="-0.2301017"><ele>92.0</ele><time>2026-04-11T09:26:29.953Z</time></trkpt><trkpt lat="39.7931933" lon="-0.2299617"><ele>92.0</ele><time>2026-04-11T09:26:31.952Z</time></trkpt><trkpt lat="39.7931933" lon="-0.2298317"><ele>92.0</ele><time>2026-04-11T09:26:33.952Z</time></trkpt><trkpt lat="39.7931833" lon="-0.2296983"><ele>92.0</ele><time>2026-04-11T09:26:35.952Z</time></trkpt><trkpt lat="39.79317" lon="-0.2295533"><ele>92.0</ele><time>2026-04-11T09:26:37.953Z</time></trkpt><trkpt lat="39.793175" lon="-0.229395"><ele>91.33333333333334</ele><time>2026-04-11T09:26:39.952Z</time></trkpt><trkpt lat="39.793185" lon="-0.2292417"><ele>90.66666666666667</ele><time>2026-04-11T09:26:41.952Z</time></trkpt><trkpt lat="39.7931917" lon="-0.2290767"><ele>90.0</ele><time>2026-04-11T09:26:43.952Z</time></trkpt><trkpt lat="39.7931983" lon="-0.2289917"><ele>89.33333333333333</ele><time>2026-04-11T09:26:44.952Z</time></trkpt><trkpt lat="39.7932083" lon="-0.2289"><ele>88.66666666666666</ele><time>2026-04-11T09:26:45.953Z</time></trkpt><trkpt lat="39.79322" lon="-0.2288183"><ele>88.0</ele><time>2026-04-11T09:26:46.952Z</time></trkpt><trkpt lat="39.7932283" lon="-0.228735"><ele>87.4</ele><time>2026-04-11T09:26:47.952Z</time></trkpt><trkpt lat="39.7932433" lon="-0.2285683"><ele>86.80000000000001</ele><time>2026-04-11T09:26:49.952Z</time></trkpt><trkpt lat="39.79325" lon="-0.228485"><ele>86.2</ele><time>2026-04-11T09:26:50.952Z</time></trkpt><trkpt lat="39.7932583" lon="-0.2284017"><ele>85.6</ele><time>2026-04-11T09:26:51.952Z</time></trkpt><trkpt lat="39.793275" lon="-0.2282433"><ele>85.0</ele><time>2026-04-11T09:26:53.953Z</time></trkpt><trkpt lat="39.7932833" lon="-0.228105"><ele>84.8</ele><time>2026-04-11T09:26:55.953Z</time></trkpt><trkpt lat="39.7932967" lon="-0.2279667"><ele>84.6</ele><time>2026-04-11T09:26:57.952Z</time></trkpt><trkpt lat="39.7933117" lon="-0.2278233"><ele>84.4</ele><time>2026-04-11T09:26:59.952Z</time></trkpt><trkpt lat="39.79335" lon="-0.2276583"><ele>84.2</ele><time>2026-04-11T09:27:01.953Z</time></trkpt><trkpt lat="39.79337" lon="-0.2275767"><ele>84.0</ele><time>2026-04-11T09:27:02.952Z</time></trkpt><trkpt lat="39.7933883" lon="-0.2274967"><ele>84.0</ele><time>2026-04-11T09:27:03.952Z</time></trkpt><trkpt lat="39.7934317" lon="-0.227355"><ele>84.0</ele><time>2026-04-11T09:27:05.952Z</time></trkpt><trkpt lat="39.7934733" lon="-0.227225"><ele>84.0</ele><time>2026-04-11T09:27:07.952Z</time></trkpt><trkpt lat="39.7935183" lon="-0.2270933"><ele>84.0</ele><time>2026-04-11T09:27:09.953Z</time></trkpt><trkpt lat="39.793555" lon="-0.226965"><ele>84.0</ele><time>2026-04-11T09:27:11.952Z</time></trkpt><trkpt lat="39.7935917" lon="-0.2268433"><ele>83.6</ele><time>2026-04-11T09:27:13.952Z</time></trkpt><trkpt lat="39.7936267" lon="-0.2267283"><ele>83.2</ele><time>2026-04-11T09:27:15.952Z</time></trkpt><trkpt lat="39.79368" lon="-0.2266083"><ele>82.8</ele><time>2026-04-11T09:27:17.952Z</time></trkpt><trkpt lat="39.793735" lon="-0.2265"><ele>82.39999999999999</ele><time>2026-04-11T09:27:19.952Z</time></trkpt><trkpt lat="39.7938033" lon="-0.2264067"><ele>82.0</ele><time>2026-04-11T09:27:21.952Z</time></trkpt><trkpt lat="39.793875" lon="-0.2263167"><ele>81.8</ele><time>2026-04-11T09:27:23.952Z</time></trkpt><trkpt lat="39.7939583" lon="-0.2262367"><ele>81.6</ele><time>2026-04-11T09:27:25.953Z</time></trkpt><trkpt lat="39.7940467" lon="-0.2261667"><ele>81.39999999999999</ele><time>2026-04-11T09:27:27.952Z</time></trkpt><trkpt lat="39.7941333" lon="-0.22611"><ele>81.19999999999999</ele><time>2026-04-11T09:27:29.952Z</time></trkpt><trkpt lat="39.7942167" lon="-0.2260417"><ele>81.0</ele><time>2026-04-11T09:27:31.952Z</time></trkpt><trkpt lat="39.7943017" lon="-0.2259783"><ele>81.0</ele><time>2026-04-11T09:27:33.953Z</time></trkpt><trkpt lat="39.794385" lon="-0.2259067"><ele>81.0</ele><time>2026-04-11T09:27:35.952Z</time></trkpt><trkpt lat="39.7944667" lon="-0.22585"><ele>81.0</ele><time>2026-04-11T09:27:37.952Z</time></trkpt><trkpt lat="39.7945383" lon="-0.2257767"><ele>81.0</ele><time>2026-04-11T09:27:39.952Z</time></trkpt><trkpt lat="39.7946083" lon="-0.2256933"><ele>81.0</ele><time>2026-04-11T09:27:41.952Z</time></trkpt><trkpt lat="39.7946733" lon="-0.2256267"><ele>81.0</ele><time>2026-04-11T09:27:43.952Z</time></trkpt><trkpt lat="39.7947267" lon="-0.225555"><ele>81.0</ele><time>2026-04-11T09:27:45.952Z</time></trkpt><trkpt lat="39.794775" lon="-0.22549"><ele>81.0</ele><time>2026-04-11T09:27:47.952Z</time></trkpt><trkpt lat="39.7948233" lon="-0.22542"><ele>81.0</ele><time>2026-04-11T09:27:49.952Z</time></trkpt><trkpt lat="39.7948733" lon="-0.225335"><ele>81.0</ele><time>2026-04-11T09:27:51.953Z</time></trkpt><trkpt lat="39.7949217" lon="-0.2252417"><ele>81.0</ele><time>2026-04-11T09:27:53.952Z</time></trkpt><trkpt lat="39.794985" lon="-0.2251633"><ele>81.0</ele><time>2026-04-11T09:27:55.952Z</time></trkpt><trkpt lat="39.795055" lon="-0.22506"><ele>81.0</ele><time>2026-04-11T09:27:57.952Z</time></trkpt><trkpt lat="39.7951433" lon="-0.2249533"><ele>81.0</ele><time>2026-04-11T09:27:59.952Z</time></trkpt><trkpt lat="39.7952333" lon="-0.2248667"><ele>81.0</ele><time>2026-04-11T09:28:01.953Z</time></trkpt><trkpt lat="39.79532" lon="-0.22479"><ele>81.0</ele><time>2026-04-11T09:28:03.952Z</time></trkpt><trkpt lat="39.7954017" lon="-0.2247067"><ele>80.83333333333333</ele><time>2026-04-11T09:28:05.952Z</time></trkpt><trkpt lat="39.7954733" lon="-0.2246333"><ele>80.66666666666667</ele><time>2026-04-11T09:28:07.952Z</time></trkpt><trkpt lat="39.7955467" lon="-0.224565"><ele>80.5</ele><time>2026-04-11T09:28:09.952Z</time></trkpt><trkpt lat="39.7956217" lon="-0.2245017"><ele>80.33333333333334</ele><time>2026-04-11T09:28:11.952Z</time></trkpt><trkpt lat="39.7956983" lon="-0.2244267"><ele>80.16666666666667</ele><time>2026-04-11T09:28:13.953Z</time></trkpt><trkpt lat="39.795765" lon="-0.224365"><ele>80.0</ele><time>2026-04-11T09:28:15.952Z</time></trkpt><trkpt lat="39.79584" lon="-0.2243017"><ele>80.0</ele><time>2026-04-11T09:28:17.952Z</time></trkpt><trkpt lat="39.7959167" lon="-0.2242383"><ele>80.0</ele><time>2026-04-11T09:28:19.952Z</time></trkpt><trkpt lat="39.795995" lon="-0.2241783"><ele>80.0</ele><time>2026-04-11T09:28:21.952Z</time></trkpt><trkpt lat="39.7960833" lon="-0.22412"><ele>80.0</ele><time>2026-04-11T09:28:23.953Z</time></trkpt><trkpt lat="39.7961567" lon="-0.224045"><ele>80.0</ele><time>2026-04-11T09:28:25.953Z</time></trkpt><trkpt lat="39.7962267" lon="-0.223975"><ele>79.83333333333334</ele><time>2026-04-11T09:28:27.952Z</time></trkpt><trkpt lat="39.796295" lon="-0.223935"><ele>79.66666666666667</ele><time>2026-04-11T09:28:29.953Z</time></trkpt><trkpt lat="39.796365" lon="-0.2239083"><ele>79.5</ele><time>2026-04-11T09:28:31.952Z</time></trkpt><trkpt lat="39.7964583" lon="-0.2238817"><ele>79.33333333333333</ele><time>2026-04-11T09:28:34.953Z</time></trkpt><trkpt lat="39.7965467" lon="-0.2238567"><ele>79.16666666666666</ele><time>2026-04-11T09:28:37.952Z</time></trkpt><trkpt lat="39.7966317" lon="-0.22384"><ele>79.0</ele><time>2026-04-11T09:28:40.953Z</time></trkpt><trkpt lat="39.796715" lon="-0.2238617"><ele>79.00000000000001</ele><time>2026-04-11T09:28:43.952Z</time></trkpt><trkpt lat="39.796785" lon="-0.223905"><ele>79.0</ele><time>2026-04-11T09:28:46.952Z</time></trkpt><trkpt lat="39.7968433" lon="-0.2239567"><ele>79.0</ele><time>2026-04-11T09:28:49.952Z</time></trkpt><trkpt lat="39.79691" lon="-0.2240067"><ele>79.0</ele><time>2026-04-11T09:28:52.952Z</time></trkpt><trkpt lat="39.79697" lon="-0.22405"><ele>79.0</ele><time>2026-04-11T09:28:55.952Z</time></trkpt><trkpt lat="39.7970383" lon="-0.22408"><ele>79.00000000000001</ele><time>2026-04-11T09:28:58.952Z</time></trkpt><trkpt lat="39.7971017" lon="-0.2240767"><ele>79.0</ele><time>2026-04-11T09:29:01.952Z</time></trkpt><trkpt lat="39.79718" lon="-0.2240417"><ele>79.0</ele><time>2026-04-11T09:29:04.953Z</time></trkpt><trkpt lat="39.7972633" lon="-0.22399"><ele>79.0</ele><time>2026-04-11T09:29:07.952Z</time></trkpt><trkpt lat="39.7973217" lon="-0.2239483"><ele>79.0</ele><time>2026-04-11T09:29:09.952Z</time></trkpt><trkpt lat="39.79739" lon="-0.22392"><ele>79.0</ele><time>2026-04-11T09:29:11.952Z</time></trkpt><trkpt lat="39.797455" lon="-0.2239117"><ele>79.0</ele><time>2026-04-11T09:29:13.952Z</time></trkpt><trkpt lat="39.7975433" lon="-0.2239067"><ele>79.0</ele><time>2026-04-11T09:29:16.952Z</time></trkpt><trkpt lat="39.7976067" lon="-0.223885"><ele>79.42857142857143</ele><time>2026-04-11T09:29:18.952Z</time></trkpt><trkpt lat="39.7976717" lon="-0.22387"><ele>79.85714285714286</ele><time>2026-04-11T09:29:20.952Z</time></trkpt><trkpt lat="39.797735" lon="-0.2238533"><ele>80.28571428571428</ele><time>2026-04-11T09:29:22.952Z</time></trkpt><trkpt lat="39.797815" lon="-0.2238167"><ele>80.71428571428572</ele><time>2026-04-11T09:29:25.952Z</time></trkpt><trkpt lat="39.797875" lon="-0.2237883"><ele>81.14285714285714</ele><time>2026-04-11T09:29:27.952Z</time></trkpt><trkpt lat="39.797945" lon="-0.2237483"><ele>81.57142857142857</ele><time>2026-04-11T09:29:29.952Z</time></trkpt><trkpt lat="39.79801" lon="-0.22371"><ele>82.0</ele><time>2026-04-11T09:29:31.952Z</time></trkpt><trkpt lat="39.79808" lon="-0.22367"><ele>82.0</ele><time>2026-04-11T09:29:33.952Z</time></trkpt><trkpt lat="39.7981583" lon="-0.2236367"><ele>82.0</ele><time>2026-04-11T09:29:35.952Z</time></trkpt><trkpt lat="39.7982417" lon="-0.223605"><ele>82.0</ele><time>2026-04-11T09:29:37.953Z</time></trkpt><trkpt lat="39.7983167" lon="-0.2235683"><ele>82.0</ele><time>2026-04-11T09:29:39.952Z</time></trkpt><trkpt lat="39.7983883" lon="-0.223525"><ele>82.0</ele><time>2026-04-11T09:29:41.952Z</time></trkpt><trkpt lat="39.7984617" lon="-0.2234783"><ele>82.0</ele><time>2026-04-11T09:29:43.953Z</time></trkpt><trkpt lat="39.7985333" lon="-0.223445"><ele>83.14285714285714</ele><time>2026-04-11T09:29:45.953Z</time></trkpt><trkpt lat="39.7986017" lon="-0.22342"><ele>84.28571428571428</ele><time>2026-04-11T09:29:47.952Z</time></trkpt><trkpt lat="39.7986683" lon="-0.223415"><ele>85.42857142857142</ele><time>2026-04-11T09:29:49.953Z</time></trkpt><trkpt lat="39.7987383" lon="-0.223425"><ele>86.57142857142857</ele><time>2026-04-11T09:29:52.952Z</time></trkpt><trkpt lat="39.7988033" lon="-0.2234317"><ele>87.71428571428572</ele><time>2026-04-11T09:29:55.952Z</time></trkpt><trkpt lat="39.7988733" lon="-0.2234483"><ele>88.85714285714285</ele><time>2026-04-11T09:29:59.953Z</time></trkpt><trkpt lat="39.798965" lon="-0.2234333"><ele>90.0</ele><time>2026-04-11T09:30:02.952Z</time></trkpt><trkpt lat="39.79903" lon="-0.2234267"><ele>90.0</ele><time>2026-04-11T09:30:04.953Z</time></trkpt><trkpt lat="39.7991167" lon="-0.2234117"><ele>90.0</ele><time>2026-04-11T09:30:07.953Z</time></trkpt><trkpt lat="39.7991917" lon="-0.2233833"><ele>90.0</ele><time>2026-04-11T09:30:10.952Z</time></trkpt><trkpt lat="39.799275" lon="-0.223345"><ele>90.0</ele><time>2026-04-11T09:30:13.952Z</time></trkpt><trkpt lat="39.7993617" lon="-0.2233183"><ele>90.0</ele><time>2026-04-11T09:30:16.953Z</time></trkpt><trkpt lat="39.7994267" lon="-0.223295"><ele>90.0</ele><time>2026-04-11T09:30:19.952Z</time></trkpt><trkpt lat="39.7994917" lon="-0.2232883"><ele>91.0</ele><time>2026-04-11T09:30:23.952Z</time></trkpt><trkpt lat="39.7995783" lon="-0.223265"><ele>92.0</ele><time>2026-04-11T09:30:27.952Z</time></trkpt><trkpt lat="39.79967" lon="-0.2232533"><ele>93.0</ele><time>2026-04-11T09:30:30.952Z</time></trkpt><trkpt lat="39.7997383" lon="-0.2232533"><ele>94.0</ele><time>2026-04-11T09:30:33.952Z</time></trkpt><trkpt lat="39.7998583" lon="-0.223275"><ele>95.0</ele><time>2026-04-11T09:30:44.953Z</time></trkpt><trkpt lat="39.799925" lon="-0.2233083"><ele>96.0</ele><time>2026-04-11T09:30:47.953Z</time></trkpt><trkpt lat="39.80001" lon="-0.223305"><ele>95.99999999999999</ele><time>2026-04-11T09:30:58.952Z</time></trkpt><trkpt lat="39.8000883" lon="-0.2233"><ele>96.0</ele><time>2026-04-11T09:31:02.953Z</time></trkpt><trkpt lat="39.8001683" lon="-0.223285"><ele>96.0</ele><time>2026-04-11T09:31:07.952Z</time></trkpt><trkpt lat="39.8002333" lon="-0.2232867"><ele>96.0</ele><time>2026-04-11T09:31:10.952Z</time></trkpt><trkpt lat="39.80031" lon="-0.22329"><ele>96.0</ele><time>2026-04-11T09:31:13.952Z</time></trkpt><trkpt lat="39.80038" lon="-0.22326"><ele>95.99999999999999</ele><time>2026-04-11T09:31:17.952Z</time></trkpt><trkpt lat="39.800445" lon="-0.223215"><ele>96.0</ele><time>2026-04-11T09:31:38.952Z</time></trkpt><trkpt lat="39.8005133" lon="-0.2232267"><ele>96.71428571428571</ele><time>2026-04-11T09:31:47.952Z</time></trkpt><trkpt lat="39.80058" lon="-0.2232233"><ele>97.42857142857143</ele><time>2026-04-11T09:31:54.952Z</time></trkpt><trkpt lat="39.8006517" lon="-0.2232333"><ele>98.14285714285714</ele><time>2026-04-11T09:32:01.952Z</time></trkpt><trkpt lat="39.8007133" lon="-0.2232517"><ele>98.85714285714286</ele><time>2026-04-11T09:32:10.952Z</time></trkpt><trkpt lat="39.800645" lon="-0.2232267"><ele>99.57142857142857</ele><time>2026-04-11T09:33:10.952Z</time></trkpt><trkpt lat="39.8005683" lon="-0.2232333"><ele>100.28571428571428</ele><time>2026-04-11T09:33:17.953Z</time></trkpt><trkpt lat="39.8004983" lon="-0.2232233"><ele>101.0</ele><time>2026-04-11T09:33:22.952Z</time></trkpt><trkpt lat="39.8004317" lon="-0.2232333"><ele>101.0</ele><time>2026-04-11T09:33:29.952Z</time></trkpt><trkpt lat="39.8003683" lon="-0.2232567"><ele>101.0</ele><time>2026-04-11T09:33:35.952Z</time></trkpt><trkpt lat="39.8002983" lon="-0.2232683"><ele>101.0</ele><time>2026-04-11T09:33:40.952Z</time></trkpt><trkpt lat="39.8002267" lon="-0.22329"><ele>101.0</ele><time>2026-04-11T09:33:45.953Z</time></trkpt><trkpt lat="39.8001467" lon="-0.2232917"><ele>101.0</ele><time>2026-04-11T09:33:50.952Z</time></trkpt><trkpt lat="39.8000833" lon="-0.2233033"><ele>101.0</ele><time>2026-04-11T09:33:53.952Z</time></trkpt><trkpt lat="39.8000183" lon="-0.2233133"><ele>101.0</ele><time>2026-04-11T09:33:56.952Z</time></trkpt><trkpt lat="39.7999433" lon="-0.2232933"><ele>100.16666666666666</ele><time>2026-04-11T09:33:59.952Z</time></trkpt><trkpt lat="39.79986" lon="-0.2232733"><ele>99.33333333333333</ele><time>2026-04-11T09:34:02.953Z</time></trkpt><trkpt lat="39.7997817" lon="-0.223265"><ele>98.5</ele><time>2026-04-11T09:34:06.952Z</time></trkpt><trkpt lat="39.799705" lon="-0.22326"><ele>97.66666666666666</ele><time>2026-04-11T09:34:09.952Z</time></trkpt><trkpt lat="39.7996183" lon="-0.2232767"><ele>96.83333333333333</ele><time>2026-04-11T09:34:12.952Z</time></trkpt><trkpt lat="39.79954" lon="-0.2233017"><ele>96.0</ele><time>2026-04-11T09:34:15.953Z</time></trkpt><trkpt lat="39.7994667" lon="-0.2233083"><ele>96.0</ele><time>2026-04-11T09:34:18.952Z</time></trkpt><trkpt lat="39.7993817" lon="-0.2233317"><ele>96.0</ele><time>2026-04-11T09:34:21.952Z</time></trkpt><trkpt lat="39.79932" lon="-0.2233483"><ele>96.0</ele><time>2026-04-11T09:34:26.952Z</time></trkpt><trkpt lat="39.7992217" lon="-0.2233867"><ele>96.0</ele><time>2026-04-11T09:35:25.951Z</time></trkpt><trkpt lat="39.7991517" lon="-0.2234233"><ele>96.0</ele><time>2026-04-11T09:35:35.951Z</time></trkpt><trkpt lat="39.7990833" lon="-0.22343"><ele>96.0</ele><time>2026-04-11T09:35:38.951Z</time></trkpt><trkpt lat="39.79901" lon="-0.2234483"><ele>95.0</ele><time>2026-04-11T09:35:40.951Z</time></trkpt><trkpt lat="39.7989383" lon="-0.2234633"><ele>94.0</ele><time>2026-04-11T09:35:42.951Z</time></trkpt><trkpt lat="39.79886" lon="-0.2234633"><ele>93.0</ele><time>2026-04-11T09:35:45.951Z</time></trkpt><trkpt lat="39.7987833" lon="-0.22343"><ele>92.0</ele><time>2026-04-11T09:35:49.951Z</time></trkpt><trkpt lat="39.79872" lon="-0.2234017"><ele>91.0</ele><time>2026-04-11T09:35:52.951Z</time></trkpt><trkpt lat="39.7986283" lon="-0.2234133"><ele>90.0</ele><time>2026-04-11T09:35:55.951Z</time></trkpt><trkpt lat="39.798545" lon="-0.2234683"><ele>88.66666666666667</ele><time>2026-04-11T09:35:58.951Z</time></trkpt><trkpt lat="39.7984817" lon="-0.2235067"><ele>87.33333333333333</ele><time>2026-04-11T09:36:00.951Z</time></trkpt><trkpt lat="39.7984083" lon="-0.2235417"><ele>86.0</ele><time>2026-04-11T09:36:02.951Z</time></trkpt><trkpt lat="39.7983267" lon="-0.2235733"><ele>84.66666666666666</ele><time>2026-04-11T09:36:04.951Z</time></trkpt><trkpt lat="39.798245" lon="-0.2236067"><ele>83.33333333333333</ele><time>2026-04-11T09:36:06.952Z</time></trkpt><trkpt lat="39.7981617" lon="-0.2236383"><ele>82.0</ele><time>2026-04-11T09:36:08.951Z</time></trkpt><trkpt lat="39.7980883" lon="-0.2236783"><ele>81.99999999999999</ele><time>2026-04-11T09:36:10.951Z</time></trkpt><trkpt lat="39.798025" lon="-0.2237183"><ele>82.0</ele><time>2026-04-11T09:36:12.951Z</time></trkpt><trkpt lat="39.7979617" lon="-0.2237467"><ele>82.0</ele><time>2026-04-11T09:36:14.951Z</time></trkpt><trkpt lat="39.7979017" lon="-0.223775"><ele>82.0</ele><time>2026-04-11T09:36:16.951Z</time></trkpt><trkpt lat="39.7978283" lon="-0.2238167"><ele>82.0</ele><time>2026-04-11T09:36:19.951Z</time></trkpt><trkpt lat="39.7977383" lon="-0.2238533"><ele>81.99999999999999</ele><time>2026-04-11T09:36:22.951Z</time></trkpt><trkpt lat="39.7976733" lon="-0.223875"><ele>82.0</ele><time>2026-04-11T09:36:24.951Z</time></trkpt><trkpt lat="39.797605" lon="-0.2239033"><ele>81.5</ele><time>2026-04-11T09:36:26.951Z</time></trkpt><trkpt lat="39.7975333" lon="-0.2239267"><ele>81.0</ele><time>2026-04-11T09:36:28.951Z</time></trkpt><trkpt lat="39.7974517" lon="-0.223935"><ele>80.5</ele><time>2026-04-11T09:36:30.951Z</time></trkpt><trkpt lat="39.7973633" lon="-0.2239583"><ele>80.0</ele><time>2026-04-11T09:36:32.952Z</time></trkpt><trkpt lat="39.7972817" lon="-0.2240217"><ele>79.5</ele><time>2026-04-11T09:36:34.952Z</time></trkpt><trkpt lat="39.7972067" lon="-0.2240783"><ele>79.0</ele><time>2026-04-11T09:36:36.951Z</time></trkpt><trkpt lat="39.79715" lon="-0.2241233"><ele>79.0</ele><time>2026-04-11T09:36:38.951Z</time></trkpt><trkpt lat="39.797055" lon="-0.2241133"><ele>79.0</ele><time>2026-04-11T09:36:41.951Z</time></trkpt><trkpt lat="39.7969783" lon="-0.224065"><ele>79.0</ele><time>2026-04-11T09:36:43.951Z</time></trkpt><trkpt lat="39.796895" lon="-0.2239883"><ele>79.0</ele><time>2026-04-11T09:36:45.951Z</time></trkpt><trkpt lat="39.7968017" lon="-0.2239083"><ele>79.0</ele><time>2026-04-11T09:36:47.951Z</time></trkpt><trkpt lat="39.7967017" lon="-0.22387"><ele>79.0</ele><time>2026-04-11T09:36:49.951Z</time></trkpt><trkpt lat="39.7965933" lon="-0.2238733"><ele>79.0</ele><time>2026-04-11T09:36:51.951Z</time></trkpt><trkpt lat="39.79648" lon="-0.2239"><ele>79.0</ele><time>2026-04-11T09:36:53.951Z</time></trkpt><trkpt lat="39.796355" lon="-0.223935"><ele>79.0</ele><time>2026-04-11T09:36:55.951Z</time></trkpt><trkpt lat="39.79629" lon="-0.2239567"><ele>79.0</ele><time>2026-04-11T09:36:56.951Z</time></trkpt><trkpt lat="39.7961817" lon="-0.2240317"><ele>79.16666666666666</ele><time>2026-04-11T09:36:58.951Z</time></trkpt><trkpt lat="39.7961317" lon="-0.2240833"><ele>79.33333333333333</ele><time>2026-04-11T09:36:59.951Z</time></trkpt><trkpt lat="39.7960767" lon="-0.2241333"><ele>79.5</ele><time>2026-04-11T09:37:00.952Z</time></trkpt><trkpt lat="39.7960167" lon="-0.2241833"><ele>79.66666666666667</ele><time>2026-04-11T09:37:01.951Z</time></trkpt><trkpt lat="39.79593" lon="-0.2242683"><ele>79.83333333333334</ele><time>2026-04-11T09:37:03.951Z</time></trkpt><trkpt lat="39.7958333" lon="-0.22435"><ele>80.0</ele><time>2026-04-11T09:37:05.951Z</time></trkpt><trkpt lat="39.7957383" lon="-0.2244267"><ele>80.0</ele><time>2026-04-11T09:37:07.951Z</time></trkpt><trkpt lat="39.795645" lon="-0.2245017"><ele>80.0</ele><time>2026-04-11T09:37:09.952Z</time></trkpt><trkpt lat="39.7955683" lon="-0.2245867"><ele>80.0</ele><time>2026-04-11T09:37:11.952Z</time></trkpt><trkpt lat="39.7954883" lon="-0.224655"><ele>80.0</ele><time>2026-04-11T09:37:13.951Z</time></trkpt><trkpt lat="39.7954067" lon="-0.2247167"><ele>80.0</ele><time>2026-04-11T09:37:15.951Z</time></trkpt><trkpt lat="39.7953283" lon="-0.22478"><ele>80.16666666666667</ele><time>2026-04-11T09:37:17.951Z</time></trkpt><trkpt lat="39.7952617" lon="-0.2248583"><ele>80.33333333333334</ele><time>2026-04-11T09:37:19.951Z</time></trkpt><trkpt lat="39.7952233" lon="-0.22496"><ele>80.5</ele><time>2026-04-11T09:37:21.952Z</time></trkpt><trkpt lat="39.7952333" lon="-0.225065"><ele>80.66666666666667</ele><time>2026-04-11T09:37:23.951Z</time></trkpt><trkpt lat="39.7952417" lon="-0.2251583"><ele>80.83333333333333</ele><time>2026-04-11T09:37:25.951Z</time></trkpt><trkpt lat="39.795245" lon="-0.2252533"><ele>81.0</ele><time>2026-04-11T09:37:27.952Z</time></trkpt><trkpt lat="39.7952383" lon="-0.2253633"><ele>81.0</ele><time>2026-04-11T09:37:29.951Z</time></trkpt><trkpt lat="39.7952433" lon="-0.225465"><ele>81.0</ele><time>2026-04-11T09:37:31.951Z</time></trkpt><trkpt lat="39.79526" lon="-0.22557"><ele>81.0</ele><time>2026-04-11T09:37:33.952Z</time></trkpt><trkpt lat="39.7952733" lon="-0.2256717"><ele>81.0</ele><time>2026-04-11T09:37:35.951Z</time></trkpt><trkpt lat="39.7952883" lon="-0.2257617"><ele>81.0</ele><time>2026-04-11T09:37:37.952Z</time></trkpt><trkpt lat="39.79532" lon="-0.225885"><ele>81.0</ele><time>2026-04-11T09:37:40.951Z</time></trkpt><trkpt lat="39.7953417" lon="-0.2259817"><ele>81.42857142857143</ele><time>2026-04-11T09:37:42.951Z</time></trkpt><trkpt lat="39.7953483" lon="-0.226075"><ele>81.85714285714286</ele><time>2026-04-11T09:37:44.951Z</time></trkpt><trkpt lat="39.79535" lon="-0.226175"><ele>82.28571428571428</ele><time>2026-04-11T09:37:46.952Z</time></trkpt><trkpt lat="39.795345" lon="-0.2262833"><ele>82.71428571428572</ele><time>2026-04-11T09:37:48.952Z</time></trkpt><trkpt lat="39.79535" lon="-0.226375"><ele>83.14285714285714</ele><time>2026-04-11T09:37:50.951Z</time></trkpt><trkpt lat="39.7953733" lon="-0.2264583"><ele>83.57142857142857</ele><time>2026-04-11T09:37:52.951Z</time></trkpt><trkpt lat="39.7954133" lon="-0.2265283"><ele>84.0</ele><time>2026-04-11T09:37:54.951Z</time></trkpt><trkpt lat="39.7954583" lon="-0.22662"><ele>85.0</ele><time>2026-04-11T09:37:56.951Z</time></trkpt><trkpt lat="39.7955" lon="-0.2267067"><ele>86.0</ele><time>2026-04-11T09:37:58.951Z</time></trkpt><trkpt lat="39.7955567" lon="-0.2268"><ele>87.0</ele><time>2026-04-11T09:38:00.951Z</time></trkpt><trkpt lat="39.7956" lon="-0.2268867"><ele>88.0</ele><time>2026-04-11T09:38:02.951Z</time></trkpt><trkpt lat="39.7956383" lon="-0.2269667"><ele>89.0</ele><time>2026-04-11T09:38:04.951Z</time></trkpt><trkpt lat="39.7957" lon="-0.2270167"><ele>90.0</ele><time>2026-04-11T09:38:07.951Z</time></trkpt><trkpt lat="39.795775" lon="-0.2270267"><ele>90.0</ele><time>2026-04-11T09:38:10.951Z</time></trkpt><trkpt lat="39.7958483" lon="-0.2269967"><ele>90.0</ele><time>2026-04-11T09:38:13.951Z</time></trkpt><trkpt lat="39.7959367" lon="-0.2270233"><ele>90.0</ele><time>2026-04-11T09:38:16.951Z</time></trkpt><trkpt lat="39.7960017" lon="-0.227105"><ele>90.0</ele><time>2026-04-11T09:38:19.951Z</time></trkpt><trkpt lat="39.7960333" lon="-0.2272033"><ele>90.0</ele><time>2026-04-11T09:38:22.952Z</time></trkpt><trkpt lat="39.7960617" lon="-0.227315"><ele>90.0</ele><time>2026-04-11T09:38:25.951Z</time></trkpt><trkpt lat="39.7960817" lon="-0.22743"><ele>91.16666666666667</ele><time>2026-04-11T09:38:28.951Z</time></trkpt><trkpt lat="39.7961" lon="-0.2275133"><ele>92.33333333333334</ele><time>2026-04-11T09:38:30.952Z</time></trkpt><trkpt lat="39.7961217" lon="-0.22762"><ele>93.5</ele><time>2026-04-11T09:38:32.951Z</time></trkpt><trkpt lat="39.7961383" lon="-0.22773"><ele>94.66666666666667</ele><time>2026-04-11T09:38:34.951Z</time></trkpt><trkpt lat="39.796135" lon="-0.22785"><ele>95.83333333333334</ele><time>2026-04-11T09:38:36.951Z</time></trkpt><trkpt lat="39.7960867" lon="-0.2279667"><ele>97.0</ele><time>2026-04-11T09:38:38.951Z</time></trkpt><trkpt lat="39.7960133" lon="-0.2280717"><ele>96.8</ele><time>2026-04-11T09:38:40.951Z</time></trkpt><trkpt lat="39.795945" lon="-0.22818"><ele>96.6</ele><time>2026-04-11T09:38:42.951Z</time></trkpt><trkpt lat="39.79591" lon="-0.2282967"><ele>96.39999999999999</ele><time>2026-04-11T09:38:44.952Z</time></trkpt><trkpt lat="39.7958967" lon="-0.228415"><ele>96.19999999999999</ele><time>2026-04-11T09:38:46.951Z</time></trkpt><trkpt lat="39.795915" lon="-0.2285367"><ele>96.0</ele><time>2026-04-11T09:38:48.952Z</time></trkpt><trkpt lat="39.7959517" lon="-0.228645"><ele>96.0</ele><time>2026-04-11T09:38:50.951Z</time></trkpt><trkpt lat="39.7959867" lon="-0.2287483"><ele>96.0</ele><time>2026-04-11T09:38:52.952Z</time></trkpt><trkpt lat="39.79601" lon="-0.2288517"><ele>96.0</ele><time>2026-04-11T09:38:54.952Z</time></trkpt><trkpt lat="39.796025" lon="-0.2289483"><ele>96.0</ele><time>2026-04-11T09:38:56.951Z</time></trkpt><trkpt lat="39.7960333" lon="-0.2290583"><ele>96.0</ele><time>2026-04-11T09:38:58.951Z</time></trkpt><trkpt lat="39.7960467" lon="-0.2291633"><ele>96.0</ele><time>2026-04-11T09:39:00.951Z</time></trkpt><trkpt lat="39.796055" lon="-0.2292683"><ele>97.5</ele><time>2026-04-11T09:39:02.952Z</time></trkpt><trkpt lat="39.79607" lon="-0.229365"><ele>99.0</ele><time>2026-04-11T09:39:04.951Z</time></trkpt><trkpt lat="39.796085" lon="-0.2294533"><ele>100.5</ele><time>2026-04-11T09:39:06.951Z</time></trkpt><trkpt lat="39.7961267" lon="-0.229555"><ele>102.0</ele><time>2026-04-11T09:39:08.951Z</time></trkpt><trkpt lat="39.7961917" lon="-0.22965"><ele>103.5</ele><time>2026-04-11T09:39:10.951Z</time></trkpt><trkpt lat="39.7962483" lon="-0.229755"><ele>105.0</ele><time>2026-04-11T09:39:12.951Z</time></trkpt><trkpt lat="39.7962933" lon="-0.2298667"><ele>105.2</ele><time>2026-04-11T09:39:14.952Z</time></trkpt><trkpt lat="39.7963283" lon="-0.2299933"><ele>105.4</ele><time>2026-04-11T09:39:16.951Z</time></trkpt><trkpt lat="39.79637" lon="-0.23012"><ele>105.6</ele><time>2026-04-11T09:39:18.951Z</time></trkpt><trkpt lat="39.7964333" lon="-0.2302133"><ele>105.8</ele><time>2026-04-11T09:39:20.951Z</time></trkpt><trkpt lat="39.7965067" lon="-0.2303067"><ele>106.0</ele><time>2026-04-11T09:39:22.951Z</time></trkpt><trkpt lat="39.7965767" lon="-0.2303767"><ele>106.00000000000001</ele><time>2026-04-11T09:39:24.952Z</time></trkpt><trkpt lat="39.796655" lon="-0.230395"><ele>106.0</ele><time>2026-04-11T09:39:26.951Z</time></trkpt><trkpt lat="39.79673" lon="-0.23037"><ele>106.0</ele><time>2026-04-11T09:39:28.951Z</time></trkpt><trkpt lat="39.7968083" lon="-0.2303017"><ele>106.0</ele><time>2026-04-11T09:39:30.952Z</time></trkpt><trkpt lat="39.7968783" lon="-0.2302317"><ele>106.00000000000001</ele><time>2026-04-11T09:39:32.951Z</time></trkpt><trkpt lat="39.7969367" lon="-0.23016"><ele>106.0</ele><time>2026-04-11T09:39:34.951Z</time></trkpt><trkpt lat="39.797" lon="-0.2300917"><ele>106.0</ele><time>2026-04-11T09:39:36.951Z</time></trkpt><trkpt lat="39.79706" lon="-0.2300517"><ele>106.0</ele><time>2026-04-11T09:39:38.951Z</time></trkpt><trkpt lat="39.7971217" lon="-0.23007"><ele>106.0</ele><time>2026-04-11T09:39:40.951Z</time></trkpt><trkpt lat="39.7971833" lon="-0.23013"><ele>106.0</ele><time>2026-04-11T09:39:42.951Z</time></trkpt><trkpt lat="39.797215" lon="-0.2302133"><ele>106.0</ele><time>2026-04-11T09:39:44.951Z</time></trkpt><trkpt lat="39.797225" lon="-0.2302983"><ele>106.0</ele><time>2026-04-11T09:39:46.951Z</time></trkpt><trkpt lat="39.797235" lon="-0.2303833"><ele>106.0</ele><time>2026-04-11T09:39:48.951Z</time></trkpt><trkpt lat="39.7972533" lon="-0.2304817"><ele>106.0</ele><time>2026-04-11T09:39:51.951Z</time></trkpt><trkpt lat="39.797265" lon="-0.2305783"><ele>106.0</ele><time>2026-04-11T09:39:54.952Z</time></trkpt><trkpt lat="39.7972783" lon="-0.23068"><ele>106.0</ele><time>2026-04-11T09:39:58.952Z</time></trkpt><trkpt lat="39.7972867" lon="-0.2307683"><ele>106.0</ele><time>2026-04-11T09:40:01.951Z</time></trkpt><trkpt lat="39.7972983" lon="-0.2308583"><ele>106.0</ele><time>2026-04-11T09:40:04.951Z</time></trkpt><trkpt lat="39.797315" lon="-0.2309433"><ele>106.0</ele><time>2026-04-11T09:40:07.952Z</time></trkpt><trkpt lat="39.7973367" lon="-0.2310333"><ele>106.0</ele><time>2026-04-11T09:40:10.951Z</time></trkpt><trkpt lat="39.7973767" lon="-0.2311367"><ele>106.33333333333334</ele><time>2026-04-11T09:40:13.951Z</time></trkpt><trkpt lat="39.7974217" lon="-0.2312167"><ele>106.66666666666667</ele><time>2026-04-11T09:40:16.951Z</time></trkpt><trkpt lat="39.797475" lon="-0.2312917"><ele>107.0</ele><time>2026-04-11T09:40:19.951Z</time></trkpt><trkpt lat="39.797525" lon="-0.2313683"><ele>107.33333333333334</ele><time>2026-04-11T09:40:22.951Z</time></trkpt><trkpt lat="39.797565" lon="-0.23144"><ele>107.66666666666667</ele><time>2026-04-11T09:40:25.951Z</time></trkpt><trkpt lat="39.79761" lon="-0.2315117"><ele>108.0</ele><time>2026-04-11T09:40:28.951Z</time></trkpt><trkpt lat="39.79766" lon="-0.2315983"><ele>108.83333333333333</ele><time>2026-04-11T09:40:31.951Z</time></trkpt><trkpt lat="39.797715" lon="-0.231695"><ele>109.66666666666666</ele><time>2026-04-11T09:40:34.951Z</time></trkpt><trkpt lat="39.7977633" lon="-0.231765"><ele>110.5</ele><time>2026-04-11T09:40:36.951Z</time></trkpt><trkpt lat="39.7978067" lon="-0.2318367"><ele>111.33333333333333</ele><time>2026-04-11T09:40:38.951Z</time></trkpt><trkpt lat="39.7978483" lon="-0.231915"><ele>112.16666666666666</ele><time>2026-04-11T09:40:40.951Z</time></trkpt><trkpt lat="39.7978967" lon="-0.2319983"><ele>113.0</ele><time>2026-04-11T09:40:42.951Z</time></trkpt><trkpt lat="39.7979433" lon="-0.2320817"><ele>112.99999999999999</ele><time>2026-04-11T09:40:44.951Z</time></trkpt><trkpt lat="39.7979867" lon="-0.232175"><ele>113.0</ele><time>2026-04-11T09:40:46.951Z</time></trkpt><trkpt lat="39.7980183" lon="-0.2322833"><ele>113.0</ele><time>2026-04-11T09:40:48.951Z</time></trkpt><trkpt lat="39.7980383" lon="-0.2323833"><ele>113.0</ele><time>2026-04-11T09:40:50.951Z</time></trkpt><trkpt lat="39.7980417" lon="-0.232505"><ele>112.99999999999999</ele><time>2026-04-11T09:40:52.951Z</time></trkpt><trkpt lat="39.798035" lon="-0.232635"><ele>113.0</ele><time>2026-04-11T09:40:54.952Z</time></trkpt><trkpt lat="39.798045" lon="-0.23278"><ele>112.16666666666666</ele><time>2026-04-11T09:40:56.951Z</time></trkpt><trkpt lat="39.7980683" lon="-0.2329283"><ele>111.33333333333333</ele><time>2026-04-11T09:40:58.952Z</time></trkpt><trkpt lat="39.7980767" lon="-0.2330133"><ele>110.5</ele><time>2026-04-11T09:40:59.952Z</time></trkpt><trkpt lat="39.7980817" lon="-0.2331067"><ele>109.66666666666666</ele><time>2026-04-11T09:41:00.951Z</time></trkpt><trkpt lat="39.7980867" lon="-0.2332"><ele>108.83333333333333</ele><time>2026-04-11T09:41:01.951Z</time></trkpt><trkpt lat="39.7981083" lon="-0.23329"><ele>108.0</ele><time>2026-04-11T09:41:02.951Z</time></trkpt><trkpt lat="39.7981383" lon="-0.23337"><ele>108.0</ele><time>2026-04-11T09:41:03.951Z</time></trkpt><trkpt lat="39.7981717" lon="-0.23345"><ele>108.0</ele><time>2026-04-11T09:41:04.951Z</time></trkpt><trkpt lat="39.798235" lon="-0.233605"><ele>108.0</ele><time>2026-04-11T09:41:06.951Z</time></trkpt><trkpt lat="39.7982667" lon="-0.2336867"><ele>108.0</ele><time>2026-04-11T09:41:07.952Z</time></trkpt><trkpt lat="39.7982933" lon="-0.23377"><ele>108.0</ele><time>2026-04-11T09:41:08.951Z</time></trkpt><trkpt lat="39.7983117" lon="-0.2338517"><ele>108.0</ele><time>2026-04-11T09:41:09.951Z</time></trkpt><trkpt lat="39.79835" lon="-0.234005"><ele>107.5</ele><time>2026-04-11T09:41:11.951Z</time></trkpt><trkpt lat="39.7983733" lon="-0.2340867"><ele>107.0</ele><time>2026-04-11T09:41:12.951Z</time></trkpt><trkpt lat="39.7983917" lon="-0.2341717"><ele>106.5</ele><time>2026-04-11T09:41:13.951Z</time></trkpt><trkpt lat="39.7984167" lon="-0.2342533"><ele>106.0</ele><time>2026-04-11T09:41:14.951Z</time></trkpt><trkpt lat="39.798435" lon="-0.2343317"><ele>105.5</ele><time>2026-04-11T09:41:15.951Z</time></trkpt><trkpt lat="39.798475" lon="-0.2344867"><ele>105.0</ele><time>2026-04-11T09:41:17.951Z</time></trkpt><trkpt lat="39.7984967" lon="-0.2346233"><ele>105.5</ele><time>2026-04-11T09:41:19.951Z</time></trkpt><trkpt lat="39.7985233" lon="-0.2347667"><ele>106.0</ele><time>2026-04-11T09:41:21.951Z</time></trkpt><trkpt lat="39.7985633" lon="-0.2349067"><ele>106.5</ele><time>2026-04-11T09:41:23.951Z</time></trkpt><trkpt lat="39.7986067" lon="-0.2350367"><ele>107.0</ele><time>2026-04-11T09:41:25.951Z</time></trkpt><trkpt lat="39.7986533" lon="-0.235175"><ele>107.0</ele><time>2026-04-11T09:41:27.951Z</time></trkpt><trkpt lat="39.7986967" lon="-0.23531"><ele>106.99999999999999</ele><time>2026-04-11T09:41:29.952Z</time></trkpt><trkpt lat="39.7987333" lon="-0.235425"><ele>106.99999999999999</ele><time>2026-04-11T09:41:31.951Z</time></trkpt><trkpt lat="39.798785" lon="-0.235545"><ele>107.0</ele><time>2026-04-11T09:41:33.951Z</time></trkpt><trkpt lat="39.798825" lon="-0.23566"><ele>107.0</ele><time>2026-04-11T09:41:35.951Z</time></trkpt><trkpt lat="39.7988767" lon="-0.235785"><ele>106.25</ele><time>2026-04-11T09:41:37.951Z</time></trkpt><trkpt lat="39.7989267" lon="-0.2359117"><ele>105.5</ele><time>2026-04-11T09:41:39.951Z</time></trkpt><trkpt lat="39.7989733" lon="-0.23605"><ele>104.75</ele><time>2026-04-11T09:41:41.952Z</time></trkpt><trkpt lat="39.799035" lon="-0.2361817"><ele>104.0</ele><time>2026-04-11T09:41:43.951Z</time></trkpt><trkpt lat="39.7990967" lon="-0.2363133"><ele>104.0</ele><time>2026-04-11T09:41:45.951Z</time></trkpt><trkpt lat="39.7991517" lon="-0.2364567"><ele>104.0</ele><time>2026-04-11T09:41:47.951Z</time></trkpt><trkpt lat="39.7992017" lon="-0.2365967"><ele>104.0</ele><time>2026-04-11T09:41:49.951Z</time></trkpt><trkpt lat="39.7992567" lon="-0.236735"><ele>104.0</ele><time>2026-04-11T09:41:51.952Z</time></trkpt><trkpt lat="39.799305" lon="-0.236865"><ele>103.83333333333333</ele><time>2026-04-11T09:41:53.952Z</time></trkpt><trkpt lat="39.799295" lon="-0.2369783"><ele>103.66666666666666</ele><time>2026-04-11T09:41:55.951Z</time></trkpt><trkpt lat="39.7992033" lon="-0.2370667"><ele>103.5</ele><time>2026-04-11T09:41:57.951Z</time></trkpt><trkpt lat="39.7991417" lon="-0.2370967"><ele>103.33333333333334</ele><time>2026-04-11T09:41:58.952Z</time></trkpt><trkpt lat="39.7990733" lon="-0.2371283"><ele>103.16666666666667</ele><time>2026-04-11T09:41:59.951Z</time></trkpt><trkpt lat="39.799005" lon="-0.2371683"><ele>103.0</ele><time>2026-04-11T09:42:00.952Z</time></trkpt><trkpt lat="39.7989367" lon="-0.2372167"><ele>103.00000000000001</ele><time>2026-04-11T09:42:01.951Z</time></trkpt><trkpt lat="39.7988683" lon="-0.2372633"><ele>103.0</ele><time>2026-04-11T09:42:02.951Z</time></trkpt><trkpt lat="39.798805" lon="-0.2373067"><ele>103.0</ele><time>2026-04-11T09:42:03.951Z</time></trkpt><trkpt lat="39.7987417" lon="-0.237345"><ele>103.0</ele><time>2026-04-11T09:42:04.951Z</time></trkpt><trkpt lat="39.7986583" lon="-0.2374033"><ele>103.00000000000001</ele><time>2026-04-11T09:42:06.951Z</time></trkpt><trkpt lat="39.7987017" lon="-0.2375033"><ele>103.0</ele><time>2026-04-11T09:42:10.951Z</time></trkpt><trkpt lat="39.7987917" lon="-0.2375233"><ele>102.66666666666667</ele><time>2026-04-11T09:42:12.951Z</time></trkpt><trkpt lat="39.7988967" lon="-0.2375233"><ele>102.33333333333334</ele><time>2026-04-11T09:42:14.951Z</time></trkpt><trkpt lat="39.7989983" lon="-0.237505"><ele>102.0</ele><time>2026-04-11T09:42:16.951Z</time></trkpt><trkpt lat="39.7990883" lon="-0.2375067"><ele>101.66666666666666</ele><time>2026-04-11T09:42:18.951Z</time></trkpt><trkpt lat="39.799165" lon="-0.23753"><ele>101.33333333333333</ele><time>2026-04-11T09:42:20.951Z</time></trkpt><trkpt lat="39.7992217" lon="-0.237575"><ele>101.0</ele><time>2026-04-11T09:42:22.951Z</time></trkpt><trkpt lat="39.7992783" lon="-0.2376517"><ele>101.0</ele><time>2026-04-11T09:42:25.951Z</time></trkpt><trkpt lat="39.7992983" lon="-0.2377367"><ele>101.0</ele><time>2026-04-11T09:42:28.952Z</time></trkpt><trkpt lat="39.7993183" lon="-0.2378267"><ele>101.0</ele><time>2026-04-11T09:42:31.951Z</time></trkpt><trkpt lat="39.7993433" lon="-0.237915"><ele>101.0</ele><time>2026-04-11T09:42:34.951Z</time></trkpt><trkpt lat="39.7993633" lon="-0.2380167"><ele>101.0</ele><time>2026-04-11T09:42:38.951Z</time></trkpt><trkpt lat="39.7993667" lon="-0.2381083"><ele>101.0</ele><time>2026-04-11T09:42:41.951Z</time></trkpt><trkpt lat="39.7993667" lon="-0.238215"><ele>101.0</ele><time>2026-04-11T09:42:44.951Z</time></trkpt><trkpt lat="39.79938" lon="-0.238325"><ele>100.83333333333333</ele><time>2026-04-11T09:42:47.952Z</time></trkpt><trkpt lat="39.7994033" lon="-0.2384217"><ele>100.66666666666666</ele><time>2026-04-11T09:42:50.951Z</time></trkpt><trkpt lat="39.7994117" lon="-0.238505"><ele>100.5</ele><time>2026-04-11T09:42:53.951Z</time></trkpt><trkpt lat="39.7994117" lon="-0.2386283"><ele>100.33333333333334</ele><time>2026-04-11T09:42:56.951Z</time></trkpt><trkpt lat="39.7994217" lon="-0.2387183"><ele>100.16666666666667</ele><time>2026-04-11T09:42:58.952Z</time></trkpt><trkpt lat="39.7994333" lon="-0.2388217"><ele>100.0</ele><time>2026-04-11T09:43:01.951Z</time></trkpt><trkpt lat="39.799455" lon="-0.23894"><ele>99.50000000000001</ele><time>2026-04-11T09:43:04.951Z</time></trkpt><trkpt lat="39.79949" lon="-0.2390533"><ele>99.0</ele><time>2026-04-11T09:43:07.951Z</time></trkpt><trkpt lat="39.7994983" lon="-0.23917"><ele>98.5</ele><time>2026-04-11T09:43:10.951Z</time></trkpt><trkpt lat="39.7995017" lon="-0.2392817"><ele>98.0</ele><time>2026-04-11T09:43:13.951Z</time></trkpt><trkpt lat="39.7995183" lon="-0.2393633"><ele>97.50000000000001</ele><time>2026-04-11T09:43:15.952Z</time></trkpt><trkpt lat="39.7995417" lon="-0.2394533"><ele>97.0</ele><time>2026-04-11T09:43:17.951Z</time></trkpt><trkpt lat="39.7995517" lon="-0.2395367"><ele>97.00000000000001</ele><time>2026-04-11T09:43:19.952Z</time></trkpt><trkpt lat="39.79956" lon="-0.23965"><ele>97.0</ele><time>2026-04-11T09:43:22.951Z</time></trkpt><trkpt lat="39.79958" lon="-0.23977"><ele>97.0</ele><time>2026-04-11T09:43:25.951Z</time></trkpt><trkpt lat="39.799605" lon="-0.23989"><ele>97.0</ele><time>2026-04-11T09:43:28.951Z</time></trkpt><trkpt lat="39.79962" lon="-0.2399767"><ele>97.00000000000001</ele><time>2026-04-11T09:43:30.951Z</time></trkpt><trkpt lat="39.799635" lon="-0.240065"><ele>97.0</ele><time>2026-04-11T09:43:32.951Z</time></trkpt><trkpt lat="39.7996533" lon="-0.240165"><ele>97.00000000000001</ele><time>2026-04-11T09:43:34.951Z</time></trkpt><trkpt lat="39.799665" lon="-0.240265"><ele>97.0</ele><time>2026-04-11T09:43:36.951Z</time></trkpt><trkpt lat="39.7996783" lon="-0.2403767"><ele>97.0</ele><time>2026-04-11T09:43:38.951Z</time></trkpt><trkpt lat="39.799685" lon="-0.2404967"><ele>97.0</ele><time>2026-04-11T09:43:40.951Z</time></trkpt><trkpt lat="39.79969" lon="-0.240615"><ele>97.00000000000001</ele><time>2026-04-11T09:43:42.951Z</time></trkpt><trkpt lat="39.7996983" lon="-0.24072"><ele>97.0</ele><time>2026-04-11T09:43:44.951Z</time></trkpt><trkpt lat="39.799715" lon="-0.2408267"><ele>97.14285714285714</ele><time>2026-04-11T09:43:46.952Z</time></trkpt><trkpt lat="39.7997317" lon="-0.2409233"><ele>97.28571428571429</ele><time>2026-04-11T09:43:48.952Z</time></trkpt><trkpt lat="39.7997617" lon="-0.2410183"><ele>97.42857142857143</ele><time>2026-04-11T09:43:50.952Z</time></trkpt><trkpt lat="39.7998067" lon="-0.2410933"><ele>97.57142857142857</ele><time>2026-04-11T09:43:52.951Z</time></trkpt><trkpt lat="39.7998617" lon="-0.2411583"><ele>97.71428571428572</ele><time>2026-04-11T09:43:54.951Z</time></trkpt><trkpt lat="39.79992" lon="-0.2412033"><ele>97.85714285714286</ele><time>2026-04-11T09:43:56.951Z</time></trkpt><trkpt lat="39.7999817" lon="-0.2412383"><ele>98.0</ele><time>2026-04-11T09:43:58.951Z</time></trkpt><trkpt lat="39.8000483" lon="-0.2412867"><ele>97.99999999999999</ele><time>2026-04-11T09:44:00.952Z</time></trkpt><trkpt lat="39.800115" lon="-0.2413333"><ele>98.0</ele><time>2026-04-11T09:44:02.951Z</time></trkpt><trkpt lat="39.80016" lon="-0.2414"><ele>98.0</ele><time>2026-04-11T09:44:04.951Z</time></trkpt><trkpt lat="39.8001983" lon="-0.2414683"><ele>98.0</ele><time>2026-04-11T09:44:06.951Z</time></trkpt><trkpt lat="39.8002383" lon="-0.24157"><ele>97.99999999999999</ele><time>2026-04-11T09:44:09.951Z</time></trkpt><trkpt lat="39.8002767" lon="-0.2416767"><ele>98.0</ele><time>2026-04-11T09:44:12.951Z</time></trkpt><trkpt lat="39.8003067" lon="-0.24178"><ele>98.14285714285714</ele><time>2026-04-11T09:44:15.951Z</time></trkpt><trkpt lat="39.8003433" lon="-0.2418917"><ele>98.28571428571428</ele><time>2026-04-11T09:44:18.951Z</time></trkpt><trkpt lat="39.80037" lon="-0.2419733"><ele>98.42857142857143</ele><time>2026-04-11T09:44:20.951Z</time></trkpt><trkpt lat="39.8003933" lon="-0.2420567"><ele>98.57142857142857</ele><time>2026-04-11T09:44:22.952Z</time></trkpt><trkpt lat="39.8004117" lon="-0.2421367"><ele>98.71428571428571</ele><time>2026-04-11T09:44:24.951Z</time></trkpt><trkpt lat="39.80044" lon="-0.2422167"><ele>98.85714285714286</ele><time>2026-04-11T09:44:26.951Z</time></trkpt><trkpt lat="39.8004583" lon="-0.2422983"><ele>99.0</ele><time>2026-04-11T09:44:28.951Z</time></trkpt><trkpt lat="39.80048" lon="-0.242385"><ele>99.33333333333333</ele><time>2026-04-11T09:44:30.951Z</time></trkpt><trkpt lat="39.8005017" lon="-0.2424633"><ele>99.66666666666666</ele><time>2026-04-11T09:44:32.951Z</time></trkpt><trkpt lat="39.8005433" lon="-0.2425667"><ele>100.0</ele><time>2026-04-11T09:44:35.951Z</time></trkpt><trkpt lat="39.8005983" lon="-0.242635"><ele>100.33333333333333</ele><time>2026-04-11T09:44:38.951Z</time></trkpt><trkpt lat="39.8006683" lon="-0.242575"><ele>100.66666666666666</ele><time>2026-04-11T09:44:41.952Z</time></trkpt><trkpt lat="39.80072" lon="-0.2425"><ele>101.0</ele><time>2026-04-11T09:44:43.951Z</time></trkpt><trkpt lat="39.800775" lon="-0.2424217"><ele>101.0</ele><time>2026-04-11T09:44:45.951Z</time></trkpt><trkpt lat="39.8008367" lon="-0.2423433"><ele>101.0</ele><time>2026-04-11T09:44:47.952Z</time></trkpt><trkpt lat="39.8009083" lon="-0.24226"><ele>101.0</ele><time>2026-04-11T09:44:49.951Z</time></trkpt><trkpt lat="39.80098" lon="-0.2421733"><ele>101.0</ele><time>2026-04-11T09:44:51.952Z</time></trkpt><trkpt lat="39.801055" lon="-0.2420767"><ele>101.0</ele><time>2026-04-11T09:44:53.951Z</time></trkpt><trkpt lat="39.801135" lon="-0.241985"><ele>100.4</ele><time>2026-04-11T09:44:55.952Z</time></trkpt><trkpt lat="39.8012133" lon="-0.2418933"><ele>99.8</ele><time>2026-04-11T09:44:57.951Z</time></trkpt><trkpt lat="39.8012967" lon="-0.2417933"><ele>99.2</ele><time>2026-04-11T09:44:59.952Z</time></trkpt><trkpt lat="39.8013817" lon="-0.2416883"><ele>98.60000000000001</ele><time>2026-04-11T09:45:01.951Z</time></trkpt><trkpt lat="39.8014617" lon="-0.2415833"><ele>98.0</ele><time>2026-04-11T09:45:03.951Z</time></trkpt><trkpt lat="39.8015467" lon="-0.24148"><ele>97.75</ele><time>2026-04-11T09:45:05.951Z</time></trkpt><trkpt lat="39.8016317" lon="-0.2413683"><ele>97.5</ele><time>2026-04-11T09:45:07.951Z</time></trkpt><trkpt lat="39.8017183" lon="-0.2412617"><ele>97.25</ele><time>2026-04-11T09:45:09.951Z</time></trkpt><trkpt lat="39.8017983" lon="-0.241155"><ele>97.0</ele><time>2026-04-11T09:45:11.952Z</time></trkpt><trkpt lat="39.8018817" lon="-0.2410483"><ele>96.75</ele><time>2026-04-11T09:45:13.951Z</time></trkpt><trkpt lat="39.801965" lon="-0.2409433"><ele>96.5</ele><time>2026-04-11T09:45:15.951Z</time></trkpt><trkpt lat="39.80205" lon="-0.2408417"><ele>96.25</ele><time>2026-04-11T09:45:17.951Z</time></trkpt><trkpt lat="39.8021333" lon="-0.2407333"><ele>96.0</ele><time>2026-04-11T09:45:19.951Z</time></trkpt><trkpt lat="39.8022183" lon="-0.2406217"><ele>95.4</ele><time>2026-04-11T09:45:21.951Z</time></trkpt><trkpt lat="39.8022683" lon="-0.2405583"><ele>94.8</ele><time>2026-04-11T09:45:22.952Z</time></trkpt><trkpt lat="39.8023567" lon="-0.2404417"><ele>94.2</ele><time>2026-04-11T09:45:24.951Z</time></trkpt><trkpt lat="39.8024333" lon="-0.24034"><ele>93.60000000000001</ele><time>2026-04-11T09:45:26.952Z</time></trkpt><trkpt lat="39.8025117" lon="-0.2402467"><ele>93.0</ele><time>2026-04-11T09:45:28.951Z</time></trkpt><trkpt lat="39.8025833" lon="-0.2401533"><ele>93.0</ele><time>2026-04-11T09:45:30.951Z</time></trkpt><trkpt lat="39.8026533" lon="-0.24006"><ele>93.0</ele><time>2026-04-11T09:45:32.951Z</time></trkpt><trkpt lat="39.8027333" lon="-0.2399617"><ele>93.0</ele><time>2026-04-11T09:45:34.952Z</time></trkpt><trkpt lat="39.8028067" lon="-0.2398717"><ele>93.0</ele><time>2026-04-11T09:45:36.951Z</time></trkpt><trkpt lat="39.8028817" lon="-0.2397817"><ele>93.0</ele><time>2026-04-11T09:45:38.951Z</time></trkpt><trkpt lat="39.8029617" lon="-0.2396783"><ele>93.2</ele><time>2026-04-11T09:45:40.952Z</time></trkpt><trkpt lat="39.803035" lon="-0.2395883"><ele>93.4</ele><time>2026-04-11T09:45:42.952Z</time></trkpt><trkpt lat="39.80311" lon="-0.2394967"><ele>93.60000000000001</ele><time>2026-04-11T09:45:44.951Z</time></trkpt><trkpt lat="39.803185" lon="-0.2394067"><ele>93.80000000000001</ele><time>2026-04-11T09:45:46.952Z</time></trkpt><trkpt lat="39.8032617" lon="-0.239315"><ele>94.0</ele><time>2026-04-11T09:45:48.952Z</time></trkpt><trkpt lat="39.8033333" lon="-0.2392283"><ele>94.0</ele><time>2026-04-11T09:45:50.951Z</time></trkpt><trkpt lat="39.803405" lon="-0.23915"><ele>94.0</ele><time>2026-04-11T09:45:52.951Z</time></trkpt><trkpt lat="39.8034783" lon="-0.23907"><ele>94.0</ele><time>2026-04-11T09:45:54.951Z</time></trkpt><trkpt lat="39.8035533" lon="-0.23898"><ele>94.0</ele><time>2026-04-11T09:45:56.952Z</time></trkpt><trkpt lat="39.803625" lon="-0.238905"><ele>94.0</ele><time>2026-04-11T09:45:58.951Z</time></trkpt><trkpt lat="39.8036983" lon="-0.2388333"><ele>93.4</ele><time>2026-04-11T09:46:00.952Z</time></trkpt><trkpt lat="39.803775" lon="-0.2387567"><ele>92.80000000000001</ele><time>2026-04-11T09:46:02.951Z</time></trkpt><trkpt lat="39.8038533" lon="-0.238675"><ele>92.19999999999999</ele><time>2026-04-11T09:46:04.951Z</time></trkpt><trkpt lat="39.803935" lon="-0.2386017"><ele>91.6</ele><time>2026-04-11T09:46:06.951Z</time></trkpt><trkpt lat="39.8040133" lon="-0.238525"><ele>91.0</ele><time>2026-04-11T09:46:08.951Z</time></trkpt><trkpt lat="39.8040733" lon="-0.23847"><ele>91.0</ele><time>2026-04-11T09:46:10.951Z</time></trkpt><trkpt lat="39.8041467" lon="-0.2383983"><ele>91.0</ele><time>2026-04-11T09:46:12.951Z</time></trkpt><trkpt lat="39.8042167" lon="-0.2383283"><ele>91.0</ele><time>2026-04-11T09:46:14.951Z</time></trkpt><trkpt lat="39.80429" lon="-0.2382617"><ele>91.0</ele><time>2026-04-11T09:46:16.952Z</time></trkpt><trkpt lat="39.8043633" lon="-0.23819"><ele>91.0</ele><time>2026-04-11T09:46:18.951Z</time></trkpt><trkpt lat="39.8044417" lon="-0.238115"><ele>91.0</ele><time>2026-04-11T09:46:20.952Z</time></trkpt><trkpt lat="39.80453" lon="-0.2380317"><ele>91.0</ele><time>2026-04-11T09:46:22.951Z</time></trkpt><trkpt lat="39.8046" lon="-0.2379717"><ele>91.0</ele><time>2026-04-11T09:46:24.951Z</time></trkpt><trkpt lat="39.8046667" lon="-0.2379117"><ele>91.0</ele><time>2026-04-11T09:46:26.951Z</time></trkpt><trkpt lat="39.80473" lon="-0.2378483"><ele>91.0</ele><time>2026-04-11T09:46:28.951Z</time></trkpt><trkpt lat="39.8047983" lon="-0.2377867"><ele>91.0</ele><time>2026-04-11T09:46:30.952Z</time></trkpt><trkpt lat="39.8048733" lon="-0.23772"><ele>91.0</ele><time>2026-04-11T09:46:32.951Z</time></trkpt><trkpt lat="39.8049433" lon="-0.2376567"><ele>91.0</ele><time>2026-04-11T09:46:34.951Z</time></trkpt><trkpt lat="39.8050133" lon="-0.2375883"><ele>91.0</ele><time>2026-04-11T09:46:36.951Z</time></trkpt><trkpt lat="39.8050917" lon="-0.2375133"><ele>91.0</ele><time>2026-04-11T09:46:38.951Z</time></trkpt><trkpt lat="39.80516" lon="-0.2374483"><ele>91.0</ele><time>2026-04-11T09:46:40.951Z</time></trkpt><trkpt lat="39.8052267" lon="-0.2373867"><ele>91.0</ele><time>2026-04-11T09:46:42.951Z</time></trkpt><trkpt lat="39.8052917" lon="-0.2373283"><ele>91.0</ele><time>2026-04-11T09:46:44.951Z</time></trkpt><trkpt lat="39.8053583" lon="-0.23727"><ele>91.0</ele><time>2026-04-11T09:46:46.951Z</time></trkpt><trkpt lat="39.805425" lon="-0.2372117"><ele>91.0</ele><time>2026-04-11T09:46:48.951Z</time></trkpt><trkpt lat="39.8054933" lon="-0.2371533"><ele>91.0</ele><time>2026-04-11T09:46:50.951Z</time></trkpt><trkpt lat="39.805565" lon="-0.237095"><ele>91.0</ele><time>2026-04-11T09:46:52.951Z</time></trkpt><trkpt lat="39.8056367" lon="-0.2370317"><ele>91.0</ele><time>2026-04-11T09:46:54.952Z</time></trkpt><trkpt lat="39.8057167" lon="-0.2369683"><ele>91.0</ele><time>2026-04-11T09:46:56.951Z</time></trkpt><trkpt lat="39.805795" lon="-0.2369117"><ele>91.0</ele><time>2026-04-11T09:46:58.951Z</time></trkpt><trkpt lat="39.8058683" lon="-0.236855"><ele>91.0</ele><time>2026-04-11T09:47:00.952Z</time></trkpt><trkpt lat="39.80594" lon="-0.2367917"><ele>91.0</ele><time>2026-04-11T09:47:02.951Z</time></trkpt><trkpt lat="39.806025" lon="-0.23673"><ele>91.0</ele><time>2026-04-11T09:47:04.951Z</time></trkpt><trkpt lat="39.8060983" lon="-0.236675"><ele>91.0</ele><time>2026-04-11T09:47:06.951Z</time></trkpt><trkpt lat="39.806165" lon="-0.2366217"><ele>91.0</ele><time>2026-04-11T09:47:08.951Z</time></trkpt><trkpt lat="39.80623" lon="-0.2365667"><ele>91.0</ele><time>2026-04-11T09:47:10.951Z</time></trkpt><trkpt lat="39.8062933" lon="-0.2365067"><ele>91.0</ele><time>2026-04-11T09:47:12.951Z</time></trkpt><trkpt lat="39.8063517" lon="-0.2364467"><ele>91.0</ele><time>2026-04-11T09:47:14.951Z</time></trkpt><trkpt lat="39.80641" lon="-0.2363867"><ele>91.0</ele><time>2026-04-11T09:47:16.951Z</time></trkpt><trkpt lat="39.80648" lon="-0.236345"><ele>91.0</ele><time>2026-04-11T09:47:18.952Z</time></trkpt><trkpt lat="39.8065517" lon="-0.23636"><ele>91.0</ele><time>2026-04-11T09:47:20.951Z</time></trkpt><trkpt lat="39.806605" lon="-0.2364167"><ele>91.0</ele><time>2026-04-11T09:47:22.951Z</time></trkpt><trkpt lat="39.806665" lon="-0.2365117"><ele>91.0</ele><time>2026-04-11T09:47:25.951Z</time></trkpt><trkpt lat="39.8067233" lon="-0.2365767"><ele>91.0</ele><time>2026-04-11T09:47:28.951Z</time></trkpt><trkpt lat="39.8067967" lon="-0.236545"><ele>91.0</ele><time>2026-04-11T09:47:32.952Z</time></trkpt><trkpt lat="39.806865" lon="-0.2365433"><ele>91.0</ele><time>2026-04-11T09:47:35.951Z</time></trkpt><trkpt lat="39.8069317" lon="-0.2365367"><ele>93.16666666666666</ele><time>2026-04-11T09:47:38.951Z</time></trkpt><trkpt lat="39.807005" lon="-0.23652"><ele>95.33333333333333</ele><time>2026-04-11T09:47:41.952Z</time></trkpt><trkpt lat="39.8070817" lon="-0.23652"><ele>97.5</ele><time>2026-04-11T09:47:44.951Z</time></trkpt><trkpt lat="39.807165" lon="-0.23651"><ele>99.66666666666666</ele><time>2026-04-11T09:47:47.951Z</time></trkpt><trkpt lat="39.8072483" lon="-0.2365167"><ele>101.83333333333333</ele><time>2026-04-11T09:47:50.951Z</time></trkpt><trkpt lat="39.8073467" lon="-0.2365117"><ele>104.0</ele><time>2026-04-11T09:47:53.951Z</time></trkpt><trkpt lat="39.8074267" lon="-0.23651"><ele>104.0</ele><time>2026-04-11T09:47:55.951Z</time></trkpt><trkpt lat="39.8075133" lon="-0.23653"><ele>104.0</ele><time>2026-04-11T09:47:57.951Z</time></trkpt><trkpt lat="39.807595" lon="-0.2365833"><ele>104.0</ele><time>2026-04-11T09:47:59.952Z</time></trkpt><trkpt lat="39.8076717" lon="-0.2366617"><ele>104.0</ele><time>2026-04-11T09:48:01.952Z</time></trkpt><trkpt lat="39.8077417" lon="-0.236745"><ele>104.0</ele><time>2026-04-11T09:48:03.952Z</time></trkpt><trkpt lat="39.807805" lon="-0.2368283"><ele>103.66666666666666</ele><time>2026-04-11T09:48:05.952Z</time></trkpt><trkpt lat="39.807865" lon="-0.236905"><ele>103.33333333333333</ele><time>2026-04-11T09:48:07.951Z</time></trkpt><trkpt lat="39.8079083" lon="-0.2369983"><ele>103.0</ele><time>2026-04-11T09:48:09.951Z</time></trkpt><trkpt lat="39.8079467" lon="-0.2370967"><ele>102.66666666666666</ele><time>2026-04-11T09:48:11.951Z</time></trkpt><trkpt lat="39.8079817" lon="-0.2372083"><ele>102.33333333333333</ele><time>2026-04-11T09:48:13.951Z</time></trkpt><trkpt lat="39.808015" lon="-0.2373217"><ele>102.0</ele><time>2026-04-11T09:48:15.951Z</time></trkpt><trkpt lat="39.8080467" lon="-0.2374333"><ele>102.8</ele><time>2026-04-11T09:48:17.951Z</time></trkpt><trkpt lat="39.808085" lon="-0.237545"><ele>103.6</ele><time>2026-04-11T09:48:19.952Z</time></trkpt><trkpt lat="39.80812" lon="-0.2376667"><ele>104.39999999999999</ele><time>2026-04-11T09:48:21.951Z</time></trkpt><trkpt lat="39.8081467" lon="-0.2377917"><ele>105.19999999999999</ele><time>2026-04-11T09:48:23.951Z</time></trkpt><trkpt lat="39.8081417" lon="-0.2379033"><ele>106.0</ele><time>2026-04-11T09:48:25.952Z</time></trkpt><trkpt lat="39.808125" lon="-0.2380033"><ele>106.0</ele><time>2026-04-11T09:48:27.951Z</time></trkpt><trkpt lat="39.80811" lon="-0.2380917"><ele>106.0</ele><time>2026-04-11T09:48:29.951Z</time></trkpt><trkpt lat="39.808095" lon="-0.2381817"><ele>106.0</ele><time>2026-04-11T09:48:31.951Z</time></trkpt><trkpt lat="39.80808" lon="-0.2382667"><ele>106.0</ele><time>2026-04-11T09:48:33.951Z</time></trkpt><trkpt lat="39.8080633" lon="-0.238355"><ele>106.0</ele><time>2026-04-11T09:48:35.952Z</time></trkpt><trkpt lat="39.8080383" lon="-0.238445"><ele>106.0</ele><time>2026-04-11T09:48:37.951Z</time></trkpt><trkpt lat="39.8080033" lon="-0.23854"><ele>106.0</ele><time>2026-04-11T09:48:39.951Z</time></trkpt><trkpt lat="39.8079833" lon="-0.2386483"><ele>106.19999999999999</ele><time>2026-04-11T09:48:41.951Z</time></trkpt><trkpt lat="39.8079917" lon="-0.2387583"><ele>106.39999999999999</ele><time>2026-04-11T09:48:43.951Z</time></trkpt><trkpt lat="39.808055" lon="-0.2388433"><ele>106.6</ele><time>2026-04-11T09:48:45.952Z</time></trkpt><trkpt lat="39.80813" lon="-0.238905"><ele>106.8</ele><time>2026-04-11T09:48:47.951Z</time></trkpt><trkpt lat="39.80822" lon="-0.2389783"><ele>107.0</ele><time>2026-04-11T09:48:49.951Z</time></trkpt><trkpt lat="39.808305" lon="-0.2390533"><ele>107.19999999999999</ele><time>2026-04-11T09:48:51.951Z</time></trkpt><trkpt lat="39.8083817" lon="-0.2391233"><ele>107.39999999999999</ele><time>2026-04-11T09:48:53.951Z</time></trkpt><trkpt lat="39.8084633" lon="-0.23919"><ele>107.60000000000001</ele><time>2026-04-11T09:48:55.951Z</time></trkpt><trkpt lat="39.8085467" lon="-0.2392517"><ele>107.80000000000001</ele><time>2026-04-11T09:48:57.951Z</time></trkpt><trkpt lat="39.8086233" lon="-0.239325"><ele>108.0</ele><time>2026-04-11T09:48:59.951Z</time></trkpt><trkpt lat="39.808705" lon="-0.2393967"><ele>108.16666666666667</ele><time>2026-04-11T09:49:01.951Z</time></trkpt><trkpt lat="39.8087733" lon="-0.2394617"><ele>108.33333333333334</ele><time>2026-04-11T09:49:03.952Z</time></trkpt><trkpt lat="39.80884" lon="-0.2395083"><ele>108.5</ele><time>2026-04-11T09:49:05.951Z</time></trkpt><trkpt lat="39.8089033" lon="-0.2395433"><ele>108.66666666666667</ele><time>2026-04-11T09:49:07.951Z</time></trkpt><trkpt lat="39.8089817" lon="-0.2395983"><ele>108.83333333333334</ele><time>2026-04-11T09:49:09.951Z</time></trkpt><trkpt lat="39.8090583" lon="-0.2396583"><ele>109.0</ele><time>2026-04-11T09:49:11.951Z</time></trkpt><trkpt lat="39.8091367" lon="-0.239715"><ele>109.00000000000001</ele><time>2026-04-11T09:49:13.951Z</time></trkpt><trkpt lat="39.80921" lon="-0.2397733"><ele>109.0</ele><time>2026-04-11T09:49:15.951Z</time></trkpt><trkpt lat="39.80928" lon="-0.23983"><ele>109.0</ele><time>2026-04-11T09:49:17.951Z</time></trkpt><trkpt lat="39.809345" lon="-0.23989"><ele>109.0</ele><time>2026-04-11T09:49:19.952Z</time></trkpt><trkpt lat="39.8094033" lon="-0.2399417"><ele>109.00000000000001</ele><time>2026-04-11T09:49:21.951Z</time></trkpt><trkpt lat="39.8094583" lon="-0.2399883"><ele>109.0</ele><time>2026-04-11T09:49:23.951Z</time></trkpt><trkpt lat="39.8095183" lon="-0.2400467"><ele>110.00000000000001</ele><time>2026-04-11T09:49:25.951Z</time></trkpt><trkpt lat="39.8095783" lon="-0.2400933"><ele>111.0</ele><time>2026-04-11T09:49:27.951Z</time></trkpt><trkpt lat="39.809665" lon="-0.2400817"><ele>112.0</ele><time>2026-04-11T09:49:30.951Z</time></trkpt><trkpt lat="39.809725" lon="-0.239985"><ele>113.0</ele><time>2026-04-11T09:49:33.951Z</time></trkpt><trkpt lat="39.8097467" lon="-0.2398917"><ele>114.00000000000001</ele><time>2026-04-11T09:49:35.951Z</time></trkpt><trkpt lat="39.8097933" lon="-0.2398233"><ele>115.0</ele><time>2026-04-11T09:49:37.951Z</time></trkpt><trkpt lat="39.809855" lon="-0.239805"><ele>114.99999999999999</ele><time>2026-04-11T09:49:39.951Z</time></trkpt><trkpt lat="39.80992" lon="-0.2398267"><ele>115.0</ele><time>2026-04-11T09:49:41.951Z</time></trkpt><trkpt lat="39.8099817" lon="-0.2398567"><ele>114.99999999999999</ele><time>2026-04-11T09:49:43.952Z</time></trkpt><trkpt lat="39.8100383" lon="-0.239895"><ele>114.99999999999999</ele><time>2026-04-11T09:49:45.951Z</time></trkpt><trkpt lat="39.8101183" lon="-0.2399483"><ele>115.0</ele><time>2026-04-11T09:49:48.951Z</time></trkpt><trkpt lat="39.8101717" lon="-0.239995"><ele>114.99999999999999</ele><time>2026-04-11T09:49:50.951Z</time></trkpt><trkpt lat="39.8102233" lon="-0.2400483"><ele>114.99999999999999</ele><time>2026-04-11T09:49:52.951Z</time></trkpt><trkpt lat="39.8102967" lon="-0.240115"><ele>116.16666666666667</ele><time>2026-04-11T09:49:55.951Z</time></trkpt><trkpt lat="39.8103617" lon="-0.2401733"><ele>117.33333333333334</ele><time>2026-04-11T09:49:58.951Z</time></trkpt><trkpt lat="39.8104167" lon="-0.2402333"><ele>118.5</ele><time>2026-04-11T09:50:01.951Z</time></trkpt><trkpt lat="39.810485" lon="-0.240295"><ele>119.66666666666666</ele><time>2026-04-11T09:50:04.951Z</time></trkpt><trkpt lat="39.8105583" lon="-0.24031"><ele>120.83333333333333</ele><time>2026-04-11T09:50:07.951Z</time></trkpt><trkpt lat="39.8106383" lon="-0.2402633"><ele>122.0</ele><time>2026-04-11T09:50:11.951Z</time></trkpt><trkpt lat="39.81071" lon="-0.2402767"><ele>121.99999999999999</ele><time>2026-04-11T09:50:14.951Z</time></trkpt><trkpt lat="39.8107517" lon="-0.2403467"><ele>122.0</ele><time>2026-04-11T09:50:17.951Z</time></trkpt><trkpt lat="39.810795" lon="-0.2404333"><ele>121.99999999999999</ele><time>2026-04-11T09:50:20.951Z</time></trkpt><trkpt lat="39.810835" lon="-0.2405367"><ele>121.99999999999999</ele><time>2026-04-11T09:50:23.951Z</time></trkpt><trkpt lat="39.81086" lon="-0.2406133"><ele>122.0</ele><time>2026-04-11T09:50:25.951Z</time></trkpt><trkpt lat="39.81089" lon="-0.2406917"><ele>121.99999999999999</ele><time>2026-04-11T09:50:27.951Z</time></trkpt><trkpt lat="39.81092" lon="-0.2407733"><ele>121.99999999999999</ele><time>2026-04-11T09:50:29.951Z</time></trkpt><trkpt lat="39.8109467" lon="-0.240865"><ele>121.83333333333333</ele><time>2026-04-11T09:50:31.951Z</time></trkpt><trkpt lat="39.8109767" lon="-0.2409583"><ele>121.66666666666666</ele><time>2026-04-11T09:50:33.951Z</time></trkpt><trkpt lat="39.81101" lon="-0.24106"><ele>121.5</ele><time>2026-04-11T09:50:35.951Z</time></trkpt><trkpt lat="39.8110383" lon="-0.2411567"><ele>121.33333333333334</ele><time>2026-04-11T09:50:37.952Z</time></trkpt><trkpt lat="39.81106" lon="-0.2412517"><ele>121.16666666666667</ele><time>2026-04-11T09:50:39.951Z</time></trkpt><trkpt lat="39.81108" lon="-0.2413467"><ele>121.0</ele><time>2026-04-11T09:50:41.952Z</time></trkpt><trkpt lat="39.8111" lon="-0.2414433"><ele>123.4</ele><time>2026-04-11T09:50:43.952Z</time></trkpt><trkpt lat="39.8111217" lon="-0.241545"><ele>125.8</ele><time>2026-04-11T09:50:45.951Z</time></trkpt><trkpt lat="39.8111433" lon="-0.24166"><ele>128.20000000000002</ele><time>2026-04-11T09:50:47.951Z</time></trkpt><trkpt lat="39.8111583" lon="-0.2417917"><ele>130.6</ele><time>2026-04-11T09:50:49.951Z</time></trkpt><trkpt lat="39.8111717" lon="-0.2419133"><ele>133.0</ele><time>2026-04-11T09:50:51.952Z</time></trkpt><trkpt lat="39.8111783" lon="-0.242035"><ele>133.0</ele><time>2026-04-11T09:50:53.951Z</time></trkpt><trkpt lat="39.8111833" lon="-0.2421517"><ele>133.0</ele><time>2026-04-11T09:50:55.952Z</time></trkpt><trkpt lat="39.8111933" lon="-0.2422733"><ele>133.0</ele><time>2026-04-11T09:50:57.952Z</time></trkpt><trkpt lat="39.8112033" lon="-0.2423967"><ele>133.0</ele><time>2026-04-11T09:50:59.951Z</time></trkpt><trkpt lat="39.8112083" lon="-0.24252"><ele>133.0</ele><time>2026-04-11T09:51:01.951Z</time></trkpt><trkpt lat="39.8112167" lon="-0.2426467"><ele>133.0</ele><time>2026-04-11T09:51:03.951Z</time></trkpt><trkpt lat="39.8112333" lon="-0.2427817"><ele>133.0</ele><time>2026-04-11T09:51:05.952Z</time></trkpt><trkpt lat="39.811245" lon="-0.2428983"><ele>133.0</ele><time>2026-04-11T09:51:07.951Z</time></trkpt><trkpt lat="39.8112583" lon="-0.2430183"><ele>133.0</ele><time>2026-04-11T09:51:09.951Z</time></trkpt><trkpt lat="39.8112783" lon="-0.2431283"><ele>133.0</ele><time>2026-04-11T09:51:11.951Z</time></trkpt><trkpt lat="39.8112933" lon="-0.243245"><ele>133.33333333333334</ele><time>2026-04-11T09:51:13.952Z</time></trkpt><trkpt lat="39.811315" lon="-0.2433633"><ele>133.66666666666669</ele><time>2026-04-11T09:51:15.951Z</time></trkpt><trkpt lat="39.8113383" lon="-0.2434733"><ele>134.0</ele><time>2026-04-11T09:51:17.951Z</time></trkpt><trkpt lat="39.8113583" lon="-0.24358"><ele>134.33333333333334</ele><time>2026-04-11T09:51:19.951Z</time></trkpt><trkpt lat="39.8113783" lon="-0.2436767"><ele>134.66666666666666</ele><time>2026-04-11T09:51:21.952Z</time></trkpt><trkpt lat="39.8114033" lon="-0.2437733"><ele>135.0</ele><time>2026-04-11T09:51:23.951Z</time></trkpt><trkpt lat="39.8114217" lon="-0.243865"><ele>135.0</ele><time>2026-04-11T09:51:25.952Z</time></trkpt><trkpt lat="39.81144" lon="-0.243955"><ele>135.0</ele><time>2026-04-11T09:51:27.951Z</time></trkpt><trkpt lat="39.8114567" lon="-0.2440383"><ele>135.0</ele><time>2026-04-11T09:51:29.951Z</time></trkpt><trkpt lat="39.811475" lon="-0.24412"><ele>135.0</ele><time>2026-04-11T09:51:31.951Z</time></trkpt><trkpt lat="39.81151" lon="-0.2442367"><ele>135.0</ele><time>2026-04-11T09:51:34.951Z</time></trkpt><trkpt lat="39.8115383" lon="-0.2443167"><ele>135.0</ele><time>2026-04-11T09:51:36.951Z</time></trkpt><trkpt lat="39.811575" lon="-0.2444017"><ele>135.0</ele><time>2026-04-11T09:51:38.951Z</time></trkpt><trkpt lat="39.81162" lon="-0.244475"><ele>134.71428571428572</ele><time>2026-04-11T09:51:40.951Z</time></trkpt><trkpt lat="39.81167" lon="-0.2445333"><ele>134.42857142857142</ele><time>2026-04-11T09:51:42.951Z</time></trkpt><trkpt lat="39.8117167" lon="-0.2445883"><ele>134.14285714285714</ele><time>2026-04-11T09:51:44.951Z</time></trkpt><trkpt lat="39.81179" lon="-0.2446633"><ele>133.85714285714286</ele><time>2026-04-11T09:51:47.951Z</time></trkpt><trkpt lat="39.81184" lon="-0.2447183"><ele>133.57142857142856</ele><time>2026-04-11T09:51:49.952Z</time></trkpt><trkpt lat="39.8118917" lon="-0.244775"><ele>133.28571428571428</ele><time>2026-04-11T09:51:51.951Z</time></trkpt><trkpt lat="39.8119417" lon="-0.2448267"><ele>133.0</ele><time>2026-04-11T09:51:53.951Z</time></trkpt><trkpt lat="39.8119867" lon="-0.244895"><ele>134.0</ele><time>2026-04-11T09:51:55.951Z</time></trkpt><trkpt lat="39.812015" lon="-0.24497"><ele>135.0</ele><time>2026-04-11T09:51:57.952Z</time></trkpt><trkpt lat="39.812045" lon="-0.2450767"><ele>136.0</ele><time>2026-04-11T09:52:00.951Z</time></trkpt><trkpt lat="39.812065" lon="-0.245155"><ele>137.0</ele><time>2026-04-11T09:52:02.951Z</time></trkpt><trkpt lat="39.81209" lon="-0.2452517"><ele>138.0</ele><time>2026-04-11T09:52:04.951Z</time></trkpt><trkpt lat="39.81212" lon="-0.2453383"><ele>139.0</ele><time>2026-04-11T09:52:06.951Z</time></trkpt><trkpt lat="39.8121767" lon="-0.2454083"><ele>140.0</ele><time>2026-04-11T09:52:08.951Z</time></trkpt><trkpt lat="39.8122383" lon="-0.24546"><ele>140.0</ele><time>2026-04-11T09:52:10.952Z</time></trkpt><trkpt lat="39.8123117" lon="-0.2454667"><ele>140.0</ele><time>2026-04-11T09:52:12.951Z</time></trkpt><trkpt lat="39.8123867" lon="-0.2454567"><ele>140.0</ele><time>2026-04-11T09:52:14.951Z</time></trkpt><trkpt lat="39.81245" lon="-0.24543"><ele>140.0</ele><time>2026-04-11T09:52:16.951Z</time></trkpt><trkpt lat="39.8125167" lon="-0.2454"><ele>140.0</ele><time>2026-04-11T09:52:18.951Z</time></trkpt><trkpt lat="39.8125883" lon="-0.24538"><ele>140.0</ele><time>2026-04-11T09:52:20.952Z</time></trkpt><trkpt lat="39.812655" lon="-0.2453533"><ele>140.0</ele><time>2026-04-11T09:52:22.951Z</time></trkpt><trkpt lat="39.8127183" lon="-0.2453183"><ele>141.0</ele><time>2026-04-11T09:52:24.952Z</time></trkpt><trkpt lat="39.8127817" lon="-0.245285"><ele>142.0</ele><time>2026-04-11T09:52:26.951Z</time></trkpt><trkpt lat="39.8128567" lon="-0.2452583"><ele>143.0</ele><time>2026-04-11T09:52:28.951Z</time></trkpt><trkpt lat="39.812925" lon="-0.2452167"><ele>144.0</ele><time>2026-04-11T09:52:30.951Z</time></trkpt><trkpt lat="39.812995" lon="-0.24517"><ele>145.0</ele><time>2026-04-11T09:52:32.952Z</time></trkpt><trkpt lat="39.8130683" lon="-0.2451333"><ele>146.0</ele><time>2026-04-11T09:52:34.951Z</time></trkpt><trkpt lat="39.813145" lon="-0.2451017"><ele>146.0</ele><time>2026-04-11T09:52:36.951Z</time></trkpt><trkpt lat="39.8132217" lon="-0.245095"><ele>146.0</ele><time>2026-04-11T09:52:38.951Z</time></trkpt><trkpt lat="39.8132883" lon="-0.2451167"><ele>146.0</ele><time>2026-04-11T09:52:40.951Z</time></trkpt><trkpt lat="39.8133417" lon="-0.2451617"><ele>146.0</ele><time>2026-04-11T09:52:42.951Z</time></trkpt><trkpt lat="39.81338" lon="-0.2452283"><ele>146.0</ele><time>2026-04-11T09:52:44.952Z</time></trkpt><trkpt lat="39.81341" lon="-0.245305"><ele>146.0</ele><time>2026-04-11T09:52:46.951Z</time></trkpt><trkpt lat="39.8134417" lon="-0.2453933"><ele>146.0</ele><time>2026-04-11T09:52:48.951Z</time></trkpt><trkpt lat="39.8134717" lon="-0.24549"><ele>147.33333333333331</ele><time>2026-04-11T09:52:50.951Z</time></trkpt><trkpt lat="39.8135117" lon="-0.245595"><ele>148.66666666666666</ele><time>2026-04-11T09:52:52.951Z</time></trkpt><trkpt lat="39.81354" lon="-0.245695"><ele>150.0</ele><time>2026-04-11T09:52:54.952Z</time></trkpt><trkpt lat="39.8135583" lon="-0.245795"><ele>151.33333333333334</ele><time>2026-04-11T09:52:56.951Z</time></trkpt><trkpt lat="39.81357" lon="-0.24588"><ele>152.66666666666669</ele><time>2026-04-11T09:52:58.951Z</time></trkpt><trkpt lat="39.8135883" lon="-0.2459683"><ele>154.0</ele><time>2026-04-11T09:53:00.951Z</time></trkpt><trkpt lat="39.8136083" lon="-0.24607"><ele>154.6</ele><time>2026-04-11T09:53:02.952Z</time></trkpt><trkpt lat="39.813625" lon="-0.2461933"><ele>155.2</ele><time>2026-04-11T09:53:04.951Z</time></trkpt><trkpt lat="39.8136383" lon="-0.2463217"><ele>155.79999999999998</ele><time>2026-04-11T09:53:06.951Z</time></trkpt><trkpt lat="39.81364" lon="-0.2464517"><ele>156.4</ele><time>2026-04-11T09:53:08.951Z</time></trkpt><trkpt lat="39.8136317" lon="-0.2465817"><ele>157.0</ele><time>2026-04-11T09:53:10.952Z</time></trkpt><trkpt lat="39.81364" lon="-0.2467083"><ele>157.0</ele><time>2026-04-11T09:53:12.951Z</time></trkpt><trkpt lat="39.8136733" lon="-0.2468167"><ele>157.0</ele><time>2026-04-11T09:53:14.951Z</time></trkpt><trkpt lat="39.8137333" lon="-0.246885"><ele>157.0</ele><time>2026-04-11T09:53:16.951Z</time></trkpt><trkpt lat="39.8138" lon="-0.2469333"><ele>157.0</ele><time>2026-04-11T09:53:18.951Z</time></trkpt><trkpt lat="39.81386" lon="-0.2469717"><ele>157.0</ele><time>2026-04-11T09:53:20.951Z</time></trkpt><trkpt lat="39.8139333" lon="-0.2470133"><ele>157.0</ele><time>2026-04-11T09:53:23.951Z</time></trkpt><trkpt lat="39.8139933" lon="-0.247085"><ele>157.0</ele><time>2026-04-11T09:53:26.951Z</time></trkpt><trkpt lat="39.8140333" lon="-0.2471817"><ele>157.0</ele><time>2026-04-11T09:53:29.951Z</time></trkpt><trkpt lat="39.8140567" lon="-0.24726"><ele>157.0</ele><time>2026-04-11T09:53:31.951Z</time></trkpt><trkpt lat="39.8140783" lon="-0.2473767"><ele>157.0</ele><time>2026-04-11T09:53:34.952Z</time></trkpt><trkpt lat="39.8140917" lon="-0.2474667"><ele>157.0</ele><time>2026-04-11T09:53:36.951Z</time></trkpt><trkpt lat="39.8141017" lon="-0.2475867"><ele>157.0</ele><time>2026-04-11T09:53:38.951Z</time></trkpt><trkpt lat="39.8141133" lon="-0.247725"><ele>157.8</ele><time>2026-04-11T09:53:40.952Z</time></trkpt><trkpt lat="39.814135" lon="-0.2478667"><ele>158.6</ele><time>2026-04-11T09:53:42.951Z</time></trkpt><trkpt lat="39.8141633" lon="-0.2479983"><ele>159.4</ele><time>2026-04-11T09:53:44.951Z</time></trkpt><trkpt lat="39.814225" lon="-0.248095"><ele>160.20000000000002</ele><time>2026-04-11T09:53:46.951Z</time></trkpt><trkpt lat="39.8143117" lon="-0.2481367"><ele>161.0</ele><time>2026-04-11T09:53:48.952Z</time></trkpt><trkpt lat="39.8143967" lon="-0.2481567"><ele>161.0</ele><time>2026-04-11T09:53:50.952Z</time></trkpt><trkpt lat="39.8144767" lon="-0.24817"><ele>161.0</ele><time>2026-04-11T09:53:52.952Z</time></trkpt><trkpt lat="39.8145533" lon="-0.24818"><ele>161.0</ele><time>2026-04-11T09:53:54.952Z</time></trkpt><trkpt lat="39.8146317" lon="-0.2481983"><ele>161.0</ele><time>2026-04-11T09:53:56.951Z</time></trkpt><trkpt lat="39.8147083" lon="-0.2482233"><ele>161.0</ele><time>2026-04-11T09:53:58.952Z</time></trkpt><trkpt lat="39.8147833" lon="-0.2482467"><ele>161.0</ele><time>2026-04-11T09:54:00.951Z</time></trkpt><trkpt lat="39.8148533" lon="-0.248275"><ele>161.0</ele><time>2026-04-11T09:54:02.951Z</time></trkpt><trkpt lat="39.814925" lon="-0.2483067"><ele>161.0</ele><time>2026-04-11T09:54:04.951Z</time></trkpt><trkpt lat="39.8149917" lon="-0.24834"><ele>161.0</ele><time>2026-04-11T09:54:06.951Z</time></trkpt><trkpt lat="39.8150583" lon="-0.2483683"><ele>161.0</ele><time>2026-04-11T09:54:08.951Z</time></trkpt><trkpt lat="39.8151233" lon="-0.2483867"><ele>161.0</ele><time>2026-04-11T09:54:10.951Z</time></trkpt><trkpt lat="39.815215" lon="-0.2484017"><ele>161.0</ele><time>2026-04-11T09:54:13.951Z</time></trkpt><trkpt lat="39.8153" lon="-0.2483883"><ele>162.0</ele><time>2026-04-11T09:54:16.952Z</time></trkpt><trkpt lat="39.81537" lon="-0.248315"><ele>163.0</ele><time>2026-04-11T09:54:19.952Z</time></trkpt><trkpt lat="39.81542" lon="-0.2482433"><ele>164.0</ele><time>2026-04-11T09:54:21.951Z</time></trkpt><trkpt lat="39.8154783" lon="-0.24816"><ele>165.0</ele><time>2026-04-11T09:54:23.951Z</time></trkpt><trkpt lat="39.815545" lon="-0.2480733"><ele>166.0</ele><time>2026-04-11T09:54:25.951Z</time></trkpt><trkpt lat="39.8156117" lon="-0.2479883"><ele>167.0</ele><time>2026-04-11T09:54:27.951Z</time></trkpt><trkpt lat="39.8156683" lon="-0.2479"><ele>167.0</ele><time>2026-04-11T09:54:29.951Z</time></trkpt><trkpt lat="39.8157233" lon="-0.2478117"><ele>167.0</ele><time>2026-04-11T09:54:31.951Z</time></trkpt><trkpt lat="39.8157817" lon="-0.247725"><ele>167.0</ele><time>2026-04-11T09:54:33.951Z</time></trkpt><trkpt lat="39.81583" lon="-0.2476317"><ele>167.0</ele><time>2026-04-11T09:54:35.951Z</time></trkpt><trkpt lat="39.8158667" lon="-0.24755"><ele>167.0</ele><time>2026-04-11T09:54:37.952Z</time></trkpt><trkpt lat="39.8159033" lon="-0.2474717"><ele>167.0</ele><time>2026-04-11T09:54:39.951Z</time></trkpt><trkpt lat="39.81593" lon="-0.2473933"><ele>167.0</ele><time>2026-04-11T09:54:41.951Z</time></trkpt><trkpt lat="39.8159617" lon="-0.2473183"><ele>167.0</ele><time>2026-04-11T09:54:43.951Z</time></trkpt><trkpt lat="39.8159967" lon="-0.2472417"><ele>167.0</ele><time>2026-04-11T09:54:45.951Z</time></trkpt><trkpt lat="39.81602" lon="-0.247165"><ele>167.0</ele><time>2026-04-11T09:54:47.952Z</time></trkpt><trkpt lat="39.8160417" lon="-0.2470833"><ele>167.0</ele><time>2026-04-11T09:54:49.951Z</time></trkpt><trkpt lat="39.8160817" lon="-0.2469883"><ele>167.0</ele><time>2026-04-11T09:54:52.951Z</time></trkpt><trkpt lat="39.8161133" lon="-0.2469167"><ele>167.0</ele><time>2026-04-11T09:54:54.952Z</time></trkpt><trkpt lat="39.81615" lon="-0.2468433"><ele>168.5</ele><time>2026-04-11T09:54:56.951Z</time></trkpt><trkpt lat="39.8161883" lon="-0.2467717"><ele>170.0</ele><time>2026-04-11T09:54:58.951Z</time></trkpt><trkpt lat="39.816235" lon="-0.24667"><ele>171.5</ele><time>2026-04-11T09:55:01.951Z</time></trkpt><trkpt lat="39.816275" lon="-0.2465667"><ele>173.0</ele><time>2026-04-11T09:55:04.951Z</time></trkpt><trkpt lat="39.8163117" lon="-0.2464517"><ele>174.5</ele><time>2026-04-11T09:55:07.951Z</time></trkpt><trkpt lat="39.816345" lon="-0.2463617"><ele>176.0</ele><time>2026-04-11T09:55:09.952Z</time></trkpt><trkpt lat="39.8163783" lon="-0.2462867"><ele>176.0</ele><time>2026-04-11T09:55:11.95Z</time></trkpt><trkpt lat="39.8164067" lon="-0.2462133"><ele>176.0</ele><time>2026-04-11T09:55:13.951Z</time></trkpt><trkpt lat="39.816445" lon="-0.246095"><ele>176.0</ele><time>2026-04-11T09:55:16.95Z</time></trkpt><trkpt lat="39.8164783" lon="-0.24599"><ele>176.0</ele><time>2026-04-11T09:55:19.95Z</time></trkpt><trkpt lat="39.816545" lon="-0.2459217"><ele>176.0</ele><time>2026-04-11T09:55:22.95Z</time></trkpt><trkpt lat="39.816625" lon="-0.2458883"><ele>176.0</ele><time>2026-04-11T09:55:25.95Z</time></trkpt><trkpt lat="39.8166967" lon="-0.2459"><ele>176.0</ele><time>2026-04-11T09:55:29.95Z</time></trkpt><trkpt lat="39.8167667" lon="-0.2459167"><ele>176.0</ele><time>2026-04-11T09:55:34.951Z</time></trkpt></trkseg></trk></gpx>